<?xml version="1.0" encoding="UTF-8" standalone="no" ?>
<gpx xmlns="http://www.topografix.com/GPX/1/1" xmlns:xsi="http://www.w3.org/2001/XMLSchema-instance" xsi:schemaLocation="http://www.topografix.com/GPX/1/1 http://www.topografix.com/GPX/1/1/gpx.xsd" version="1.1" creator="VisuGPX - https://www.visugpx.com">
  <metadata>
    <name>Rando Aveyron Lot - étape 3</name>
    <desc><![CDATA[effectuée le 18 septembre 2017]]></desc>
  </metadata>
  <trk>
    <name><![CDATA[20170926213445-HDkUa]]></name>
    <trkseg>
      <trkpt lat="44.397" lon="2.1502">
        <ele>492</ele>
        <time>2017-09-18T07:37:45Z</time>
      </trkpt>
      <trkpt lat="44.39699" lon="2.1502">
        <ele>492</ele>
        <time>2017-09-18T07:37:46Z</time>
      </trkpt>
      <trkpt lat="44.39697" lon="2.15018">
        <ele>492</ele>
        <time>2017-09-18T07:37:48Z</time>
      </trkpt>
      <trkpt lat="44.39695" lon="2.15017">
        <ele>492</ele>
        <time>2017-09-18T07:37:50Z</time>
      </trkpt>
      <trkpt lat="44.39693" lon="2.15017">
        <ele>492</ele>
        <time>2017-09-18T07:37:52Z</time>
      </trkpt>
      <trkpt lat="44.39691" lon="2.15018">
        <ele>492</ele>
        <time>2017-09-18T07:37:54Z</time>
      </trkpt>
      <trkpt lat="44.3969" lon="2.15018">
        <ele>492</ele>
        <time>2017-09-18T07:37:56Z</time>
      </trkpt>
      <trkpt lat="44.39684" lon="2.15022">
        <ele>493</ele>
        <time>2017-09-18T07:38:02Z</time>
      </trkpt>
      <trkpt lat="44.39679" lon="2.15029">
        <ele>492</ele>
        <time>2017-09-18T07:38:10Z</time>
      </trkpt>
      <trkpt lat="44.39673" lon="2.1504">
        <ele>492</ele>
        <time>2017-09-18T07:38:19Z</time>
      </trkpt>
      <trkpt lat="44.39672" lon="2.15042">
        <ele>492</ele>
        <time>2017-09-18T07:38:21Z</time>
      </trkpt>
      <trkpt lat="44.3967" lon="2.15044">
        <ele>492</ele>
        <time>2017-09-18T07:38:23Z</time>
      </trkpt>
      <trkpt lat="44.39656" lon="2.15068">
        <ele>492</ele>
        <time>2017-09-18T07:38:43Z</time>
      </trkpt>
      <trkpt lat="44.39654" lon="2.15071">
        <ele>492</ele>
        <time>2017-09-18T07:38:47Z</time>
      </trkpt>
      <trkpt lat="44.39651" lon="2.15078">
        <ele>492</ele>
        <time>2017-09-18T07:39:20Z</time>
      </trkpt>
      <trkpt lat="44.39648" lon="2.1508">
        <ele>492</ele>
        <time>2017-09-18T07:39:24Z</time>
      </trkpt>
      <trkpt lat="44.39637" lon="2.15098">
        <ele>490</ele>
        <time>2017-09-18T07:39:39Z</time>
      </trkpt>
      <trkpt lat="44.39635" lon="2.15102">
        <ele>490</ele>
        <time>2017-09-18T07:39:43Z</time>
      </trkpt>
      <trkpt lat="44.39619" lon="2.15129">
        <ele>489</ele>
        <time>2017-09-18T07:40:05Z</time>
      </trkpt>
      <trkpt lat="44.39591" lon="2.15161">
        <ele>488</ele>
        <time>2017-09-18T07:40:36Z</time>
      </trkpt>
      <trkpt lat="44.39587" lon="2.15164">
        <ele>488</ele>
        <time>2017-09-18T07:40:39Z</time>
      </trkpt>
      <trkpt lat="44.39579" lon="2.15176">
        <ele>488</ele>
        <time>2017-09-18T07:40:48Z</time>
      </trkpt>
      <trkpt lat="44.39573" lon="2.15196">
        <ele>487</ele>
        <time>2017-09-18T07:41:01Z</time>
      </trkpt>
      <trkpt lat="44.39569" lon="2.15211">
        <ele>486</ele>
        <time>2017-09-18T07:41:11Z</time>
      </trkpt>
      <trkpt lat="44.39569" lon="2.15216">
        <ele>486</ele>
        <time>2017-09-18T07:41:14Z</time>
      </trkpt>
      <trkpt lat="44.39569" lon="2.15225">
        <ele>486</ele>
        <time>2017-09-18T07:41:20Z</time>
      </trkpt>
      <trkpt lat="44.39568" lon="2.1528">
        <ele>484</ele>
        <time>2017-09-18T07:41:51Z</time>
      </trkpt>
      <trkpt lat="44.39568" lon="2.15339">
        <ele>482</ele>
        <time>2017-09-18T07:42:23Z</time>
      </trkpt>
      <trkpt lat="44.3957" lon="2.15387">
        <ele>484</ele>
        <time>2017-09-18T07:42:50Z</time>
      </trkpt>
      <trkpt lat="44.39571" lon="2.15416">
        <ele>485</ele>
        <time>2017-09-18T07:43:07Z</time>
      </trkpt>
      <trkpt lat="44.39572" lon="2.15421">
        <ele>487</ele>
        <time>2017-09-18T07:43:10Z</time>
      </trkpt>
      <trkpt lat="44.39572" lon="2.15431">
        <ele>487</ele>
        <time>2017-09-18T07:43:17Z</time>
      </trkpt>
      <trkpt lat="44.39572" lon="2.15438">
        <ele>487</ele>
        <time>2017-09-18T07:43:21Z</time>
      </trkpt>
      <trkpt lat="44.39573" lon="2.15445">
        <ele>487</ele>
        <time>2017-09-18T07:43:25Z</time>
      </trkpt>
      <trkpt lat="44.39568" lon="2.1546">
        <ele>488</ele>
        <time>2017-09-18T07:43:34Z</time>
      </trkpt>
      <trkpt lat="44.39569" lon="2.15466">
        <ele>488</ele>
        <time>2017-09-18T07:43:36Z</time>
      </trkpt>
      <trkpt lat="44.3957" lon="2.15473">
        <ele>489</ele>
        <time>2017-09-18T07:43:40Z</time>
      </trkpt>
      <trkpt lat="44.39573" lon="2.15478">
        <ele>489</ele>
        <time>2017-09-18T07:43:45Z</time>
      </trkpt>
      <trkpt lat="44.39576" lon="2.1548">
        <ele>489</ele>
        <time>2017-09-18T07:43:47Z</time>
      </trkpt>
      <trkpt lat="44.39579" lon="2.15483">
        <ele>489</ele>
        <time>2017-09-18T07:43:50Z</time>
      </trkpt>
      <trkpt lat="44.39591" lon="2.15495">
        <ele>489</ele>
        <time>2017-09-18T07:44:04Z</time>
      </trkpt>
      <trkpt lat="44.39602" lon="2.15499">
        <ele>488</ele>
        <time>2017-09-18T07:44:14Z</time>
      </trkpt>
      <trkpt lat="44.39606" lon="2.155">
        <ele>486</ele>
        <time>2017-09-18T07:44:17Z</time>
      </trkpt>
      <trkpt lat="44.39608" lon="2.15503">
        <ele>485</ele>
        <time>2017-09-18T07:44:20Z</time>
      </trkpt>
      <trkpt lat="44.39611" lon="2.1551">
        <ele>485</ele>
        <time>2017-09-18T07:44:25Z</time>
      </trkpt>
      <trkpt lat="44.39613" lon="2.15514">
        <ele>484</ele>
        <time>2017-09-18T07:44:28Z</time>
      </trkpt>
      <trkpt lat="44.39616" lon="2.15518">
        <ele>484</ele>
        <time>2017-09-18T07:44:32Z</time>
      </trkpt>
      <trkpt lat="44.39619" lon="2.15521">
        <ele>483</ele>
        <time>2017-09-18T07:44:35Z</time>
      </trkpt>
      <trkpt lat="44.39622" lon="2.1553">
        <ele>483</ele>
        <time>2017-09-18T07:44:44Z</time>
      </trkpt>
      <trkpt lat="44.39625" lon="2.15535">
        <ele>482</ele>
        <time>2017-09-18T07:44:48Z</time>
      </trkpt>
      <trkpt lat="44.39626" lon="2.1554">
        <ele>482</ele>
        <time>2017-09-18T07:44:52Z</time>
      </trkpt>
      <trkpt lat="44.3963" lon="2.15545">
        <ele>481</ele>
        <time>2017-09-18T07:44:56Z</time>
      </trkpt>
      <trkpt lat="44.39637" lon="2.1555">
        <ele>481</ele>
        <time>2017-09-18T07:45:02Z</time>
      </trkpt>
      <trkpt lat="44.39659" lon="2.15563">
        <ele>479</ele>
        <time>2017-09-18T07:45:23Z</time>
      </trkpt>
      <trkpt lat="44.39668" lon="2.15567">
        <ele>475</ele>
        <time>2017-09-18T07:45:32Z</time>
      </trkpt>
      <trkpt lat="44.39672" lon="2.15569">
        <ele>475</ele>
        <time>2017-09-18T07:45:36Z</time>
      </trkpt>
      <trkpt lat="44.39677" lon="2.15571">
        <ele>475</ele>
        <time>2017-09-18T07:45:40Z</time>
      </trkpt>
      <trkpt lat="44.39686" lon="2.15573">
        <ele>475</ele>
        <time>2017-09-18T07:45:48Z</time>
      </trkpt>
      <trkpt lat="44.3969" lon="2.15574">
        <ele>475</ele>
        <time>2017-09-18T07:45:52Z</time>
      </trkpt>
      <trkpt lat="44.39694" lon="2.15576">
        <ele>475</ele>
        <time>2017-09-18T07:45:56Z</time>
      </trkpt>
      <trkpt lat="44.39698" lon="2.15578">
        <ele>474</ele>
        <time>2017-09-18T07:46:01Z</time>
      </trkpt>
      <trkpt lat="44.39707" lon="2.15579">
        <ele>474</ele>
        <time>2017-09-18T07:46:12Z</time>
      </trkpt>
      <trkpt lat="44.39711" lon="2.15581">
        <ele>474</ele>
        <time>2017-09-18T07:46:16Z</time>
      </trkpt>
      <trkpt lat="44.39714" lon="2.15582">
        <ele>474</ele>
        <time>2017-09-18T07:46:19Z</time>
      </trkpt>
      <trkpt lat="44.39723" lon="2.15583">
        <ele>473</ele>
        <time>2017-09-18T07:46:30Z</time>
      </trkpt>
      <trkpt lat="44.3973" lon="2.15586">
        <ele>469</ele>
        <time>2017-09-18T07:46:37Z</time>
      </trkpt>
      <trkpt lat="44.39754" lon="2.15589">
        <ele>470</ele>
        <time>2017-09-18T07:47:04Z</time>
      </trkpt>
      <trkpt lat="44.39757" lon="2.15589">
        <ele>470</ele>
        <time>2017-09-18T07:47:06Z</time>
      </trkpt>
      <trkpt lat="44.39761" lon="2.1559">
        <ele>470</ele>
        <time>2017-09-18T07:47:09Z</time>
      </trkpt>
      <trkpt lat="44.39764" lon="2.15591">
        <ele>470</ele>
        <time>2017-09-18T07:47:12Z</time>
      </trkpt>
      <trkpt lat="44.39778" lon="2.15593">
        <ele>470</ele>
        <time>2017-09-18T07:47:25Z</time>
      </trkpt>
      <trkpt lat="44.39783" lon="2.15592">
        <ele>471</ele>
        <time>2017-09-18T07:47:31Z</time>
      </trkpt>
      <trkpt lat="44.39804" lon="2.15596">
        <ele>471</ele>
        <time>2017-09-18T07:48:01Z</time>
      </trkpt>
      <trkpt lat="44.39808" lon="2.15597">
        <ele>471</ele>
        <time>2017-09-18T07:48:08Z</time>
      </trkpt>
      <trkpt lat="44.39812" lon="2.15598">
        <ele>471</ele>
        <time>2017-09-18T07:48:13Z</time>
      </trkpt>
      <trkpt lat="44.39822" lon="2.156">
        <ele>472</ele>
        <time>2017-09-18T07:48:24Z</time>
      </trkpt>
      <trkpt lat="44.39827" lon="2.15601">
        <ele>472</ele>
        <time>2017-09-18T07:48:28Z</time>
      </trkpt>
      <trkpt lat="44.39831" lon="2.15602">
        <ele>472</ele>
        <time>2017-09-18T07:48:33Z</time>
      </trkpt>
      <trkpt lat="44.39838" lon="2.15603">
        <ele>475</ele>
        <time>2017-09-18T07:48:42Z</time>
      </trkpt>
      <trkpt lat="44.39844" lon="2.15605">
        <ele>475</ele>
        <time>2017-09-18T07:48:48Z</time>
      </trkpt>
      <trkpt lat="44.39849" lon="2.15606">
        <ele>475</ele>
        <time>2017-09-18T07:48:54Z</time>
      </trkpt>
      <trkpt lat="44.39854" lon="2.15608">
        <ele>475</ele>
        <time>2017-09-18T07:49:00Z</time>
      </trkpt>
      <trkpt lat="44.39858" lon="2.1561">
        <ele>476</ele>
        <time>2017-09-18T07:49:06Z</time>
      </trkpt>
      <trkpt lat="44.39863" lon="2.15612">
        <ele>476</ele>
        <time>2017-09-18T07:49:10Z</time>
      </trkpt>
      <trkpt lat="44.39869" lon="2.15614">
        <ele>476</ele>
        <time>2017-09-18T07:49:16Z</time>
      </trkpt>
      <trkpt lat="44.39875" lon="2.15617">
        <ele>476</ele>
        <time>2017-09-18T07:49:22Z</time>
      </trkpt>
      <trkpt lat="44.3988" lon="2.15621">
        <ele>477</ele>
        <time>2017-09-18T07:49:28Z</time>
      </trkpt>
      <trkpt lat="44.39883" lon="2.15624">
        <ele>477</ele>
        <time>2017-09-18T07:49:31Z</time>
      </trkpt>
      <trkpt lat="44.39887" lon="2.15627">
        <ele>477</ele>
        <time>2017-09-18T07:49:34Z</time>
      </trkpt>
      <trkpt lat="44.3989" lon="2.15629">
        <ele>477</ele>
        <time>2017-09-18T07:49:37Z</time>
      </trkpt>
      <trkpt lat="44.39894" lon="2.15631">
        <ele>477</ele>
        <time>2017-09-18T07:49:40Z</time>
      </trkpt>
      <trkpt lat="44.39897" lon="2.15633">
        <ele>478</ele>
        <time>2017-09-18T07:49:43Z</time>
      </trkpt>
      <trkpt lat="44.39906" lon="2.15637">
        <ele>478</ele>
        <time>2017-09-18T07:49:52Z</time>
      </trkpt>
      <trkpt lat="44.39918" lon="2.15644">
        <ele>481</ele>
        <time>2017-09-18T07:50:03Z</time>
      </trkpt>
      <trkpt lat="44.39926" lon="2.15647">
        <ele>481</ele>
        <time>2017-09-18T07:50:09Z</time>
      </trkpt>
      <trkpt lat="44.39936" lon="2.15651">
        <ele>482</ele>
        <time>2017-09-18T07:50:18Z</time>
      </trkpt>
      <trkpt lat="44.39942" lon="2.15651">
        <ele>482</ele>
        <time>2017-09-18T07:50:30Z</time>
      </trkpt>
      <trkpt lat="44.39946" lon="2.15652">
        <ele>482</ele>
        <time>2017-09-18T07:50:34Z</time>
      </trkpt>
      <trkpt lat="44.3995" lon="2.15652">
        <ele>482</ele>
        <time>2017-09-18T07:50:39Z</time>
      </trkpt>
      <trkpt lat="44.39956" lon="2.15652">
        <ele>482</ele>
        <time>2017-09-18T07:50:45Z</time>
      </trkpt>
      <trkpt lat="44.39964" lon="2.15649">
        <ele>482</ele>
        <time>2017-09-18T07:50:54Z</time>
      </trkpt>
      <trkpt lat="44.39977" lon="2.15642">
        <ele>483</ele>
        <time>2017-09-18T07:51:09Z</time>
      </trkpt>
      <trkpt lat="44.39981" lon="2.15642">
        <ele>483</ele>
        <time>2017-09-18T07:51:15Z</time>
      </trkpt>
      <trkpt lat="44.39987" lon="2.15641">
        <ele>483</ele>
        <time>2017-09-18T07:51:23Z</time>
      </trkpt>
      <trkpt lat="44.39992" lon="2.15641">
        <ele>483</ele>
        <time>2017-09-18T07:51:30Z</time>
      </trkpt>
      <trkpt lat="44.40005" lon="2.15642">
        <ele>486</ele>
        <time>2017-09-18T07:51:44Z</time>
      </trkpt>
      <trkpt lat="44.40011" lon="2.15642">
        <ele>486</ele>
        <time>2017-09-18T07:51:50Z</time>
      </trkpt>
      <trkpt lat="44.40016" lon="2.15644">
        <ele>486</ele>
        <time>2017-09-18T07:52:00Z</time>
      </trkpt>
      <trkpt lat="44.40022" lon="2.15642">
        <ele>487</ele>
        <time>2017-09-18T07:52:11Z</time>
      </trkpt>
      <trkpt lat="44.40028" lon="2.15639">
        <ele>487</ele>
        <time>2017-09-18T07:52:17Z</time>
      </trkpt>
      <trkpt lat="44.40034" lon="2.1564">
        <ele>487</ele>
        <time>2017-09-18T07:52:23Z</time>
      </trkpt>
      <trkpt lat="44.40038" lon="2.15637">
        <ele>487</ele>
        <time>2017-09-18T07:52:27Z</time>
      </trkpt>
      <trkpt lat="44.40043" lon="2.15635">
        <ele>488</ele>
        <time>2017-09-18T07:52:30Z</time>
      </trkpt>
      <trkpt lat="44.40048" lon="2.15632">
        <ele>488</ele>
        <time>2017-09-18T07:52:34Z</time>
      </trkpt>
      <trkpt lat="44.40055" lon="2.15626">
        <ele>488</ele>
        <time>2017-09-18T07:52:44Z</time>
      </trkpt>
      <trkpt lat="44.40059" lon="2.15624">
        <ele>488</ele>
        <time>2017-09-18T07:52:49Z</time>
      </trkpt>
      <trkpt lat="44.40063" lon="2.15621">
        <ele>488</ele>
        <time>2017-09-18T07:52:55Z</time>
      </trkpt>
      <trkpt lat="44.40068" lon="2.15618">
        <ele>489</ele>
        <time>2017-09-18T07:53:01Z</time>
      </trkpt>
      <trkpt lat="44.40073" lon="2.15615">
        <ele>489</ele>
        <time>2017-09-18T07:53:09Z</time>
      </trkpt>
      <trkpt lat="44.40078" lon="2.15613">
        <ele>489</ele>
        <time>2017-09-18T07:53:15Z</time>
      </trkpt>
      <trkpt lat="44.40084" lon="2.15609">
        <ele>493</ele>
        <time>2017-09-18T07:53:22Z</time>
      </trkpt>
      <trkpt lat="44.40089" lon="2.15606">
        <ele>493</ele>
        <time>2017-09-18T07:53:29Z</time>
      </trkpt>
      <trkpt lat="44.40092" lon="2.15604">
        <ele>493</ele>
        <time>2017-09-18T07:53:34Z</time>
      </trkpt>
      <trkpt lat="44.40093" lon="2.15599">
        <ele>493</ele>
        <time>2017-09-18T07:54:20Z</time>
      </trkpt>
      <trkpt lat="44.40097" lon="2.15594">
        <ele>493</ele>
        <time>2017-09-18T07:54:29Z</time>
      </trkpt>
      <trkpt lat="44.40109" lon="2.15583">
        <ele>493</ele>
        <time>2017-09-18T07:54:41Z</time>
      </trkpt>
      <trkpt lat="44.40118" lon="2.15576">
        <ele>494</ele>
        <time>2017-09-18T07:54:50Z</time>
      </trkpt>
      <trkpt lat="44.40121" lon="2.15575">
        <ele>494</ele>
        <time>2017-09-18T07:54:52Z</time>
      </trkpt>
      <trkpt lat="44.40125" lon="2.15573">
        <ele>494</ele>
        <time>2017-09-18T07:54:55Z</time>
      </trkpt>
      <trkpt lat="44.40129" lon="2.15571">
        <ele>494</ele>
        <time>2017-09-18T07:54:58Z</time>
      </trkpt>
      <trkpt lat="44.40132" lon="2.1557">
        <ele>494</ele>
        <time>2017-09-18T07:55:00Z</time>
      </trkpt>
      <trkpt lat="44.40137" lon="2.15567">
        <ele>495</ele>
        <time>2017-09-18T07:55:07Z</time>
      </trkpt>
      <trkpt lat="44.40146" lon="2.15562">
        <ele>495</ele>
        <time>2017-09-18T07:55:17Z</time>
      </trkpt>
      <trkpt lat="44.4015" lon="2.15559">
        <ele>495</ele>
        <time>2017-09-18T07:55:20Z</time>
      </trkpt>
      <trkpt lat="44.40152" lon="2.15557">
        <ele>495</ele>
        <time>2017-09-18T07:55:22Z</time>
      </trkpt>
      <trkpt lat="44.40155" lon="2.15555">
        <ele>495</ele>
        <time>2017-09-18T07:55:25Z</time>
      </trkpt>
      <trkpt lat="44.40165" lon="2.15549">
        <ele>495</ele>
        <time>2017-09-18T07:55:34Z</time>
      </trkpt>
      <trkpt lat="44.40179" lon="2.15541">
        <ele>499</ele>
        <time>2017-09-18T07:55:47Z</time>
      </trkpt>
      <trkpt lat="44.40184" lon="2.15538">
        <ele>499</ele>
        <time>2017-09-18T07:55:51Z</time>
      </trkpt>
      <trkpt lat="44.40193" lon="2.15535">
        <ele>499</ele>
        <time>2017-09-18T07:56:00Z</time>
      </trkpt>
      <trkpt lat="44.40201" lon="2.15527">
        <ele>500</ele>
        <time>2017-09-18T07:56:09Z</time>
      </trkpt>
      <trkpt lat="44.40204" lon="2.15525">
        <ele>500</ele>
        <time>2017-09-18T07:56:12Z</time>
      </trkpt>
      <trkpt lat="44.40208" lon="2.15523">
        <ele>500</ele>
        <time>2017-09-18T07:56:16Z</time>
      </trkpt>
      <trkpt lat="44.40212" lon="2.1552">
        <ele>500</ele>
        <time>2017-09-18T07:56:21Z</time>
      </trkpt>
      <trkpt lat="44.40216" lon="2.15515">
        <ele>500</ele>
        <time>2017-09-18T07:56:28Z</time>
      </trkpt>
      <trkpt lat="44.40222" lon="2.15512">
        <ele>500</ele>
        <time>2017-09-18T07:56:32Z</time>
      </trkpt>
      <trkpt lat="44.40224" lon="2.15507">
        <ele>500</ele>
        <time>2017-09-18T07:56:35Z</time>
      </trkpt>
      <trkpt lat="44.40231" lon="2.15501">
        <ele>501</ele>
        <time>2017-09-18T07:56:41Z</time>
      </trkpt>
      <trkpt lat="44.40234" lon="2.15498">
        <ele>501</ele>
        <time>2017-09-18T07:56:44Z</time>
      </trkpt>
      <trkpt lat="44.40237" lon="2.15495">
        <ele>501</ele>
        <time>2017-09-18T07:56:49Z</time>
      </trkpt>
      <trkpt lat="44.40247" lon="2.15484">
        <ele>501</ele>
        <time>2017-09-18T07:56:58Z</time>
      </trkpt>
      <trkpt lat="44.40249" lon="2.15481">
        <ele>501</ele>
        <time>2017-09-18T07:57:01Z</time>
      </trkpt>
      <trkpt lat="44.40252" lon="2.15478">
        <ele>504</ele>
        <time>2017-09-18T07:57:04Z</time>
      </trkpt>
      <trkpt lat="44.40255" lon="2.15474">
        <ele>505</ele>
        <time>2017-09-18T07:57:08Z</time>
      </trkpt>
      <trkpt lat="44.40263" lon="2.15466">
        <ele>505</ele>
        <time>2017-09-18T07:57:16Z</time>
      </trkpt>
      <trkpt lat="44.40266" lon="2.15462">
        <ele>505</ele>
        <time>2017-09-18T07:57:19Z</time>
      </trkpt>
      <trkpt lat="44.40269" lon="2.15458">
        <ele>505</ele>
        <time>2017-09-18T07:57:23Z</time>
      </trkpt>
      <trkpt lat="44.40271" lon="2.15454">
        <ele>505</ele>
        <time>2017-09-18T07:57:25Z</time>
      </trkpt>
      <trkpt lat="44.40277" lon="2.15446">
        <ele>506</ele>
        <time>2017-09-18T07:57:32Z</time>
      </trkpt>
      <trkpt lat="44.40278" lon="2.15441">
        <ele>506</ele>
        <time>2017-09-18T07:57:35Z</time>
      </trkpt>
      <trkpt lat="44.40281" lon="2.15436">
        <ele>506</ele>
        <time>2017-09-18T07:57:39Z</time>
      </trkpt>
      <trkpt lat="44.40284" lon="2.15432">
        <ele>506</ele>
        <time>2017-09-18T07:57:43Z</time>
      </trkpt>
      <trkpt lat="44.40289" lon="2.15428">
        <ele>506</ele>
        <time>2017-09-18T07:57:47Z</time>
      </trkpt>
      <trkpt lat="44.40291" lon="2.15425">
        <ele>506</ele>
        <time>2017-09-18T07:57:50Z</time>
      </trkpt>
      <trkpt lat="44.40301" lon="2.15413">
        <ele>506</ele>
        <time>2017-09-18T07:58:03Z</time>
      </trkpt>
      <trkpt lat="44.40309" lon="2.15408">
        <ele>506</ele>
        <time>2017-09-18T07:58:10Z</time>
      </trkpt>
      <trkpt lat="44.40315" lon="2.15401">
        <ele>506</ele>
        <time>2017-09-18T07:58:18Z</time>
      </trkpt>
      <trkpt lat="44.40326" lon="2.15392">
        <ele>506</ele>
        <time>2017-09-18T07:58:28Z</time>
      </trkpt>
      <trkpt lat="44.4034" lon="2.15374">
        <ele>510</ele>
        <time>2017-09-18T07:58:43Z</time>
      </trkpt>
      <trkpt lat="44.40343" lon="2.15372">
        <ele>510</ele>
        <time>2017-09-18T07:58:45Z</time>
      </trkpt>
      <trkpt lat="44.40351" lon="2.15359">
        <ele>510</ele>
        <time>2017-09-18T07:58:57Z</time>
      </trkpt>
      <trkpt lat="44.40354" lon="2.15357">
        <ele>510</ele>
        <time>2017-09-18T07:59:00Z</time>
      </trkpt>
      <trkpt lat="44.40371" lon="2.15357">
        <ele>510</ele>
        <time>2017-09-18T07:59:17Z</time>
      </trkpt>
      <trkpt lat="44.40377" lon="2.15359">
        <ele>511</ele>
        <time>2017-09-18T07:59:23Z</time>
      </trkpt>
      <trkpt lat="44.40381" lon="2.1536">
        <ele>511</ele>
        <time>2017-09-18T07:59:26Z</time>
      </trkpt>
      <trkpt lat="44.40385" lon="2.15363">
        <ele>511</ele>
        <time>2017-09-18T07:59:30Z</time>
      </trkpt>
      <trkpt lat="44.4039" lon="2.15364">
        <ele>511</ele>
        <time>2017-09-18T07:59:34Z</time>
      </trkpt>
      <trkpt lat="44.404" lon="2.15368">
        <ele>511</ele>
        <time>2017-09-18T07:59:44Z</time>
      </trkpt>
      <trkpt lat="44.4043" lon="2.1538">
        <ele>515</ele>
        <time>2017-09-18T08:00:11Z</time>
      </trkpt>
      <trkpt lat="44.40436" lon="2.15383">
        <ele>515</ele>
        <time>2017-09-18T08:00:17Z</time>
      </trkpt>
      <trkpt lat="44.40476" lon="2.15399">
        <ele>515</ele>
        <time>2017-09-18T08:00:47Z</time>
      </trkpt>
      <trkpt lat="44.40487" lon="2.15401">
        <ele>516</ele>
        <time>2017-09-18T08:00:55Z</time>
      </trkpt>
      <trkpt lat="44.40508" lon="2.154">
        <ele>516</ele>
        <time>2017-09-18T08:01:10Z</time>
      </trkpt>
      <trkpt lat="44.40516" lon="2.15396">
        <ele>516</ele>
        <time>2017-09-18T08:01:17Z</time>
      </trkpt>
      <trkpt lat="44.4052" lon="2.15396">
        <ele>516</ele>
        <time>2017-09-18T08:01:21Z</time>
      </trkpt>
      <trkpt lat="44.40524" lon="2.15395">
        <ele>517</ele>
        <time>2017-09-18T08:01:24Z</time>
      </trkpt>
      <trkpt lat="44.40527" lon="2.15394">
        <ele>517</ele>
        <time>2017-09-18T08:01:27Z</time>
      </trkpt>
      <trkpt lat="44.4054" lon="2.15391">
        <ele>517</ele>
        <time>2017-09-18T08:01:37Z</time>
      </trkpt>
      <trkpt lat="44.40543" lon="2.1539">
        <ele>517</ele>
        <time>2017-09-18T08:01:39Z</time>
      </trkpt>
      <trkpt lat="44.40567" lon="2.15388">
        <ele>517</ele>
        <time>2017-09-18T08:01:57Z</time>
      </trkpt>
      <trkpt lat="44.40573" lon="2.15387">
        <ele>517</ele>
        <time>2017-09-18T08:02:02Z</time>
      </trkpt>
      <trkpt lat="44.40604" lon="2.1538">
        <ele>516</ele>
        <time>2017-09-18T08:02:28Z</time>
      </trkpt>
      <trkpt lat="44.40608" lon="2.1538">
        <ele>516</ele>
        <time>2017-09-18T08:02:32Z</time>
      </trkpt>
      <trkpt lat="44.40627" lon="2.15377">
        <ele>515</ele>
        <time>2017-09-18T08:02:46Z</time>
      </trkpt>
      <trkpt lat="44.40656" lon="2.15363">
        <ele>515</ele>
        <time>2017-09-18T08:03:11Z</time>
      </trkpt>
      <trkpt lat="44.40658" lon="2.15363">
        <ele>515</ele>
        <time>2017-09-18T08:03:13Z</time>
      </trkpt>
      <trkpt lat="44.40663" lon="2.15356">
        <ele>515</ele>
        <time>2017-09-18T08:03:19Z</time>
      </trkpt>
      <trkpt lat="44.40666" lon="2.15355">
        <ele>515</ele>
        <time>2017-09-18T08:03:30Z</time>
      </trkpt>
      <trkpt lat="44.40672" lon="2.15355">
        <ele>513</ele>
        <time>2017-09-18T08:03:35Z</time>
      </trkpt>
      <trkpt lat="44.40683" lon="2.1535">
        <ele>513</ele>
        <time>2017-09-18T08:03:46Z</time>
      </trkpt>
      <trkpt lat="44.40685" lon="2.15348">
        <ele>513</ele>
        <time>2017-09-18T08:03:49Z</time>
      </trkpt>
      <trkpt lat="44.40691" lon="2.15345">
        <ele>513</ele>
        <time>2017-09-18T08:04:03Z</time>
      </trkpt>
      <trkpt lat="44.40695" lon="2.15343">
        <ele>513</ele>
        <time>2017-09-18T08:04:07Z</time>
      </trkpt>
      <trkpt lat="44.40698" lon="2.15342">
        <ele>513</ele>
        <time>2017-09-18T08:04:10Z</time>
      </trkpt>
      <trkpt lat="44.40701" lon="2.15341">
        <ele>513</ele>
        <time>2017-09-18T08:04:13Z</time>
      </trkpt>
      <trkpt lat="44.40732" lon="2.15322">
        <ele>512</ele>
        <time>2017-09-18T08:04:43Z</time>
      </trkpt>
      <trkpt lat="44.40743" lon="2.15316">
        <ele>512</ele>
        <time>2017-09-18T08:05:01Z</time>
      </trkpt>
      <trkpt lat="44.40748" lon="2.15312">
        <ele>512</ele>
        <time>2017-09-18T08:05:07Z</time>
      </trkpt>
      <trkpt lat="44.40749" lon="2.15311">
        <ele>512</ele>
        <time>2017-09-18T08:06:28Z</time>
      </trkpt>
      <trkpt lat="44.40749" lon="2.15309">
        <ele>512</ele>
        <time>2017-09-18T08:06:31Z</time>
      </trkpt>
      <trkpt lat="44.40752" lon="2.15308">
        <ele>510</ele>
        <time>2017-09-18T08:06:35Z</time>
      </trkpt>
      <trkpt lat="44.40753" lon="2.15308">
        <ele>510</ele>
        <time>2017-09-18T08:09:55Z</time>
      </trkpt>
      <trkpt lat="44.40755" lon="2.15307">
        <ele>510</ele>
        <time>2017-09-18T08:09:57Z</time>
      </trkpt>
      <trkpt lat="44.40759" lon="2.15304">
        <ele>510</ele>
        <time>2017-09-18T08:10:14Z</time>
      </trkpt>
      <trkpt lat="44.4076" lon="2.15302">
        <ele>510</ele>
        <time>2017-09-18T08:10:18Z</time>
      </trkpt>
      <trkpt lat="44.40764" lon="2.15299">
        <ele>510</ele>
        <time>2017-09-18T08:10:24Z</time>
      </trkpt>
      <trkpt lat="44.4077" lon="2.15296">
        <ele>509</ele>
        <time>2017-09-18T08:10:36Z</time>
      </trkpt>
      <trkpt lat="44.40775" lon="2.15293">
        <ele>509</ele>
        <time>2017-09-18T08:10:42Z</time>
      </trkpt>
      <trkpt lat="44.40779" lon="2.15289">
        <ele>509</ele>
        <time>2017-09-18T08:10:49Z</time>
      </trkpt>
      <trkpt lat="44.40784" lon="2.15286">
        <ele>509</ele>
        <time>2017-09-18T08:10:55Z</time>
      </trkpt>
      <trkpt lat="44.40786" lon="2.15286">
        <ele>509</ele>
        <time>2017-09-18T08:11:00Z</time>
      </trkpt>
      <trkpt lat="44.40788" lon="2.15284">
        <ele>509</ele>
        <time>2017-09-18T08:11:17Z</time>
      </trkpt>
      <trkpt lat="44.40789" lon="2.15281">
        <ele>509</ele>
        <time>2017-09-18T08:12:00Z</time>
      </trkpt>
      <trkpt lat="44.40792" lon="2.15281">
        <ele>509</ele>
        <time>2017-09-18T08:13:18Z</time>
      </trkpt>
      <trkpt lat="44.40794" lon="2.1528">
        <ele>509</ele>
        <time>2017-09-18T08:13:20Z</time>
      </trkpt>
      <trkpt lat="44.40797" lon="2.15279">
        <ele>509</ele>
        <time>2017-09-18T08:13:24Z</time>
      </trkpt>
      <trkpt lat="44.40798" lon="2.15277">
        <ele>509</ele>
        <time>2017-09-18T08:14:04Z</time>
      </trkpt>
      <trkpt lat="44.408" lon="2.15275">
        <ele>509</ele>
        <time>2017-09-18T08:14:07Z</time>
      </trkpt>
      <trkpt lat="44.40818" lon="2.15262">
        <ele>508</ele>
        <time>2017-09-18T08:14:33Z</time>
      </trkpt>
      <trkpt lat="44.40842" lon="2.15254">
        <ele>508</ele>
        <time>2017-09-18T08:14:55Z</time>
      </trkpt>
      <trkpt lat="44.40872" lon="2.15257">
        <ele>508</ele>
        <time>2017-09-18T08:15:21Z</time>
      </trkpt>
      <trkpt lat="44.40886" lon="2.15257">
        <ele>508</ele>
        <time>2017-09-18T08:15:32Z</time>
      </trkpt>
      <trkpt lat="44.40889" lon="2.15257">
        <ele>508</ele>
        <time>2017-09-18T08:15:44Z</time>
      </trkpt>
      <trkpt lat="44.40899" lon="2.15259">
        <ele>509</ele>
        <time>2017-09-18T08:15:52Z</time>
      </trkpt>
      <trkpt lat="44.40931" lon="2.1526">
        <ele>510</ele>
        <time>2017-09-18T08:16:18Z</time>
      </trkpt>
      <trkpt lat="44.40937" lon="2.15262">
        <ele>510</ele>
        <time>2017-09-18T08:16:24Z</time>
      </trkpt>
      <trkpt lat="44.4094" lon="2.15261">
        <ele>510</ele>
        <time>2017-09-18T08:16:26Z</time>
      </trkpt>
      <trkpt lat="44.40944" lon="2.15262">
        <ele>510</ele>
        <time>2017-09-18T08:16:30Z</time>
      </trkpt>
      <trkpt lat="44.40953" lon="2.1526">
        <ele>510</ele>
        <time>2017-09-18T08:16:36Z</time>
      </trkpt>
      <trkpt lat="44.40956" lon="2.1526">
        <ele>510</ele>
        <time>2017-09-18T08:16:39Z</time>
      </trkpt>
      <trkpt lat="44.40992" lon="2.15251">
        <ele>510</ele>
        <time>2017-09-18T08:17:09Z</time>
      </trkpt>
      <trkpt lat="44.4103" lon="2.15243">
        <ele>510</ele>
        <time>2017-09-18T08:17:40Z</time>
      </trkpt>
      <trkpt lat="44.41064" lon="2.1523">
        <ele>509</ele>
        <time>2017-09-18T08:18:11Z</time>
      </trkpt>
      <trkpt lat="44.41083" lon="2.15217">
        <ele>509</ele>
        <time>2017-09-18T08:18:29Z</time>
      </trkpt>
      <trkpt lat="44.41086" lon="2.15216">
        <ele>509</ele>
        <time>2017-09-18T08:18:32Z</time>
      </trkpt>
      <trkpt lat="44.41094" lon="2.15211">
        <ele>509</ele>
        <time>2017-09-18T08:18:39Z</time>
      </trkpt>
      <trkpt lat="44.41097" lon="2.1521">
        <ele>509</ele>
        <time>2017-09-18T08:18:43Z</time>
      </trkpt>
      <trkpt lat="44.41102" lon="2.15207">
        <ele>509</ele>
        <time>2017-09-18T08:18:47Z</time>
      </trkpt>
      <trkpt lat="44.41108" lon="2.15204">
        <ele>509</ele>
        <time>2017-09-18T08:18:53Z</time>
      </trkpt>
      <trkpt lat="44.41141" lon="2.15181">
        <ele>509</ele>
        <time>2017-09-18T08:19:23Z</time>
      </trkpt>
      <trkpt lat="44.41172" lon="2.15162">
        <ele>509</ele>
        <time>2017-09-18T08:19:52Z</time>
      </trkpt>
      <trkpt lat="44.41175" lon="2.15161">
        <ele>509</ele>
        <time>2017-09-18T08:19:55Z</time>
      </trkpt>
      <trkpt lat="44.41178" lon="2.1516">
        <ele>509</ele>
        <time>2017-09-18T08:19:58Z</time>
      </trkpt>
      <trkpt lat="44.41181" lon="2.15158">
        <ele>509</ele>
        <time>2017-09-18T08:20:01Z</time>
      </trkpt>
      <trkpt lat="44.41199" lon="2.15149">
        <ele>509</ele>
        <time>2017-09-18T08:20:14Z</time>
      </trkpt>
      <trkpt lat="44.41205" lon="2.15147">
        <ele>509</ele>
        <time>2017-09-18T08:20:19Z</time>
      </trkpt>
      <trkpt lat="44.41241" lon="2.15122">
        <ele>508</ele>
        <time>2017-09-18T08:20:49Z</time>
      </trkpt>
      <trkpt lat="44.41256" lon="2.15112">
        <ele>509</ele>
        <time>2017-09-18T08:21:03Z</time>
      </trkpt>
      <trkpt lat="44.41265" lon="2.15105">
        <ele>509</ele>
        <time>2017-09-18T08:21:11Z</time>
      </trkpt>
      <trkpt lat="44.41299" lon="2.15081">
        <ele>509</ele>
        <time>2017-09-18T08:21:41Z</time>
      </trkpt>
      <trkpt lat="44.41308" lon="2.15076">
        <ele>509</ele>
        <time>2017-09-18T08:21:48Z</time>
      </trkpt>
      <trkpt lat="44.41311" lon="2.15073">
        <ele>509</ele>
        <time>2017-09-18T08:21:51Z</time>
      </trkpt>
      <trkpt lat="44.41314" lon="2.1507">
        <ele>509</ele>
        <time>2017-09-18T08:21:54Z</time>
      </trkpt>
      <trkpt lat="44.4132" lon="2.15064">
        <ele>509</ele>
        <time>2017-09-18T08:22:00Z</time>
      </trkpt>
      <trkpt lat="44.41341" lon="2.15047">
        <ele>508</ele>
        <time>2017-09-18T08:22:19Z</time>
      </trkpt>
      <trkpt lat="44.41353" lon="2.15035">
        <ele>508</ele>
        <time>2017-09-18T08:22:29Z</time>
      </trkpt>
      <trkpt lat="44.4136" lon="2.15029">
        <ele>508</ele>
        <time>2017-09-18T08:22:36Z</time>
      </trkpt>
      <trkpt lat="44.41364" lon="2.15025">
        <ele>508</ele>
        <time>2017-09-18T08:22:40Z</time>
      </trkpt>
      <trkpt lat="44.41401" lon="2.14997">
        <ele>507</ele>
        <time>2017-09-18T08:23:13Z</time>
      </trkpt>
      <trkpt lat="44.41442" lon="2.14979">
        <ele>506</ele>
        <time>2017-09-18T08:23:44Z</time>
      </trkpt>
      <trkpt lat="44.41473" lon="2.14965">
        <ele>506</ele>
        <time>2017-09-18T08:24:10Z</time>
      </trkpt>
      <trkpt lat="44.41478" lon="2.14963">
        <ele>506</ele>
        <time>2017-09-18T08:24:14Z</time>
      </trkpt>
      <trkpt lat="44.41483" lon="2.14962">
        <ele>506</ele>
        <time>2017-09-18T08:24:17Z</time>
      </trkpt>
      <trkpt lat="44.41508" lon="2.14948">
        <ele>505</ele>
        <time>2017-09-18T08:24:39Z</time>
      </trkpt>
      <trkpt lat="44.4151" lon="2.14944">
        <ele>505</ele>
        <time>2017-09-18T08:24:42Z</time>
      </trkpt>
      <trkpt lat="44.41512" lon="2.1494">
        <ele>505</ele>
        <time>2017-09-18T08:24:45Z</time>
      </trkpt>
      <trkpt lat="44.41519" lon="2.14936">
        <ele>505</ele>
        <time>2017-09-18T08:24:51Z</time>
      </trkpt>
      <trkpt lat="44.41524" lon="2.1493">
        <ele>505</ele>
        <time>2017-09-18T08:24:56Z</time>
      </trkpt>
      <trkpt lat="44.41543" lon="2.14914">
        <ele>505</ele>
        <time>2017-09-18T08:25:14Z</time>
      </trkpt>
      <trkpt lat="44.41546" lon="2.14912">
        <ele>505</ele>
        <time>2017-09-18T08:25:18Z</time>
      </trkpt>
      <trkpt lat="44.41568" lon="2.14902">
        <ele>505</ele>
        <time>2017-09-18T08:25:35Z</time>
      </trkpt>
      <trkpt lat="44.41571" lon="2.14902">
        <ele>505</ele>
        <time>2017-09-18T08:25:38Z</time>
      </trkpt>
      <trkpt lat="44.41575" lon="2.14901">
        <ele>505</ele>
        <time>2017-09-18T08:25:41Z</time>
      </trkpt>
      <trkpt lat="44.41584" lon="2.149">
        <ele>505</ele>
        <time>2017-09-18T08:25:47Z</time>
      </trkpt>
      <trkpt lat="44.416" lon="2.149">
        <ele>506</ele>
        <time>2017-09-18T08:26:00Z</time>
      </trkpt>
      <trkpt lat="44.41612" lon="2.14904">
        <ele>506</ele>
        <time>2017-09-18T08:26:09Z</time>
      </trkpt>
      <trkpt lat="44.41616" lon="2.14903">
        <ele>506</ele>
        <time>2017-09-18T08:26:14Z</time>
      </trkpt>
      <trkpt lat="44.4162" lon="2.14905">
        <ele>506</ele>
        <time>2017-09-18T08:26:20Z</time>
      </trkpt>
      <trkpt lat="44.41632" lon="2.14923">
        <ele>507</ele>
        <time>2017-09-18T08:26:48Z</time>
      </trkpt>
      <trkpt lat="44.41638" lon="2.1493">
        <ele>507</ele>
        <time>2017-09-18T08:26:54Z</time>
      </trkpt>
      <trkpt lat="44.41642" lon="2.14937">
        <ele>507</ele>
        <time>2017-09-18T08:26:59Z</time>
      </trkpt>
      <trkpt lat="44.41644" lon="2.14939">
        <ele>507</ele>
        <time>2017-09-18T08:27:01Z</time>
      </trkpt>
      <trkpt lat="44.41646" lon="2.14942">
        <ele>507</ele>
        <time>2017-09-18T08:27:03Z</time>
      </trkpt>
      <trkpt lat="44.41656" lon="2.14955">
        <ele>507</ele>
        <time>2017-09-18T08:27:13Z</time>
      </trkpt>
      <trkpt lat="44.41664" lon="2.14959">
        <ele>507</ele>
        <time>2017-09-18T08:27:20Z</time>
      </trkpt>
      <trkpt lat="44.41669" lon="2.1496">
        <ele>506</ele>
        <time>2017-09-18T08:27:24Z</time>
      </trkpt>
      <trkpt lat="44.41676" lon="2.1496">
        <ele>506</ele>
        <time>2017-09-18T08:27:30Z</time>
      </trkpt>
      <trkpt lat="44.41682" lon="2.14953">
        <ele>506</ele>
        <time>2017-09-18T08:27:36Z</time>
      </trkpt>
      <trkpt lat="44.41689" lon="2.14937">
        <ele>507</ele>
        <time>2017-09-18T08:27:46Z</time>
      </trkpt>
      <trkpt lat="44.41705" lon="2.14891">
        <ele>506</ele>
        <time>2017-09-18T08:28:14Z</time>
      </trkpt>
      <trkpt lat="44.41707" lon="2.14889">
        <ele>506</ele>
        <time>2017-09-18T08:28:16Z</time>
      </trkpt>
      <trkpt lat="44.41709" lon="2.14886">
        <ele>506</ele>
        <time>2017-09-18T08:28:19Z</time>
      </trkpt>
      <trkpt lat="44.41711" lon="2.1488">
        <ele>506</ele>
        <time>2017-09-18T08:28:23Z</time>
      </trkpt>
      <trkpt lat="44.41712" lon="2.14877">
        <ele>506</ele>
        <time>2017-09-18T08:28:25Z</time>
      </trkpt>
      <trkpt lat="44.41725" lon="2.1484">
        <ele>506</ele>
        <time>2017-09-18T08:28:47Z</time>
      </trkpt>
      <trkpt lat="44.41727" lon="2.1483">
        <ele>505</ele>
        <time>2017-09-18T08:28:53Z</time>
      </trkpt>
      <trkpt lat="44.41734" lon="2.14814">
        <ele>505</ele>
        <time>2017-09-18T08:29:03Z</time>
      </trkpt>
      <trkpt lat="44.41749" lon="2.14781">
        <ele>505</ele>
        <time>2017-09-18T08:29:25Z</time>
      </trkpt>
      <trkpt lat="44.41754" lon="2.14772">
        <ele>505</ele>
        <time>2017-09-18T08:29:31Z</time>
      </trkpt>
      <trkpt lat="44.41779" lon="2.14731">
        <ele>504</ele>
        <time>2017-09-18T08:30:01Z</time>
      </trkpt>
      <trkpt lat="44.41789" lon="2.14715">
        <ele>504</ele>
        <time>2017-09-18T08:30:13Z</time>
      </trkpt>
      <trkpt lat="44.41794" lon="2.1471">
        <ele>504</ele>
        <time>2017-09-18T08:30:18Z</time>
      </trkpt>
      <trkpt lat="44.41797" lon="2.14703">
        <ele>505</ele>
        <time>2017-09-18T08:30:24Z</time>
      </trkpt>
      <trkpt lat="44.41799" lon="2.14699">
        <ele>505</ele>
        <time>2017-09-18T08:30:27Z</time>
      </trkpt>
      <trkpt lat="44.41816" lon="2.14675">
        <ele>505</ele>
        <time>2017-09-18T08:30:45Z</time>
      </trkpt>
      <trkpt lat="44.41818" lon="2.14671">
        <ele>505</ele>
        <time>2017-09-18T08:30:48Z</time>
      </trkpt>
      <trkpt lat="44.4185" lon="2.14625">
        <ele>506</ele>
        <time>2017-09-18T08:31:19Z</time>
      </trkpt>
      <trkpt lat="44.41877" lon="2.14583">
        <ele>506</ele>
        <time>2017-09-18T08:31:49Z</time>
      </trkpt>
      <trkpt lat="44.41909" lon="2.14538">
        <ele>506</ele>
        <time>2017-09-18T08:32:19Z</time>
      </trkpt>
      <trkpt lat="44.41918" lon="2.14526">
        <ele>507</ele>
        <time>2017-09-18T08:32:27Z</time>
      </trkpt>
      <trkpt lat="44.41919" lon="2.14523">
        <ele>507</ele>
        <time>2017-09-18T08:32:29Z</time>
      </trkpt>
      <trkpt lat="44.41922" lon="2.14522">
        <ele>507</ele>
        <time>2017-09-18T08:32:32Z</time>
      </trkpt>
      <trkpt lat="44.41924" lon="2.14519">
        <ele>507</ele>
        <time>2017-09-18T08:32:41Z</time>
      </trkpt>
      <trkpt lat="44.41933" lon="2.14506">
        <ele>507</ele>
        <time>2017-09-18T08:32:50Z</time>
      </trkpt>
      <trkpt lat="44.41936" lon="2.14496">
        <ele>508</ele>
        <time>2017-09-18T08:32:55Z</time>
      </trkpt>
      <trkpt lat="44.41938" lon="2.14493">
        <ele>508</ele>
        <time>2017-09-18T08:32:57Z</time>
      </trkpt>
      <trkpt lat="44.41944" lon="2.14482">
        <ele>509</ele>
        <time>2017-09-18T08:33:05Z</time>
      </trkpt>
      <trkpt lat="44.41945" lon="2.14477">
        <ele>509</ele>
        <time>2017-09-18T08:33:08Z</time>
      </trkpt>
      <trkpt lat="44.41948" lon="2.14472">
        <ele>509</ele>
        <time>2017-09-18T08:33:11Z</time>
      </trkpt>
      <trkpt lat="44.41952" lon="2.14466">
        <ele>509</ele>
        <time>2017-09-18T08:33:15Z</time>
      </trkpt>
      <trkpt lat="44.41957" lon="2.14459">
        <ele>509</ele>
        <time>2017-09-18T08:33:20Z</time>
      </trkpt>
      <trkpt lat="44.41971" lon="2.14434">
        <ele>510</ele>
        <time>2017-09-18T08:33:35Z</time>
      </trkpt>
      <trkpt lat="44.4199" lon="2.14412">
        <ele>512</ele>
        <time>2017-09-18T08:33:52Z</time>
      </trkpt>
      <trkpt lat="44.41993" lon="2.14409">
        <ele>512</ele>
        <time>2017-09-18T08:33:54Z</time>
      </trkpt>
      <trkpt lat="44.42" lon="2.14402">
        <ele>512</ele>
        <time>2017-09-18T08:34:03Z</time>
      </trkpt>
      <trkpt lat="44.42002" lon="2.14399">
        <ele>512</ele>
        <time>2017-09-18T08:34:05Z</time>
      </trkpt>
      <trkpt lat="44.42007" lon="2.14395">
        <ele>512</ele>
        <time>2017-09-18T08:34:10Z</time>
      </trkpt>
      <trkpt lat="44.42017" lon="2.14385">
        <ele>512</ele>
        <time>2017-09-18T08:34:28Z</time>
      </trkpt>
      <trkpt lat="44.42021" lon="2.14383">
        <ele>512</ele>
        <time>2017-09-18T08:34:33Z</time>
      </trkpt>
      <trkpt lat="44.42024" lon="2.1438">
        <ele>512</ele>
        <time>2017-09-18T08:34:42Z</time>
      </trkpt>
      <trkpt lat="44.4204" lon="2.14371">
        <ele>512</ele>
        <time>2017-09-18T08:34:55Z</time>
      </trkpt>
      <trkpt lat="44.42042" lon="2.14369">
        <ele>512</ele>
        <time>2017-09-18T08:34:58Z</time>
      </trkpt>
      <trkpt lat="44.42083" lon="2.14343">
        <ele>512</ele>
        <time>2017-09-18T08:35:29Z</time>
      </trkpt>
      <trkpt lat="44.42123" lon="2.14313">
        <ele>512</ele>
        <time>2017-09-18T08:36:00Z</time>
      </trkpt>
      <trkpt lat="44.42144" lon="2.14294">
        <ele>512</ele>
        <time>2017-09-18T08:36:20Z</time>
      </trkpt>
      <trkpt lat="44.42153" lon="2.14288">
        <ele>512</ele>
        <time>2017-09-18T08:36:26Z</time>
      </trkpt>
      <trkpt lat="44.42159" lon="2.14284">
        <ele>512</ele>
        <time>2017-09-18T08:36:31Z</time>
      </trkpt>
      <trkpt lat="44.42161" lon="2.14281">
        <ele>512</ele>
        <time>2017-09-18T08:36:34Z</time>
      </trkpt>
      <trkpt lat="44.4217" lon="2.14275">
        <ele>513</ele>
        <time>2017-09-18T08:36:41Z</time>
      </trkpt>
      <trkpt lat="44.42173" lon="2.14273">
        <ele>513</ele>
        <time>2017-09-18T08:36:43Z</time>
      </trkpt>
      <trkpt lat="44.42178" lon="2.14269">
        <ele>513</ele>
        <time>2017-09-18T08:36:47Z</time>
      </trkpt>
      <trkpt lat="44.4218" lon="2.14267">
        <ele>513</ele>
        <time>2017-09-18T08:36:49Z</time>
      </trkpt>
      <trkpt lat="44.42205" lon="2.14244">
        <ele>513</ele>
        <time>2017-09-18T08:37:10Z</time>
      </trkpt>
      <trkpt lat="44.42207" lon="2.14242">
        <ele>513</ele>
        <time>2017-09-18T08:37:12Z</time>
      </trkpt>
      <trkpt lat="44.4221" lon="2.14239">
        <ele>513</ele>
        <time>2017-09-18T08:37:15Z</time>
      </trkpt>
      <trkpt lat="44.42221" lon="2.14235">
        <ele>513</ele>
        <time>2017-09-18T08:37:22Z</time>
      </trkpt>
      <trkpt lat="44.42226" lon="2.14232">
        <ele>513</ele>
        <time>2017-09-18T08:37:28Z</time>
      </trkpt>
      <trkpt lat="44.42229" lon="2.14233">
        <ele>513</ele>
        <time>2017-09-18T08:37:35Z</time>
      </trkpt>
      <trkpt lat="44.42231" lon="2.14233">
        <ele>513</ele>
        <time>2017-09-18T08:38:04Z</time>
      </trkpt>
      <trkpt lat="44.42232" lon="2.14231">
        <ele>513</ele>
        <time>2017-09-18T08:38:42Z</time>
      </trkpt>
      <trkpt lat="44.42242" lon="2.1421">
        <ele>513</ele>
        <time>2017-09-18T08:38:54Z</time>
      </trkpt>
      <trkpt lat="44.42247" lon="2.14202">
        <ele>513</ele>
        <time>2017-09-18T08:39:00Z</time>
      </trkpt>
      <trkpt lat="44.4225" lon="2.14196">
        <ele>514</ele>
        <time>2017-09-18T08:39:05Z</time>
      </trkpt>
      <trkpt lat="44.42252" lon="2.14193">
        <ele>514</ele>
        <time>2017-09-18T08:39:07Z</time>
      </trkpt>
      <trkpt lat="44.42253" lon="2.1419">
        <ele>514</ele>
        <time>2017-09-18T08:39:09Z</time>
      </trkpt>
      <trkpt lat="44.42261" lon="2.1418">
        <ele>514</ele>
        <time>2017-09-18T08:39:17Z</time>
      </trkpt>
      <trkpt lat="44.42273" lon="2.1416">
        <ele>513</ele>
        <time>2017-09-18T08:39:33Z</time>
      </trkpt>
      <trkpt lat="44.42275" lon="2.14157">
        <ele>513</ele>
        <time>2017-09-18T08:39:35Z</time>
      </trkpt>
      <trkpt lat="44.4228" lon="2.14148">
        <ele>513</ele>
        <time>2017-09-18T08:39:43Z</time>
      </trkpt>
      <trkpt lat="44.42282" lon="2.14144">
        <ele>513</ele>
        <time>2017-09-18T08:39:46Z</time>
      </trkpt>
      <trkpt lat="44.42308" lon="2.14102">
        <ele>514</ele>
        <time>2017-09-18T08:40:16Z</time>
      </trkpt>
      <trkpt lat="44.42313" lon="2.14096">
        <ele>514</ele>
        <time>2017-09-18T08:40:21Z</time>
      </trkpt>
      <trkpt lat="44.42316" lon="2.14091">
        <ele>514</ele>
        <time>2017-09-18T08:40:25Z</time>
      </trkpt>
      <trkpt lat="44.42325" lon="2.14074">
        <ele>514</ele>
        <time>2017-09-18T08:40:37Z</time>
      </trkpt>
      <trkpt lat="44.42327" lon="2.1407">
        <ele>514</ele>
        <time>2017-09-18T08:40:40Z</time>
      </trkpt>
      <trkpt lat="44.4233" lon="2.14065">
        <ele>514</ele>
        <time>2017-09-18T08:40:44Z</time>
      </trkpt>
      <trkpt lat="44.42334" lon="2.14058">
        <ele>515</ele>
        <time>2017-09-18T08:40:50Z</time>
      </trkpt>
      <trkpt lat="44.42346" lon="2.14041">
        <ele>515</ele>
        <time>2017-09-18T08:41:02Z</time>
      </trkpt>
      <trkpt lat="44.42348" lon="2.14039">
        <ele>515</ele>
        <time>2017-09-18T08:41:05Z</time>
      </trkpt>
      <trkpt lat="44.4235" lon="2.14037">
        <ele>515</ele>
        <time>2017-09-18T08:41:10Z</time>
      </trkpt>
      <trkpt lat="44.42351" lon="2.14035">
        <ele>515</ele>
        <time>2017-09-18T08:41:18Z</time>
      </trkpt>
      <trkpt lat="44.42353" lon="2.14034">
        <ele>515</ele>
        <time>2017-09-18T08:41:41Z</time>
      </trkpt>
      <trkpt lat="44.42355" lon="2.14031">
        <ele>515</ele>
        <time>2017-09-18T08:41:44Z</time>
      </trkpt>
      <trkpt lat="44.4237" lon="2.14012">
        <ele>516</ele>
        <time>2017-09-18T08:42:01Z</time>
      </trkpt>
      <trkpt lat="44.42372" lon="2.1401">
        <ele>516</ele>
        <time>2017-09-18T08:42:03Z</time>
      </trkpt>
      <trkpt lat="44.42374" lon="2.14008">
        <ele>516</ele>
        <time>2017-09-18T08:42:17Z</time>
      </trkpt>
      <trkpt lat="44.42376" lon="2.14008">
        <ele>516</ele>
        <time>2017-09-18T08:42:20Z</time>
      </trkpt>
      <trkpt lat="44.42377" lon="2.14007">
        <ele>516</ele>
        <time>2017-09-18T08:42:25Z</time>
      </trkpt>
      <trkpt lat="44.42378" lon="2.14004">
        <ele>516</ele>
        <time>2017-09-18T08:42:33Z</time>
      </trkpt>
      <trkpt lat="44.42405" lon="2.13963">
        <ele>518</ele>
        <time>2017-09-18T08:43:03Z</time>
      </trkpt>
      <trkpt lat="44.42409" lon="2.13958">
        <ele>518</ele>
        <time>2017-09-18T08:43:07Z</time>
      </trkpt>
      <trkpt lat="44.42423" lon="2.13934">
        <ele>519</ele>
        <time>2017-09-18T08:43:23Z</time>
      </trkpt>
      <trkpt lat="44.42427" lon="2.13928">
        <ele>519</ele>
        <time>2017-09-18T08:43:27Z</time>
      </trkpt>
      <trkpt lat="44.42458" lon="2.13886">
        <ele>519</ele>
        <time>2017-09-18T08:43:57Z</time>
      </trkpt>
      <trkpt lat="44.42487" lon="2.13843">
        <ele>519</ele>
        <time>2017-09-18T08:44:27Z</time>
      </trkpt>
      <trkpt lat="44.42489" lon="2.13841">
        <ele>519</ele>
        <time>2017-09-18T08:44:29Z</time>
      </trkpt>
      <trkpt lat="44.42491" lon="2.13838">
        <ele>520</ele>
        <time>2017-09-18T08:44:31Z</time>
      </trkpt>
      <trkpt lat="44.42498" lon="2.1383">
        <ele>519</ele>
        <time>2017-09-18T08:44:39Z</time>
      </trkpt>
      <trkpt lat="44.42513" lon="2.1382">
        <ele>517</ele>
        <time>2017-09-18T08:44:53Z</time>
      </trkpt>
      <trkpt lat="44.42529" lon="2.13815">
        <ele>516</ele>
        <time>2017-09-18T08:45:06Z</time>
      </trkpt>
      <trkpt lat="44.42533" lon="2.13814">
        <ele>516</ele>
        <time>2017-09-18T08:45:10Z</time>
      </trkpt>
      <trkpt lat="44.42552" lon="2.1381">
        <ele>515</ele>
        <time>2017-09-18T08:45:24Z</time>
      </trkpt>
      <trkpt lat="44.42557" lon="2.13808">
        <ele>515</ele>
        <time>2017-09-18T08:45:29Z</time>
      </trkpt>
      <trkpt lat="44.4256" lon="2.1381">
        <ele>515</ele>
        <time>2017-09-18T08:46:10Z</time>
      </trkpt>
      <trkpt lat="44.42561" lon="2.13812">
        <ele>515</ele>
        <time>2017-09-18T08:46:13Z</time>
      </trkpt>
      <trkpt lat="44.42563" lon="2.13809">
        <ele>515</ele>
        <time>2017-09-18T08:46:36Z</time>
      </trkpt>
      <trkpt lat="44.42574" lon="2.1381">
        <ele>514</ele>
        <time>2017-09-18T08:46:43Z</time>
      </trkpt>
      <trkpt lat="44.42582" lon="2.13806">
        <ele>514</ele>
        <time>2017-09-18T08:46:49Z</time>
      </trkpt>
      <trkpt lat="44.42597" lon="2.13797">
        <ele>511</ele>
        <time>2017-09-18T08:47:01Z</time>
      </trkpt>
      <trkpt lat="44.42601" lon="2.13793">
        <ele>511</ele>
        <time>2017-09-18T08:47:05Z</time>
      </trkpt>
      <trkpt lat="44.42607" lon="2.13788">
        <ele>511</ele>
        <time>2017-09-18T08:47:10Z</time>
      </trkpt>
      <trkpt lat="44.42616" lon="2.13785">
        <ele>511</ele>
        <time>2017-09-18T08:47:17Z</time>
      </trkpt>
      <trkpt lat="44.42626" lon="2.13789">
        <ele>510</ele>
        <time>2017-09-18T08:47:24Z</time>
      </trkpt>
      <trkpt lat="44.42632" lon="2.13789">
        <ele>510</ele>
        <time>2017-09-18T08:47:28Z</time>
      </trkpt>
      <trkpt lat="44.42638" lon="2.13789">
        <ele>510</ele>
        <time>2017-09-18T08:47:33Z</time>
      </trkpt>
      <trkpt lat="44.4267" lon="2.13787">
        <ele>506</ele>
        <time>2017-09-18T08:47:55Z</time>
      </trkpt>
      <trkpt lat="44.42677" lon="2.13789">
        <ele>506</ele>
        <time>2017-09-18T08:48:00Z</time>
      </trkpt>
      <trkpt lat="44.42681" lon="2.13791">
        <ele>506</ele>
        <time>2017-09-18T08:48:03Z</time>
      </trkpt>
      <trkpt lat="44.42688" lon="2.13789">
        <ele>505</ele>
        <time>2017-09-18T08:48:08Z</time>
      </trkpt>
      <trkpt lat="44.42705" lon="2.13793">
        <ele>505</ele>
        <time>2017-09-18T08:48:24Z</time>
      </trkpt>
      <trkpt lat="44.4271" lon="2.13794">
        <ele>504</ele>
        <time>2017-09-18T08:48:28Z</time>
      </trkpt>
      <trkpt lat="44.4273" lon="2.13794">
        <ele>503</ele>
        <time>2017-09-18T08:48:41Z</time>
      </trkpt>
      <trkpt lat="44.42742" lon="2.13794">
        <ele>503</ele>
        <time>2017-09-18T08:48:49Z</time>
      </trkpt>
      <trkpt lat="44.42762" lon="2.13793">
        <ele>497</ele>
        <time>2017-09-18T08:49:03Z</time>
      </trkpt>
      <trkpt lat="44.42769" lon="2.13793">
        <ele>497</ele>
        <time>2017-09-18T08:49:09Z</time>
      </trkpt>
      <trkpt lat="44.42775" lon="2.13794">
        <ele>496</ele>
        <time>2017-09-18T08:49:13Z</time>
      </trkpt>
      <trkpt lat="44.4278" lon="2.13792">
        <ele>496</ele>
        <time>2017-09-18T08:49:17Z</time>
      </trkpt>
      <trkpt lat="44.428" lon="2.13792">
        <ele>495</ele>
        <time>2017-09-18T08:49:33Z</time>
      </trkpt>
      <trkpt lat="44.42807" lon="2.1379">
        <ele>494</ele>
        <time>2017-09-18T08:49:39Z</time>
      </trkpt>
      <trkpt lat="44.42843" lon="2.1379">
        <ele>489</ele>
        <time>2017-09-18T08:50:07Z</time>
      </trkpt>
      <trkpt lat="44.42856" lon="2.13798">
        <ele>488</ele>
        <time>2017-09-18T08:50:19Z</time>
      </trkpt>
      <trkpt lat="44.42859" lon="2.13801">
        <ele>488</ele>
        <time>2017-09-18T08:50:22Z</time>
      </trkpt>
      <trkpt lat="44.42861" lon="2.13803">
        <ele>488</ele>
        <time>2017-09-18T08:50:24Z</time>
      </trkpt>
      <trkpt lat="44.42865" lon="2.13805">
        <ele>488</ele>
        <time>2017-09-18T08:50:29Z</time>
      </trkpt>
      <trkpt lat="44.42871" lon="2.1381">
        <ele>488</ele>
        <time>2017-09-18T08:50:34Z</time>
      </trkpt>
      <trkpt lat="44.42878" lon="2.13812">
        <ele>488</ele>
        <time>2017-09-18T08:50:40Z</time>
      </trkpt>
      <trkpt lat="44.42887" lon="2.13812">
        <ele>488</ele>
        <time>2017-09-18T08:50:46Z</time>
      </trkpt>
      <trkpt lat="44.42891" lon="2.13813">
        <ele>488</ele>
        <time>2017-09-18T08:50:50Z</time>
      </trkpt>
      <trkpt lat="44.42903" lon="2.13808">
        <ele>488</ele>
        <time>2017-09-18T08:51:00Z</time>
      </trkpt>
      <trkpt lat="44.42906" lon="2.13806">
        <ele>487</ele>
        <time>2017-09-18T08:51:02Z</time>
      </trkpt>
      <trkpt lat="44.4291" lon="2.13799">
        <ele>487</ele>
        <time>2017-09-18T08:51:07Z</time>
      </trkpt>
      <trkpt lat="44.42914" lon="2.13795">
        <ele>487</ele>
        <time>2017-09-18T08:51:11Z</time>
      </trkpt>
      <trkpt lat="44.4292" lon="2.13786">
        <ele>485</ele>
        <time>2017-09-18T08:51:17Z</time>
      </trkpt>
      <trkpt lat="44.42922" lon="2.13785">
        <ele>485</ele>
        <time>2017-09-18T08:51:19Z</time>
      </trkpt>
      <trkpt lat="44.42924" lon="2.13783">
        <ele>485</ele>
        <time>2017-09-18T08:51:23Z</time>
      </trkpt>
      <trkpt lat="44.4293" lon="2.13776">
        <ele>485</ele>
        <time>2017-09-18T08:51:29Z</time>
      </trkpt>
      <trkpt lat="44.4294" lon="2.13765">
        <ele>485</ele>
        <time>2017-09-18T08:51:39Z</time>
      </trkpt>
      <trkpt lat="44.42943" lon="2.13766">
        <ele>485</ele>
        <time>2017-09-18T08:51:41Z</time>
      </trkpt>
      <trkpt lat="44.42946" lon="2.13766">
        <ele>485</ele>
        <time>2017-09-18T08:51:43Z</time>
      </trkpt>
      <trkpt lat="44.42955" lon="2.13759">
        <ele>484</ele>
        <time>2017-09-18T08:51:50Z</time>
      </trkpt>
      <trkpt lat="44.42995" lon="2.13743">
        <ele>481</ele>
        <time>2017-09-18T08:52:20Z</time>
      </trkpt>
      <trkpt lat="44.43017" lon="2.1373">
        <ele>480</ele>
        <time>2017-09-18T08:52:38Z</time>
      </trkpt>
      <trkpt lat="44.43061" lon="2.13709">
        <ele>479</ele>
        <time>2017-09-18T08:53:08Z</time>
      </trkpt>
      <trkpt lat="44.43064" lon="2.13707">
        <ele>479</ele>
        <time>2017-09-18T08:53:11Z</time>
      </trkpt>
      <trkpt lat="44.43066" lon="2.13706">
        <ele>479</ele>
        <time>2017-09-18T08:53:13Z</time>
      </trkpt>
      <trkpt lat="44.43074" lon="2.13703">
        <ele>479</ele>
        <time>2017-09-18T08:53:19Z</time>
      </trkpt>
      <trkpt lat="44.43102" lon="2.13691">
        <ele>478</ele>
        <time>2017-09-18T08:53:40Z</time>
      </trkpt>
      <trkpt lat="44.43104" lon="2.13689">
        <ele>478</ele>
        <time>2017-09-18T08:53:42Z</time>
      </trkpt>
      <trkpt lat="44.43114" lon="2.13679">
        <ele>478</ele>
        <time>2017-09-18T08:53:52Z</time>
      </trkpt>
      <trkpt lat="44.43116" lon="2.13677">
        <ele>478</ele>
        <time>2017-09-18T08:53:54Z</time>
      </trkpt>
      <trkpt lat="44.43121" lon="2.13665">
        <ele>478</ele>
        <time>2017-09-18T08:54:01Z</time>
      </trkpt>
      <trkpt lat="44.43124" lon="2.13661">
        <ele>478</ele>
        <time>2017-09-18T08:54:04Z</time>
      </trkpt>
      <trkpt lat="44.43149" lon="2.13614">
        <ele>477</ele>
        <time>2017-09-18T08:54:34Z</time>
      </trkpt>
      <trkpt lat="44.4315" lon="2.13611">
        <ele>477</ele>
        <time>2017-09-18T08:54:36Z</time>
      </trkpt>
      <trkpt lat="44.43164" lon="2.13594">
        <ele>477</ele>
        <time>2017-09-18T08:54:48Z</time>
      </trkpt>
      <trkpt lat="44.43173" lon="2.13585">
        <ele>477</ele>
        <time>2017-09-18T08:54:56Z</time>
      </trkpt>
      <trkpt lat="44.43178" lon="2.13584">
        <ele>478</ele>
        <time>2017-09-18T08:55:00Z</time>
      </trkpt>
      <trkpt lat="44.43221" lon="2.13585">
        <ele>479</ele>
        <time>2017-09-18T08:55:30Z</time>
      </trkpt>
      <trkpt lat="44.4325" lon="2.13584">
        <ele>480</ele>
        <time>2017-09-18T08:55:52Z</time>
      </trkpt>
      <trkpt lat="44.4329" lon="2.13576">
        <ele>483</ele>
        <time>2017-09-18T08:56:23Z</time>
      </trkpt>
      <trkpt lat="44.43333" lon="2.13568">
        <ele>484</ele>
        <time>2017-09-18T08:56:54Z</time>
      </trkpt>
      <trkpt lat="44.43374" lon="2.13565">
        <ele>487</ele>
        <time>2017-09-18T08:57:24Z</time>
      </trkpt>
      <trkpt lat="44.43415" lon="2.13562">
        <ele>488</ele>
        <time>2017-09-18T08:57:54Z</time>
      </trkpt>
      <trkpt lat="44.43436" lon="2.13558">
        <ele>488</ele>
        <time>2017-09-18T08:58:09Z</time>
      </trkpt>
      <trkpt lat="44.43449" lon="2.13551">
        <ele>488</ele>
        <time>2017-09-18T08:58:19Z</time>
      </trkpt>
      <trkpt lat="44.43459" lon="2.13543">
        <ele>488</ele>
        <time>2017-09-18T08:58:27Z</time>
      </trkpt>
      <trkpt lat="44.43461" lon="2.13542">
        <ele>488</ele>
        <time>2017-09-18T08:58:29Z</time>
      </trkpt>
      <trkpt lat="44.43476" lon="2.13528">
        <ele>488</ele>
        <time>2017-09-18T08:58:43Z</time>
      </trkpt>
      <trkpt lat="44.43479" lon="2.13528">
        <ele>488</ele>
        <time>2017-09-18T08:58:45Z</time>
      </trkpt>
      <trkpt lat="44.43481" lon="2.13528">
        <ele>488</ele>
        <time>2017-09-18T08:58:47Z</time>
      </trkpt>
      <trkpt lat="44.43484" lon="2.13529">
        <ele>488</ele>
        <time>2017-09-18T08:58:49Z</time>
      </trkpt>
      <trkpt lat="44.43486" lon="2.13528">
        <ele>487</ele>
        <time>2017-09-18T08:58:52Z</time>
      </trkpt>
      <trkpt lat="44.43488" lon="2.13526">
        <ele>487</ele>
        <time>2017-09-18T08:58:54Z</time>
      </trkpt>
      <trkpt lat="44.4349" lon="2.13523">
        <ele>487</ele>
        <time>2017-09-18T08:58:56Z</time>
      </trkpt>
      <trkpt lat="44.43491" lon="2.1352">
        <ele>487</ele>
        <time>2017-09-18T08:59:00Z</time>
      </trkpt>
      <trkpt lat="44.43492" lon="2.13521">
        <ele>487</ele>
        <time>2017-09-18T08:59:22Z</time>
      </trkpt>
      <trkpt lat="44.43494" lon="2.13518">
        <ele>487</ele>
        <time>2017-09-18T08:59:45Z</time>
      </trkpt>
      <trkpt lat="44.43502" lon="2.13512">
        <ele>487</ele>
        <time>2017-09-18T08:59:52Z</time>
      </trkpt>
      <trkpt lat="44.43504" lon="2.13512">
        <ele>487</ele>
        <time>2017-09-18T08:59:54Z</time>
      </trkpt>
      <trkpt lat="44.43507" lon="2.13512">
        <ele>487</ele>
        <time>2017-09-18T08:59:56Z</time>
      </trkpt>
      <trkpt lat="44.43517" lon="2.13512">
        <ele>487</ele>
        <time>2017-09-18T09:00:03Z</time>
      </trkpt>
      <trkpt lat="44.43522" lon="2.13513">
        <ele>487</ele>
        <time>2017-09-18T09:00:07Z</time>
      </trkpt>
      <trkpt lat="44.43566" lon="2.13512">
        <ele>488</ele>
        <time>2017-09-18T09:00:38Z</time>
      </trkpt>
      <trkpt lat="44.43578" lon="2.13511">
        <ele>488</ele>
        <time>2017-09-18T09:00:46Z</time>
      </trkpt>
      <trkpt lat="44.43595" lon="2.13509">
        <ele>489</ele>
        <time>2017-09-18T09:00:58Z</time>
      </trkpt>
      <trkpt lat="44.43605" lon="2.1351">
        <ele>489</ele>
        <time>2017-09-18T09:01:06Z</time>
      </trkpt>
      <trkpt lat="44.43646" lon="2.13512">
        <ele>490</ele>
        <time>2017-09-18T09:01:36Z</time>
      </trkpt>
      <trkpt lat="44.43689" lon="2.13516">
        <ele>493</ele>
        <time>2017-09-18T09:02:07Z</time>
      </trkpt>
      <trkpt lat="44.43733" lon="2.13521">
        <ele>494</ele>
        <time>2017-09-18T09:02:37Z</time>
      </trkpt>
      <trkpt lat="44.43765" lon="2.13527">
        <ele>496</ele>
        <time>2017-09-18T09:03:01Z</time>
      </trkpt>
      <trkpt lat="44.43771" lon="2.13527">
        <ele>496</ele>
        <time>2017-09-18T09:03:05Z</time>
      </trkpt>
      <trkpt lat="44.43795" lon="2.13527">
        <ele>497</ele>
        <time>2017-09-18T09:03:24Z</time>
      </trkpt>
      <trkpt lat="44.43809" lon="2.13524">
        <ele>497</ele>
        <time>2017-09-18T09:03:34Z</time>
      </trkpt>
      <trkpt lat="44.4382" lon="2.13521">
        <ele>497</ele>
        <time>2017-09-18T09:03:41Z</time>
      </trkpt>
      <trkpt lat="44.43825" lon="2.13521">
        <ele>497</ele>
        <time>2017-09-18T09:03:45Z</time>
      </trkpt>
      <trkpt lat="44.43827" lon="2.13522">
        <ele>497</ele>
        <time>2017-09-18T09:03:47Z</time>
      </trkpt>
      <trkpt lat="44.43832" lon="2.13523">
        <ele>497</ele>
        <time>2017-09-18T09:03:51Z</time>
      </trkpt>
      <trkpt lat="44.43834" lon="2.13522">
        <ele>498</ele>
        <time>2017-09-18T09:03:53Z</time>
      </trkpt>
      <trkpt lat="44.43842" lon="2.13522">
        <ele>498</ele>
        <time>2017-09-18T09:04:01Z</time>
      </trkpt>
      <trkpt lat="44.43852" lon="2.13522">
        <ele>498</ele>
        <time>2017-09-18T09:04:10Z</time>
      </trkpt>
      <trkpt lat="44.43856" lon="2.13523">
        <ele>498</ele>
        <time>2017-09-18T09:04:32Z</time>
      </trkpt>
      <trkpt lat="44.43859" lon="2.13521">
        <ele>498</ele>
        <time>2017-09-18T09:04:35Z</time>
      </trkpt>
      <trkpt lat="44.43867" lon="2.13518">
        <ele>498</ele>
        <time>2017-09-18T09:04:41Z</time>
      </trkpt>
      <trkpt lat="44.43869" lon="2.13517">
        <ele>498</ele>
        <time>2017-09-18T09:04:43Z</time>
      </trkpt>
      <trkpt lat="44.43871" lon="2.13517">
        <ele>498</ele>
        <time>2017-09-18T09:04:45Z</time>
      </trkpt>
      <trkpt lat="44.43892" lon="2.13498">
        <ele>499</ele>
        <time>2017-09-18T09:05:04Z</time>
      </trkpt>
      <trkpt lat="44.43896" lon="2.13497">
        <ele>499</ele>
        <time>2017-09-18T09:05:07Z</time>
      </trkpt>
      <trkpt lat="44.439" lon="2.13493">
        <ele>499</ele>
        <time>2017-09-18T09:05:11Z</time>
      </trkpt>
      <trkpt lat="44.43902" lon="2.13492">
        <ele>499</ele>
        <time>2017-09-18T09:05:13Z</time>
      </trkpt>
      <trkpt lat="44.43909" lon="2.13488">
        <ele>499</ele>
        <time>2017-09-18T09:05:20Z</time>
      </trkpt>
      <trkpt lat="44.4394" lon="2.13469">
        <ele>499</ele>
        <time>2017-09-18T09:05:44Z</time>
      </trkpt>
      <trkpt lat="44.43942" lon="2.13468">
        <ele>499</ele>
        <time>2017-09-18T09:05:46Z</time>
      </trkpt>
      <trkpt lat="44.43944" lon="2.13466">
        <ele>499</ele>
        <time>2017-09-18T09:05:48Z</time>
      </trkpt>
      <trkpt lat="44.43954" lon="2.13462">
        <ele>499</ele>
        <time>2017-09-18T09:05:55Z</time>
      </trkpt>
      <trkpt lat="44.43969" lon="2.13462">
        <ele>499</ele>
        <time>2017-09-18T09:06:06Z</time>
      </trkpt>
      <trkpt lat="44.4397" lon="2.13462">
        <ele>499</ele>
        <time>2017-09-18T09:06:07Z</time>
      </trkpt>
      <trkpt lat="44.43975" lon="2.13459">
        <ele>499</ele>
        <time>2017-09-18T09:06:11Z</time>
      </trkpt>
      <trkpt lat="44.43977" lon="2.13459">
        <ele>499</ele>
        <time>2017-09-18T09:06:16Z</time>
      </trkpt>
      <trkpt lat="44.43979" lon="2.13458">
        <ele>499</ele>
        <time>2017-09-18T09:06:18Z</time>
      </trkpt>
      <trkpt lat="44.4398" lon="2.13455">
        <ele>499</ele>
        <time>2017-09-18T09:06:20Z</time>
      </trkpt>
      <trkpt lat="44.43983" lon="2.13442">
        <ele>499</ele>
        <time>2017-09-18T09:06:28Z</time>
      </trkpt>
      <trkpt lat="44.43982" lon="2.13413">
        <ele>499</ele>
        <time>2017-09-18T09:06:44Z</time>
      </trkpt>
      <trkpt lat="44.43991" lon="2.13366">
        <ele>498</ele>
        <time>2017-09-18T09:07:10Z</time>
      </trkpt>
      <trkpt lat="44.43999" lon="2.13356">
        <ele>498</ele>
        <time>2017-09-18T09:07:18Z</time>
      </trkpt>
      <trkpt lat="44.44" lon="2.13352">
        <ele>498</ele>
        <time>2017-09-18T09:07:21Z</time>
      </trkpt>
      <trkpt lat="44.44001" lon="2.13348">
        <ele>498</ele>
        <time>2017-09-18T09:07:23Z</time>
      </trkpt>
      <trkpt lat="44.44002" lon="2.13344">
        <ele>498</ele>
        <time>2017-09-18T09:07:25Z</time>
      </trkpt>
      <trkpt lat="44.44005" lon="2.13325">
        <ele>498</ele>
        <time>2017-09-18T09:07:35Z</time>
      </trkpt>
      <trkpt lat="44.44005" lon="2.13321">
        <ele>498</ele>
        <time>2017-09-18T09:07:37Z</time>
      </trkpt>
      <trkpt lat="44.44008" lon="2.13305">
        <ele>498</ele>
        <time>2017-09-18T09:07:45Z</time>
      </trkpt>
      <trkpt lat="44.44009" lon="2.13291">
        <ele>497</ele>
        <time>2017-09-18T09:07:52Z</time>
      </trkpt>
      <trkpt lat="44.44012" lon="2.13258">
        <ele>497</ele>
        <time>2017-09-18T09:08:11Z</time>
      </trkpt>
      <trkpt lat="44.44009" lon="2.13242">
        <ele>497</ele>
        <time>2017-09-18T09:08:19Z</time>
      </trkpt>
      <trkpt lat="44.44004" lon="2.13233">
        <ele>498</ele>
        <time>2017-09-18T09:08:25Z</time>
      </trkpt>
      <trkpt lat="44.44" lon="2.13225">
        <ele>496</ele>
        <time>2017-09-18T09:08:30Z</time>
      </trkpt>
      <trkpt lat="44.43993" lon="2.13211">
        <ele>497</ele>
        <time>2017-09-18T09:08:40Z</time>
      </trkpt>
      <trkpt lat="44.4399" lon="2.13207">
        <ele>497</ele>
        <time>2017-09-18T09:08:43Z</time>
      </trkpt>
      <trkpt lat="44.43985" lon="2.13198">
        <ele>497</ele>
        <time>2017-09-18T09:08:49Z</time>
      </trkpt>
      <trkpt lat="44.43958" lon="2.13155">
        <ele>499</ele>
        <time>2017-09-18T09:09:19Z</time>
      </trkpt>
      <trkpt lat="44.43956" lon="2.13152">
        <ele>499</ele>
        <time>2017-09-18T09:09:21Z</time>
      </trkpt>
      <trkpt lat="44.43953" lon="2.13144">
        <ele>499</ele>
        <time>2017-09-18T09:09:26Z</time>
      </trkpt>
      <trkpt lat="44.43951" lon="2.13124">
        <ele>499</ele>
        <time>2017-09-18T09:09:36Z</time>
      </trkpt>
      <trkpt lat="44.43951" lon="2.13108">
        <ele>500</ele>
        <time>2017-09-18T09:09:45Z</time>
      </trkpt>
      <trkpt lat="44.43952" lon="2.13103">
        <ele>500</ele>
        <time>2017-09-18T09:09:49Z</time>
      </trkpt>
      <trkpt lat="44.4395" lon="2.13041">
        <ele>503</ele>
        <time>2017-09-18T09:10:21Z</time>
      </trkpt>
      <trkpt lat="44.43951" lon="2.13037">
        <ele>503</ele>
        <time>2017-09-18T09:10:24Z</time>
      </trkpt>
      <trkpt lat="44.43952" lon="2.13026">
        <ele>503</ele>
        <time>2017-09-18T09:10:30Z</time>
      </trkpt>
      <trkpt lat="44.43952" lon="2.13023">
        <ele>503</ele>
        <time>2017-09-18T09:10:32Z</time>
      </trkpt>
      <trkpt lat="44.43953" lon="2.1299">
        <ele>505</ele>
        <time>2017-09-18T09:10:49Z</time>
      </trkpt>
      <trkpt lat="44.43953" lon="2.12985">
        <ele>505</ele>
        <time>2017-09-18T09:10:52Z</time>
      </trkpt>
      <trkpt lat="44.43952" lon="2.12964">
        <ele>505</ele>
        <time>2017-09-18T09:11:02Z</time>
      </trkpt>
      <trkpt lat="44.43954" lon="2.1296">
        <ele>506</ele>
        <time>2017-09-18T09:11:04Z</time>
      </trkpt>
      <trkpt lat="44.43954" lon="2.12954">
        <ele>506</ele>
        <time>2017-09-18T09:11:07Z</time>
      </trkpt>
      <trkpt lat="44.43956" lon="2.12934">
        <ele>506</ele>
        <time>2017-09-18T09:11:17Z</time>
      </trkpt>
      <trkpt lat="44.43956" lon="2.12916">
        <ele>505</ele>
        <time>2017-09-18T09:11:26Z</time>
      </trkpt>
      <trkpt lat="44.43957" lon="2.12912">
        <ele>505</ele>
        <time>2017-09-18T09:11:28Z</time>
      </trkpt>
      <trkpt lat="44.43958" lon="2.12908">
        <ele>505</ele>
        <time>2017-09-18T09:11:30Z</time>
      </trkpt>
      <trkpt lat="44.43958" lon="2.12907">
        <ele>505</ele>
        <time>2017-09-18T09:12:16Z</time>
      </trkpt>
      <trkpt lat="44.43958" lon="2.12903">
        <ele>505</ele>
        <time>2017-09-18T09:12:46Z</time>
      </trkpt>
      <trkpt lat="44.43958" lon="2.12901">
        <ele>505</ele>
        <time>2017-09-18T09:12:48Z</time>
      </trkpt>
      <trkpt lat="44.43957" lon="2.12898">
        <ele>505</ele>
        <time>2017-09-18T09:12:50Z</time>
      </trkpt>
      <trkpt lat="44.43955" lon="2.12896">
        <ele>505</ele>
        <time>2017-09-18T09:12:52Z</time>
      </trkpt>
      <trkpt lat="44.4393" lon="2.12883">
        <ele>505</ele>
        <time>2017-09-18T09:13:10Z</time>
      </trkpt>
      <trkpt lat="44.43928" lon="2.12882">
        <ele>505</ele>
        <time>2017-09-18T09:13:12Z</time>
      </trkpt>
      <trkpt lat="44.43925" lon="2.12881">
        <ele>505</ele>
        <time>2017-09-18T09:13:15Z</time>
      </trkpt>
      <trkpt lat="44.43919" lon="2.12879">
        <ele>505</ele>
        <time>2017-09-18T09:13:20Z</time>
      </trkpt>
      <trkpt lat="44.439" lon="2.1287">
        <ele>505</ele>
        <time>2017-09-18T09:13:33Z</time>
      </trkpt>
      <trkpt lat="44.43898" lon="2.12869">
        <ele>505</ele>
        <time>2017-09-18T09:13:35Z</time>
      </trkpt>
      <trkpt lat="44.43866" lon="2.12853">
        <ele>505</ele>
        <time>2017-09-18T09:14:00Z</time>
      </trkpt>
      <trkpt lat="44.43864" lon="2.12853">
        <ele>505</ele>
        <time>2017-09-18T09:14:01Z</time>
      </trkpt>
      <trkpt lat="44.4386" lon="2.12852">
        <ele>505</ele>
        <time>2017-09-18T09:14:04Z</time>
      </trkpt>
      <trkpt lat="44.43835" lon="2.12835">
        <ele>505</ele>
        <time>2017-09-18T09:14:23Z</time>
      </trkpt>
      <trkpt lat="44.43832" lon="2.1283">
        <ele>505</ele>
        <time>2017-09-18T09:14:27Z</time>
      </trkpt>
      <trkpt lat="44.43824" lon="2.12822">
        <ele>505</ele>
        <time>2017-09-18T09:14:33Z</time>
      </trkpt>
      <trkpt lat="44.43822" lon="2.12821">
        <ele>505</ele>
        <time>2017-09-18T09:14:35Z</time>
      </trkpt>
      <trkpt lat="44.43818" lon="2.12817">
        <ele>505</ele>
        <time>2017-09-18T09:14:39Z</time>
      </trkpt>
      <trkpt lat="44.43816" lon="2.12811">
        <ele>505</ele>
        <time>2017-09-18T09:14:43Z</time>
      </trkpt>
      <trkpt lat="44.43789" lon="2.12763">
        <ele>505</ele>
        <time>2017-09-18T09:15:13Z</time>
      </trkpt>
      <trkpt lat="44.43778" lon="2.1273">
        <ele>504</ele>
        <time>2017-09-18T09:15:32Z</time>
      </trkpt>
      <trkpt lat="44.4377" lon="2.12705">
        <ele>503</ele>
        <time>2017-09-18T09:15:46Z</time>
      </trkpt>
      <trkpt lat="44.43769" lon="2.127">
        <ele>503</ele>
        <time>2017-09-18T09:15:49Z</time>
      </trkpt>
      <trkpt lat="44.43768" lon="2.12696">
        <ele>503</ele>
        <time>2017-09-18T09:15:51Z</time>
      </trkpt>
      <trkpt lat="44.43766" lon="2.12687">
        <ele>503</ele>
        <time>2017-09-18T09:15:56Z</time>
      </trkpt>
      <trkpt lat="44.43765" lon="2.12682">
        <ele>503</ele>
        <time>2017-09-18T09:15:59Z</time>
      </trkpt>
      <trkpt lat="44.43762" lon="2.12671">
        <ele>503</ele>
        <time>2017-09-18T09:16:05Z</time>
      </trkpt>
      <trkpt lat="44.43757" lon="2.12657">
        <ele>503</ele>
        <time>2017-09-18T09:16:12Z</time>
      </trkpt>
      <trkpt lat="44.43755" lon="2.12653">
        <ele>502</ele>
        <time>2017-09-18T09:16:14Z</time>
      </trkpt>
      <trkpt lat="44.43752" lon="2.12647">
        <ele>502</ele>
        <time>2017-09-18T09:16:17Z</time>
      </trkpt>
      <trkpt lat="44.4375" lon="2.1264">
        <ele>502</ele>
        <time>2017-09-18T09:16:21Z</time>
      </trkpt>
      <trkpt lat="44.43747" lon="2.12631">
        <ele>502</ele>
        <time>2017-09-18T09:16:26Z</time>
      </trkpt>
      <trkpt lat="44.43746" lon="2.12626">
        <ele>502</ele>
        <time>2017-09-18T09:16:29Z</time>
      </trkpt>
      <trkpt lat="44.43738" lon="2.12608">
        <ele>502</ele>
        <time>2017-09-18T09:16:41Z</time>
      </trkpt>
      <trkpt lat="44.43736" lon="2.12604">
        <ele>502</ele>
        <time>2017-09-18T09:16:44Z</time>
      </trkpt>
      <trkpt lat="44.43732" lon="2.12594">
        <ele>502</ele>
        <time>2017-09-18T09:16:49Z</time>
      </trkpt>
      <trkpt lat="44.43724" lon="2.12578">
        <ele>501</ele>
        <time>2017-09-18T09:16:57Z</time>
      </trkpt>
      <trkpt lat="44.43718" lon="2.12564">
        <ele>501</ele>
        <time>2017-09-18T09:17:07Z</time>
      </trkpt>
      <trkpt lat="44.43713" lon="2.12553">
        <ele>500</ele>
        <time>2017-09-18T09:17:14Z</time>
      </trkpt>
      <trkpt lat="44.43691" lon="2.12497">
        <ele>499</ele>
        <time>2017-09-18T09:17:44Z</time>
      </trkpt>
      <trkpt lat="44.43675" lon="2.12438">
        <ele>498</ele>
        <time>2017-09-18T09:18:15Z</time>
      </trkpt>
      <trkpt lat="44.43667" lon="2.12401">
        <ele>497</ele>
        <time>2017-09-18T09:18:34Z</time>
      </trkpt>
      <trkpt lat="44.43666" lon="2.12388">
        <ele>498</ele>
        <time>2017-09-18T09:18:41Z</time>
      </trkpt>
      <trkpt lat="44.43651" lon="2.12333">
        <ele>497</ele>
        <time>2017-09-18T09:19:11Z</time>
      </trkpt>
      <trkpt lat="44.43647" lon="2.12322">
        <ele>497</ele>
        <time>2017-09-18T09:19:17Z</time>
      </trkpt>
      <trkpt lat="44.43641" lon="2.12281">
        <ele>497</ele>
        <time>2017-09-18T09:19:37Z</time>
      </trkpt>
      <trkpt lat="44.4364" lon="2.12272">
        <ele>497</ele>
        <time>2017-09-18T09:19:42Z</time>
      </trkpt>
      <trkpt lat="44.43635" lon="2.1223">
        <ele>497</ele>
        <time>2017-09-18T09:20:05Z</time>
      </trkpt>
      <trkpt lat="44.43635" lon="2.12227">
        <ele>497</ele>
        <time>2017-09-18T09:20:07Z</time>
      </trkpt>
      <trkpt lat="44.43635" lon="2.12219">
        <ele>497</ele>
        <time>2017-09-18T09:20:11Z</time>
      </trkpt>
      <trkpt lat="44.4363" lon="2.12196">
        <ele>497</ele>
        <time>2017-09-18T09:20:23Z</time>
      </trkpt>
      <trkpt lat="44.4363" lon="2.12185">
        <ele>497</ele>
        <time>2017-09-18T09:20:29Z</time>
      </trkpt>
      <trkpt lat="44.43628" lon="2.12174">
        <ele>497</ele>
        <time>2017-09-18T09:20:35Z</time>
      </trkpt>
      <trkpt lat="44.43626" lon="2.12159">
        <ele>496</ele>
        <time>2017-09-18T09:20:43Z</time>
      </trkpt>
      <trkpt lat="44.43624" lon="2.12147">
        <ele>496</ele>
        <time>2017-09-18T09:20:49Z</time>
      </trkpt>
      <trkpt lat="44.43624" lon="2.12144">
        <ele>496</ele>
        <time>2017-09-18T09:20:51Z</time>
      </trkpt>
      <trkpt lat="44.43625" lon="2.12141">
        <ele>496</ele>
        <time>2017-09-18T09:20:54Z</time>
      </trkpt>
      <trkpt lat="44.43625" lon="2.12137">
        <ele>496</ele>
        <time>2017-09-18T09:20:57Z</time>
      </trkpt>
      <trkpt lat="44.43621" lon="2.12118">
        <ele>496</ele>
        <time>2017-09-18T09:21:07Z</time>
      </trkpt>
      <trkpt lat="44.43621" lon="2.12114">
        <ele>496</ele>
        <time>2017-09-18T09:21:09Z</time>
      </trkpt>
      <trkpt lat="44.43623" lon="2.12107">
        <ele>496</ele>
        <time>2017-09-18T09:21:14Z</time>
      </trkpt>
      <trkpt lat="44.43631" lon="2.12099">
        <ele>495</ele>
        <time>2017-09-18T09:21:23Z</time>
      </trkpt>
      <trkpt lat="44.43633" lon="2.12097">
        <ele>495</ele>
        <time>2017-09-18T09:21:25Z</time>
      </trkpt>
      <trkpt lat="44.43636" lon="2.12095">
        <ele>495</ele>
        <time>2017-09-18T09:21:27Z</time>
      </trkpt>
      <trkpt lat="44.43641" lon="2.12096">
        <ele>495</ele>
        <time>2017-09-18T09:21:32Z</time>
      </trkpt>
      <trkpt lat="44.43643" lon="2.12094">
        <ele>495</ele>
        <time>2017-09-18T09:22:21Z</time>
      </trkpt>
      <trkpt lat="44.43643" lon="2.12091">
        <ele>495</ele>
        <time>2017-09-18T09:22:24Z</time>
      </trkpt>
      <trkpt lat="44.43645" lon="2.12091">
        <ele>495</ele>
        <time>2017-09-18T09:23:02Z</time>
      </trkpt>
      <trkpt lat="44.43646" lon="2.12089">
        <ele>495</ele>
        <time>2017-09-18T09:23:05Z</time>
      </trkpt>
      <trkpt lat="44.43647" lon="2.12087">
        <ele>495</ele>
        <time>2017-09-18T09:23:08Z</time>
      </trkpt>
      <trkpt lat="44.43652" lon="2.12084">
        <ele>495</ele>
        <time>2017-09-18T09:23:19Z</time>
      </trkpt>
      <trkpt lat="44.43655" lon="2.12083">
        <ele>495</ele>
        <time>2017-09-18T09:23:23Z</time>
      </trkpt>
      <trkpt lat="44.43659" lon="2.12078">
        <ele>495</ele>
        <time>2017-09-18T09:23:34Z</time>
      </trkpt>
      <trkpt lat="44.43661" lon="2.12076">
        <ele>495</ele>
        <time>2017-09-18T09:23:37Z</time>
      </trkpt>
      <trkpt lat="44.43664" lon="2.12073">
        <ele>495</ele>
        <time>2017-09-18T09:23:40Z</time>
      </trkpt>
      <trkpt lat="44.43667" lon="2.12071">
        <ele>493</ele>
        <time>2017-09-18T09:23:42Z</time>
      </trkpt>
      <trkpt lat="44.43669" lon="2.12068">
        <ele>493</ele>
        <time>2017-09-18T09:23:47Z</time>
      </trkpt>
      <trkpt lat="44.43671" lon="2.12066">
        <ele>493</ele>
        <time>2017-09-18T09:23:55Z</time>
      </trkpt>
      <trkpt lat="44.43687" lon="2.12053">
        <ele>492</ele>
        <time>2017-09-18T09:24:16Z</time>
      </trkpt>
      <trkpt lat="44.43694" lon="2.1205">
        <ele>492</ele>
        <time>2017-09-18T09:24:22Z</time>
      </trkpt>
      <trkpt lat="44.43699" lon="2.12044">
        <ele>492</ele>
        <time>2017-09-18T09:24:26Z</time>
      </trkpt>
      <trkpt lat="44.43709" lon="2.12037">
        <ele>491</ele>
        <time>2017-09-18T09:24:36Z</time>
      </trkpt>
      <trkpt lat="44.43712" lon="2.12034">
        <ele>491</ele>
        <time>2017-09-18T09:24:40Z</time>
      </trkpt>
      <trkpt lat="44.43714" lon="2.12032">
        <ele>491</ele>
        <time>2017-09-18T09:24:45Z</time>
      </trkpt>
      <trkpt lat="44.43716" lon="2.1203">
        <ele>491</ele>
        <time>2017-09-18T09:24:48Z</time>
      </trkpt>
      <trkpt lat="44.43722" lon="2.12027">
        <ele>491</ele>
        <time>2017-09-18T09:24:53Z</time>
      </trkpt>
      <trkpt lat="44.43735" lon="2.12015">
        <ele>490</ele>
        <time>2017-09-18T09:25:03Z</time>
      </trkpt>
      <trkpt lat="44.43768" lon="2.1199">
        <ele>489</ele>
        <time>2017-09-18T09:25:29Z</time>
      </trkpt>
      <trkpt lat="44.43792" lon="2.11968">
        <ele>488</ele>
        <time>2017-09-18T09:25:52Z</time>
      </trkpt>
      <trkpt lat="44.43795" lon="2.11964">
        <ele>488</ele>
        <time>2017-09-18T09:25:55Z</time>
      </trkpt>
      <trkpt lat="44.43798" lon="2.11961">
        <ele>488</ele>
        <time>2017-09-18T09:25:57Z</time>
      </trkpt>
      <trkpt lat="44.43811" lon="2.11926">
        <ele>489</ele>
        <time>2017-09-18T09:26:18Z</time>
      </trkpt>
      <trkpt lat="44.43812" lon="2.11921">
        <ele>489</ele>
        <time>2017-09-18T09:26:21Z</time>
      </trkpt>
      <trkpt lat="44.43824" lon="2.11887">
        <ele>490</ele>
        <time>2017-09-18T09:26:39Z</time>
      </trkpt>
      <trkpt lat="44.43827" lon="2.1188">
        <ele>491</ele>
        <time>2017-09-18T09:26:43Z</time>
      </trkpt>
      <trkpt lat="44.43829" lon="2.11876">
        <ele>491</ele>
        <time>2017-09-18T09:26:45Z</time>
      </trkpt>
      <trkpt lat="44.43835" lon="2.11863">
        <ele>489</ele>
        <time>2017-09-18T09:26:53Z</time>
      </trkpt>
      <trkpt lat="44.43835" lon="2.11859">
        <ele>489</ele>
        <time>2017-09-18T09:26:55Z</time>
      </trkpt>
      <trkpt lat="44.43836" lon="2.11856">
        <ele>489</ele>
        <time>2017-09-18T09:26:57Z</time>
      </trkpt>
      <trkpt lat="44.43839" lon="2.11849">
        <ele>489</ele>
        <time>2017-09-18T09:27:01Z</time>
      </trkpt>
      <trkpt lat="44.43847" lon="2.11826">
        <ele>490</ele>
        <time>2017-09-18T09:27:15Z</time>
      </trkpt>
      <trkpt lat="44.43854" lon="2.11803">
        <ele>490</ele>
        <time>2017-09-18T09:27:29Z</time>
      </trkpt>
      <trkpt lat="44.43854" lon="2.11799">
        <ele>490</ele>
        <time>2017-09-18T09:27:32Z</time>
      </trkpt>
      <trkpt lat="44.43858" lon="2.11784">
        <ele>491</ele>
        <time>2017-09-18T09:27:41Z</time>
      </trkpt>
      <trkpt lat="44.43859" lon="2.11781">
        <ele>491</ele>
        <time>2017-09-18T09:27:43Z</time>
      </trkpt>
      <trkpt lat="44.43861" lon="2.11766">
        <ele>491</ele>
        <time>2017-09-18T09:27:51Z</time>
      </trkpt>
      <trkpt lat="44.43863" lon="2.11763">
        <ele>491</ele>
        <time>2017-09-18T09:27:53Z</time>
      </trkpt>
      <trkpt lat="44.43864" lon="2.11759">
        <ele>491</ele>
        <time>2017-09-18T09:27:55Z</time>
      </trkpt>
      <trkpt lat="44.43865" lon="2.11756">
        <ele>491</ele>
        <time>2017-09-18T09:27:57Z</time>
      </trkpt>
      <trkpt lat="44.43867" lon="2.11748">
        <ele>492</ele>
        <time>2017-09-18T09:28:02Z</time>
      </trkpt>
      <trkpt lat="44.43869" lon="2.11743">
        <ele>492</ele>
        <time>2017-09-18T09:28:05Z</time>
      </trkpt>
      <trkpt lat="44.4387" lon="2.1174">
        <ele>492</ele>
        <time>2017-09-18T09:28:07Z</time>
      </trkpt>
      <trkpt lat="44.43872" lon="2.11736">
        <ele>492</ele>
        <time>2017-09-18T09:28:10Z</time>
      </trkpt>
      <trkpt lat="44.43874" lon="2.11729">
        <ele>492</ele>
        <time>2017-09-18T09:28:15Z</time>
      </trkpt>
      <trkpt lat="44.43878" lon="2.11722">
        <ele>492</ele>
        <time>2017-09-18T09:28:21Z</time>
      </trkpt>
      <trkpt lat="44.43879" lon="2.11717">
        <ele>492</ele>
        <time>2017-09-18T09:28:26Z</time>
      </trkpt>
      <trkpt lat="44.4388" lon="2.11715">
        <ele>492</ele>
        <time>2017-09-18T09:28:30Z</time>
      </trkpt>
      <trkpt lat="44.43882" lon="2.11711">
        <ele>492</ele>
        <time>2017-09-18T09:28:34Z</time>
      </trkpt>
      <trkpt lat="44.43882" lon="2.11707">
        <ele>492</ele>
        <time>2017-09-18T09:28:37Z</time>
      </trkpt>
      <trkpt lat="44.43882" lon="2.11704">
        <ele>492</ele>
        <time>2017-09-18T09:28:40Z</time>
      </trkpt>
      <trkpt lat="44.43884" lon="2.117">
        <ele>492</ele>
        <time>2017-09-18T09:29:13Z</time>
      </trkpt>
      <trkpt lat="44.43889" lon="2.11689">
        <ele>492</ele>
        <time>2017-09-18T09:29:22Z</time>
      </trkpt>
      <trkpt lat="44.43893" lon="2.11681">
        <ele>492</ele>
        <time>2017-09-18T09:29:28Z</time>
      </trkpt>
      <trkpt lat="44.43897" lon="2.11665">
        <ele>493</ele>
        <time>2017-09-18T09:29:38Z</time>
      </trkpt>
      <trkpt lat="44.43898" lon="2.1166">
        <ele>493</ele>
        <time>2017-09-18T09:29:41Z</time>
      </trkpt>
      <trkpt lat="44.43901" lon="2.11656">
        <ele>493</ele>
        <time>2017-09-18T09:29:44Z</time>
      </trkpt>
      <trkpt lat="44.4391" lon="2.11636">
        <ele>493</ele>
        <time>2017-09-18T09:29:57Z</time>
      </trkpt>
      <trkpt lat="44.43919" lon="2.11607">
        <ele>492</ele>
        <time>2017-09-18T09:30:13Z</time>
      </trkpt>
      <trkpt lat="44.43927" lon="2.11578">
        <ele>493</ele>
        <time>2017-09-18T09:30:30Z</time>
      </trkpt>
      <trkpt lat="44.43929" lon="2.11575">
        <ele>493</ele>
        <time>2017-09-18T09:30:32Z</time>
      </trkpt>
      <trkpt lat="44.43935" lon="2.11557">
        <ele>492</ele>
        <time>2017-09-18T09:30:43Z</time>
      </trkpt>
      <trkpt lat="44.43936" lon="2.11552">
        <ele>492</ele>
        <time>2017-09-18T09:30:46Z</time>
      </trkpt>
      <trkpt lat="44.43939" lon="2.11548">
        <ele>492</ele>
        <time>2017-09-18T09:30:49Z</time>
      </trkpt>
      <trkpt lat="44.43939" lon="2.11542">
        <ele>492</ele>
        <time>2017-09-18T09:31:12Z</time>
      </trkpt>
      <trkpt lat="44.43941" lon="2.11516">
        <ele>492</ele>
        <time>2017-09-18T09:31:26Z</time>
      </trkpt>
      <trkpt lat="44.43945" lon="2.11494">
        <ele>490</ele>
        <time>2017-09-18T09:31:40Z</time>
      </trkpt>
      <trkpt lat="44.43946" lon="2.11473">
        <ele>490</ele>
        <time>2017-09-18T09:31:51Z</time>
      </trkpt>
      <trkpt lat="44.43948" lon="2.11447">
        <ele>489</ele>
        <time>2017-09-18T09:32:06Z</time>
      </trkpt>
      <trkpt lat="44.43949" lon="2.11443">
        <ele>489</ele>
        <time>2017-09-18T09:32:09Z</time>
      </trkpt>
      <trkpt lat="44.43951" lon="2.11433">
        <ele>489</ele>
        <time>2017-09-18T09:32:15Z</time>
      </trkpt>
      <trkpt lat="44.43958" lon="2.11416">
        <ele>486</ele>
        <time>2017-09-18T09:32:25Z</time>
      </trkpt>
      <trkpt lat="44.43961" lon="2.11407">
        <ele>486</ele>
        <time>2017-09-18T09:32:30Z</time>
      </trkpt>
      <trkpt lat="44.43963" lon="2.11399">
        <ele>486</ele>
        <time>2017-09-18T09:32:35Z</time>
      </trkpt>
      <trkpt lat="44.43967" lon="2.11384">
        <ele>486</ele>
        <time>2017-09-18T09:32:44Z</time>
      </trkpt>
      <trkpt lat="44.43972" lon="2.11375">
        <ele>486</ele>
        <time>2017-09-18T09:32:50Z</time>
      </trkpt>
      <trkpt lat="44.43973" lon="2.11363">
        <ele>486</ele>
        <time>2017-09-18T09:32:58Z</time>
      </trkpt>
      <trkpt lat="44.43976" lon="2.11358">
        <ele>486</ele>
        <time>2017-09-18T09:33:02Z</time>
      </trkpt>
      <trkpt lat="44.43976" lon="2.11355">
        <ele>486</ele>
        <time>2017-09-18T09:33:04Z</time>
      </trkpt>
      <trkpt lat="44.4398" lon="2.11326">
        <ele>484</ele>
        <time>2017-09-18T09:33:25Z</time>
      </trkpt>
      <trkpt lat="44.43981" lon="2.11323">
        <ele>483</ele>
        <time>2017-09-18T09:33:28Z</time>
      </trkpt>
      <trkpt lat="44.43979" lon="2.11315">
        <ele>483</ele>
        <time>2017-09-18T09:33:32Z</time>
      </trkpt>
      <trkpt lat="44.43979" lon="2.11312">
        <ele>483</ele>
        <time>2017-09-18T09:33:34Z</time>
      </trkpt>
      <trkpt lat="44.4398" lon="2.11308">
        <ele>483</ele>
        <time>2017-09-18T09:33:36Z</time>
      </trkpt>
      <trkpt lat="44.43985" lon="2.11251">
        <ele>481</ele>
        <time>2017-09-18T09:34:06Z</time>
      </trkpt>
      <trkpt lat="44.43985" lon="2.11247">
        <ele>480</ele>
        <time>2017-09-18T09:34:08Z</time>
      </trkpt>
      <trkpt lat="44.43986" lon="2.11245">
        <ele>480</ele>
        <time>2017-09-18T09:34:10Z</time>
      </trkpt>
      <trkpt lat="44.43986" lon="2.11237">
        <ele>480</ele>
        <time>2017-09-18T09:34:15Z</time>
      </trkpt>
      <trkpt lat="44.43988" lon="2.11229">
        <ele>479</ele>
        <time>2017-09-18T09:34:20Z</time>
      </trkpt>
      <trkpt lat="44.43989" lon="2.11213">
        <ele>479</ele>
        <time>2017-09-18T09:34:29Z</time>
      </trkpt>
      <trkpt lat="44.43989" lon="2.1121">
        <ele>478</ele>
        <time>2017-09-18T09:34:31Z</time>
      </trkpt>
      <trkpt lat="44.43994" lon="2.11188">
        <ele>477</ele>
        <time>2017-09-18T09:34:41Z</time>
      </trkpt>
      <trkpt lat="44.43995" lon="2.11182">
        <ele>477</ele>
        <time>2017-09-18T09:34:44Z</time>
      </trkpt>
      <trkpt lat="44.43999" lon="2.11164">
        <ele>475</ele>
        <time>2017-09-18T09:34:56Z</time>
      </trkpt>
      <trkpt lat="44.44002" lon="2.11152">
        <ele>474</ele>
        <time>2017-09-18T09:35:03Z</time>
      </trkpt>
      <trkpt lat="44.44" lon="2.11149">
        <ele>474</ele>
        <time>2017-09-18T09:35:10Z</time>
      </trkpt>
      <trkpt lat="44.43998" lon="2.11147">
        <ele>475</ele>
        <time>2017-09-18T09:35:16Z</time>
      </trkpt>
      <trkpt lat="44.43997" lon="2.11137">
        <ele>475</ele>
        <time>2017-09-18T09:35:21Z</time>
      </trkpt>
      <trkpt lat="44.43995" lon="2.11105">
        <ele>474</ele>
        <time>2017-09-18T09:35:40Z</time>
      </trkpt>
      <trkpt lat="44.43997" lon="2.11078">
        <ele>472</ele>
        <time>2017-09-18T09:35:56Z</time>
      </trkpt>
      <trkpt lat="44.44013" lon="2.11027">
        <ele>472</ele>
        <time>2017-09-18T09:36:28Z</time>
      </trkpt>
      <trkpt lat="44.44023" lon="2.10991">
        <ele>474</ele>
        <time>2017-09-18T09:36:51Z</time>
      </trkpt>
      <trkpt lat="44.44024" lon="2.10986">
        <ele>474</ele>
        <time>2017-09-18T09:36:54Z</time>
      </trkpt>
      <trkpt lat="44.44026" lon="2.10979">
        <ele>474</ele>
        <time>2017-09-18T09:36:59Z</time>
      </trkpt>
      <trkpt lat="44.44032" lon="2.10952">
        <ele>474</ele>
        <time>2017-09-18T09:37:15Z</time>
      </trkpt>
      <trkpt lat="44.44033" lon="2.10947">
        <ele>474</ele>
        <time>2017-09-18T09:37:18Z</time>
      </trkpt>
      <trkpt lat="44.44043" lon="2.10896">
        <ele>475</ele>
        <time>2017-09-18T09:37:48Z</time>
      </trkpt>
      <trkpt lat="44.4405" lon="2.10842">
        <ele>474</ele>
        <time>2017-09-18T09:38:19Z</time>
      </trkpt>
      <trkpt lat="44.44055" lon="2.10795">
        <ele>474</ele>
        <time>2017-09-18T09:38:44Z</time>
      </trkpt>
      <trkpt lat="44.44056" lon="2.10791">
        <ele>474</ele>
        <time>2017-09-18T09:38:47Z</time>
      </trkpt>
      <trkpt lat="44.44056" lon="2.10788">
        <ele>474</ele>
        <time>2017-09-18T09:38:49Z</time>
      </trkpt>
      <trkpt lat="44.44057" lon="2.10736">
        <ele>473</ele>
        <time>2017-09-18T09:39:21Z</time>
      </trkpt>
      <trkpt lat="44.44058" lon="2.10722">
        <ele>473</ele>
        <time>2017-09-18T09:39:30Z</time>
      </trkpt>
      <trkpt lat="44.44059" lon="2.10718">
        <ele>472</ele>
        <time>2017-09-18T09:39:33Z</time>
      </trkpt>
      <trkpt lat="44.44059" lon="2.1071">
        <ele>472</ele>
        <time>2017-09-18T09:39:38Z</time>
      </trkpt>
      <trkpt lat="44.4406" lon="2.10695">
        <ele>472</ele>
        <time>2017-09-18T09:39:46Z</time>
      </trkpt>
      <trkpt lat="44.44061" lon="2.10688">
        <ele>472</ele>
        <time>2017-09-18T09:39:50Z</time>
      </trkpt>
      <trkpt lat="44.44063" lon="2.10674">
        <ele>471</ele>
        <time>2017-09-18T09:39:58Z</time>
      </trkpt>
      <trkpt lat="44.44064" lon="2.10668">
        <ele>471</ele>
        <time>2017-09-18T09:40:02Z</time>
      </trkpt>
      <trkpt lat="44.44066" lon="2.10665">
        <ele>471</ele>
        <time>2017-09-18T09:40:05Z</time>
      </trkpt>
      <trkpt lat="44.44067" lon="2.1066">
        <ele>471</ele>
        <time>2017-09-18T09:40:08Z</time>
      </trkpt>
      <trkpt lat="44.44077" lon="2.10604">
        <ele>471</ele>
        <time>2017-09-18T09:40:38Z</time>
      </trkpt>
      <trkpt lat="44.44079" lon="2.10597">
        <ele>470</ele>
        <time>2017-09-18T09:40:42Z</time>
      </trkpt>
      <trkpt lat="44.44084" lon="2.10584">
        <ele>469</ele>
        <time>2017-09-18T09:40:50Z</time>
      </trkpt>
      <trkpt lat="44.44087" lon="2.10575">
        <ele>469</ele>
        <time>2017-09-18T09:41:04Z</time>
      </trkpt>
      <trkpt lat="44.4409" lon="2.10569">
        <ele>469</ele>
        <time>2017-09-18T09:41:11Z</time>
      </trkpt>
      <trkpt lat="44.44091" lon="2.10566">
        <ele>469</ele>
        <time>2017-09-18T09:41:13Z</time>
      </trkpt>
      <trkpt lat="44.44091" lon="2.10563">
        <ele>469</ele>
        <time>2017-09-18T09:41:15Z</time>
      </trkpt>
      <trkpt lat="44.44093" lon="2.10553">
        <ele>468</ele>
        <time>2017-09-18T09:41:21Z</time>
      </trkpt>
      <trkpt lat="44.44094" lon="2.1055">
        <ele>468</ele>
        <time>2017-09-18T09:41:23Z</time>
      </trkpt>
      <trkpt lat="44.44094" lon="2.10547">
        <ele>468</ele>
        <time>2017-09-18T09:41:25Z</time>
      </trkpt>
      <trkpt lat="44.44095" lon="2.10544">
        <ele>468</ele>
        <time>2017-09-18T09:41:27Z</time>
      </trkpt>
      <trkpt lat="44.44097" lon="2.10521">
        <ele>468</ele>
        <time>2017-09-18T09:41:39Z</time>
      </trkpt>
      <trkpt lat="44.44097" lon="2.10504">
        <ele>468</ele>
        <time>2017-09-18T09:41:49Z</time>
      </trkpt>
      <trkpt lat="44.44097" lon="2.10499">
        <ele>469</ele>
        <time>2017-09-18T09:41:51Z</time>
      </trkpt>
      <trkpt lat="44.44101" lon="2.10488">
        <ele>469</ele>
        <time>2017-09-18T09:41:57Z</time>
      </trkpt>
      <trkpt lat="44.44102" lon="2.10484">
        <ele>469</ele>
        <time>2017-09-18T09:41:59Z</time>
      </trkpt>
      <trkpt lat="44.44104" lon="2.10482">
        <ele>469</ele>
        <time>2017-09-18T09:42:01Z</time>
      </trkpt>
      <trkpt lat="44.44105" lon="2.10478">
        <ele>470</ele>
        <time>2017-09-18T09:42:03Z</time>
      </trkpt>
      <trkpt lat="44.4411" lon="2.10468">
        <ele>470</ele>
        <time>2017-09-18T09:42:10Z</time>
      </trkpt>
      <trkpt lat="44.4411" lon="2.10464">
        <ele>470</ele>
        <time>2017-09-18T09:42:13Z</time>
      </trkpt>
      <trkpt lat="44.44123" lon="2.10429">
        <ele>471</ele>
        <time>2017-09-18T09:42:37Z</time>
      </trkpt>
      <trkpt lat="44.4413" lon="2.10413">
        <ele>474</ele>
        <time>2017-09-18T09:42:47Z</time>
      </trkpt>
      <trkpt lat="44.44132" lon="2.10407">
        <ele>474</ele>
        <time>2017-09-18T09:42:51Z</time>
      </trkpt>
      <trkpt lat="44.44136" lon="2.10397">
        <ele>474</ele>
        <time>2017-09-18T09:42:57Z</time>
      </trkpt>
      <trkpt lat="44.44138" lon="2.10394">
        <ele>474</ele>
        <time>2017-09-18T09:42:59Z</time>
      </trkpt>
      <trkpt lat="44.44139" lon="2.10391">
        <ele>474</ele>
        <time>2017-09-18T09:43:01Z</time>
      </trkpt>
      <trkpt lat="44.44142" lon="2.10383">
        <ele>474</ele>
        <time>2017-09-18T09:43:06Z</time>
      </trkpt>
      <trkpt lat="44.44144" lon="2.1038">
        <ele>474</ele>
        <time>2017-09-18T09:43:08Z</time>
      </trkpt>
      <trkpt lat="44.44149" lon="2.10359">
        <ele>475</ele>
        <time>2017-09-18T09:43:21Z</time>
      </trkpt>
      <trkpt lat="44.44158" lon="2.10336">
        <ele>476</ele>
        <time>2017-09-18T09:43:36Z</time>
      </trkpt>
      <trkpt lat="44.4416" lon="2.10313">
        <ele>477</ele>
        <time>2017-09-18T09:43:49Z</time>
      </trkpt>
      <trkpt lat="44.4416" lon="2.10299">
        <ele>477</ele>
        <time>2017-09-18T09:43:57Z</time>
      </trkpt>
      <trkpt lat="44.44159" lon="2.10292">
        <ele>477</ele>
        <time>2017-09-18T09:44:01Z</time>
      </trkpt>
      <trkpt lat="44.44159" lon="2.10288">
        <ele>478</ele>
        <time>2017-09-18T09:44:04Z</time>
      </trkpt>
      <trkpt lat="44.44158" lon="2.10281">
        <ele>478</ele>
        <time>2017-09-18T09:44:09Z</time>
      </trkpt>
      <trkpt lat="44.44157" lon="2.1027">
        <ele>478</ele>
        <time>2017-09-18T09:44:15Z</time>
      </trkpt>
      <trkpt lat="44.44157" lon="2.10266">
        <ele>478</ele>
        <time>2017-09-18T09:44:17Z</time>
      </trkpt>
      <trkpt lat="44.44157" lon="2.10263">
        <ele>478</ele>
        <time>2017-09-18T09:44:19Z</time>
      </trkpt>
      <trkpt lat="44.44156" lon="2.10251">
        <ele>478</ele>
        <time>2017-09-18T09:44:25Z</time>
      </trkpt>
      <trkpt lat="44.44156" lon="2.10244">
        <ele>480</ele>
        <time>2017-09-18T09:44:29Z</time>
      </trkpt>
      <trkpt lat="44.44154" lon="2.10231">
        <ele>481</ele>
        <time>2017-09-18T09:44:35Z</time>
      </trkpt>
      <trkpt lat="44.44154" lon="2.10228">
        <ele>481</ele>
        <time>2017-09-18T09:44:37Z</time>
      </trkpt>
      <trkpt lat="44.44154" lon="2.10211">
        <ele>482</ele>
        <time>2017-09-18T09:44:45Z</time>
      </trkpt>
      <trkpt lat="44.44156" lon="2.10186">
        <ele>483</ele>
        <time>2017-09-18T09:44:57Z</time>
      </trkpt>
      <trkpt lat="44.44156" lon="2.10182">
        <ele>483</ele>
        <time>2017-09-18T09:44:59Z</time>
      </trkpt>
      <trkpt lat="44.44156" lon="2.10178">
        <ele>483</ele>
        <time>2017-09-18T09:45:01Z</time>
      </trkpt>
      <trkpt lat="44.44159" lon="2.10161">
        <ele>484</ele>
        <time>2017-09-18T09:45:11Z</time>
      </trkpt>
      <trkpt lat="44.44161" lon="2.10149">
        <ele>485</ele>
        <time>2017-09-18T09:45:18Z</time>
      </trkpt>
      <trkpt lat="44.44163" lon="2.10146">
        <ele>486</ele>
        <time>2017-09-18T09:45:21Z</time>
      </trkpt>
      <trkpt lat="44.44163" lon="2.10134">
        <ele>486</ele>
        <time>2017-09-18T09:45:28Z</time>
      </trkpt>
      <trkpt lat="44.44165" lon="2.10128">
        <ele>487</ele>
        <time>2017-09-18T09:45:32Z</time>
      </trkpt>
      <trkpt lat="44.44168" lon="2.10117">
        <ele>486</ele>
        <time>2017-09-18T09:45:38Z</time>
      </trkpt>
      <trkpt lat="44.44171" lon="2.10103">
        <ele>487</ele>
        <time>2017-09-18T09:45:46Z</time>
      </trkpt>
      <trkpt lat="44.44172" lon="2.10092">
        <ele>487</ele>
        <time>2017-09-18T09:45:52Z</time>
      </trkpt>
      <trkpt lat="44.44178" lon="2.10065">
        <ele>490</ele>
        <time>2017-09-18T09:46:09Z</time>
      </trkpt>
      <trkpt lat="44.4418" lon="2.1005">
        <ele>491</ele>
        <time>2017-09-18T09:46:18Z</time>
      </trkpt>
      <trkpt lat="44.44179" lon="2.10028">
        <ele>492</ele>
        <time>2017-09-18T09:46:30Z</time>
      </trkpt>
      <trkpt lat="44.44179" lon="2.10021">
        <ele>492</ele>
        <time>2017-09-18T09:46:34Z</time>
      </trkpt>
      <trkpt lat="44.4418" lon="2.10017">
        <ele>493</ele>
        <time>2017-09-18T09:46:36Z</time>
      </trkpt>
      <trkpt lat="44.44178" lon="2.1001">
        <ele>493</ele>
        <time>2017-09-18T09:46:40Z</time>
      </trkpt>
      <trkpt lat="44.44177" lon="2.10007">
        <ele>493</ele>
        <time>2017-09-18T09:46:43Z</time>
      </trkpt>
      <trkpt lat="44.44178" lon="2.10005">
        <ele>493</ele>
        <time>2017-09-18T09:47:25Z</time>
      </trkpt>
      <trkpt lat="44.44179" lon="2.10007">
        <ele>493</ele>
        <time>2017-09-18T09:48:00Z</time>
      </trkpt>
      <trkpt lat="44.44181" lon="2.10014">
        <ele>493</ele>
        <time>2017-09-18T09:48:07Z</time>
      </trkpt>
      <trkpt lat="44.44183" lon="2.10015">
        <ele>493</ele>
        <time>2017-09-18T09:48:42Z</time>
      </trkpt>
      <trkpt lat="44.44182" lon="2.10012">
        <ele>493</ele>
        <time>2017-09-18T09:48:53Z</time>
      </trkpt>
      <trkpt lat="44.4418" lon="2.10007">
        <ele>493</ele>
        <time>2017-09-18T09:49:11Z</time>
      </trkpt>
      <trkpt lat="44.44179" lon="2.10004">
        <ele>493</ele>
        <time>2017-09-18T09:49:13Z</time>
      </trkpt>
      <trkpt lat="44.4418" lon="2.09999">
        <ele>494</ele>
        <time>2017-09-18T09:49:19Z</time>
      </trkpt>
      <trkpt lat="44.4418" lon="2.09995">
        <ele>494</ele>
        <time>2017-09-18T09:49:24Z</time>
      </trkpt>
      <trkpt lat="44.4418" lon="2.09993">
        <ele>494</ele>
        <time>2017-09-18T09:49:29Z</time>
      </trkpt>
      <trkpt lat="44.44179" lon="2.0999">
        <ele>494</ele>
        <time>2017-09-18T09:49:32Z</time>
      </trkpt>
      <trkpt lat="44.44176" lon="2.09978">
        <ele>495</ele>
        <time>2017-09-18T09:49:42Z</time>
      </trkpt>
      <trkpt lat="44.44176" lon="2.0997">
        <ele>495</ele>
        <time>2017-09-18T09:49:48Z</time>
      </trkpt>
      <trkpt lat="44.44175" lon="2.09967">
        <ele>495</ele>
        <time>2017-09-18T09:49:50Z</time>
      </trkpt>
      <trkpt lat="44.44176" lon="2.09964">
        <ele>495</ele>
        <time>2017-09-18T09:49:53Z</time>
      </trkpt>
      <trkpt lat="44.44175" lon="2.09956">
        <ele>495</ele>
        <time>2017-09-18T09:49:57Z</time>
      </trkpt>
      <trkpt lat="44.44175" lon="2.09952">
        <ele>495</ele>
        <time>2017-09-18T09:49:59Z</time>
      </trkpt>
      <trkpt lat="44.44175" lon="2.09937">
        <ele>495</ele>
        <time>2017-09-18T09:50:07Z</time>
      </trkpt>
      <trkpt lat="44.44177" lon="2.09896">
        <ele>494</ele>
        <time>2017-09-18T09:50:30Z</time>
      </trkpt>
      <trkpt lat="44.44176" lon="2.09879">
        <ele>493</ele>
        <time>2017-09-18T09:50:40Z</time>
      </trkpt>
      <trkpt lat="44.44175" lon="2.09857">
        <ele>492</ele>
        <time>2017-09-18T09:50:53Z</time>
      </trkpt>
      <trkpt lat="44.44175" lon="2.09839">
        <ele>491</ele>
        <time>2017-09-18T09:51:06Z</time>
      </trkpt>
      <trkpt lat="44.44176" lon="2.09833">
        <ele>490</ele>
        <time>2017-09-18T09:51:11Z</time>
      </trkpt>
      <trkpt lat="44.44173" lon="2.09799">
        <ele>489</ele>
        <time>2017-09-18T09:51:26Z</time>
      </trkpt>
      <trkpt lat="44.44174" lon="2.09793">
        <ele>489</ele>
        <time>2017-09-18T09:51:30Z</time>
      </trkpt>
      <trkpt lat="44.44174" lon="2.09788">
        <ele>489</ele>
        <time>2017-09-18T09:51:33Z</time>
      </trkpt>
      <trkpt lat="44.44173" lon="2.0977">
        <ele>488</ele>
        <time>2017-09-18T09:51:43Z</time>
      </trkpt>
      <trkpt lat="44.44172" lon="2.09762">
        <ele>487</ele>
        <time>2017-09-18T09:51:49Z</time>
      </trkpt>
      <trkpt lat="44.4417" lon="2.09739">
        <ele>486</ele>
        <time>2017-09-18T09:52:01Z</time>
      </trkpt>
      <trkpt lat="44.44169" lon="2.09732">
        <ele>486</ele>
        <time>2017-09-18T09:52:04Z</time>
      </trkpt>
      <trkpt lat="44.44165" lon="2.09684">
        <ele>481</ele>
        <time>2017-09-18T09:52:29Z</time>
      </trkpt>
      <trkpt lat="44.44164" lon="2.09671">
        <ele>482</ele>
        <time>2017-09-18T09:52:36Z</time>
      </trkpt>
      <trkpt lat="44.44163" lon="2.09646">
        <ele>478</ele>
        <time>2017-09-18T09:52:49Z</time>
      </trkpt>
      <trkpt lat="44.44163" lon="2.09643">
        <ele>477</ele>
        <time>2017-09-18T09:52:51Z</time>
      </trkpt>
      <trkpt lat="44.44166" lon="2.09621">
        <ele>475</ele>
        <time>2017-09-18T09:53:05Z</time>
      </trkpt>
      <trkpt lat="44.44169" lon="2.09604">
        <ele>478</ele>
        <time>2017-09-18T09:53:16Z</time>
      </trkpt>
      <trkpt lat="44.4417" lon="2.09599">
        <ele>478</ele>
        <time>2017-09-18T09:53:20Z</time>
      </trkpt>
      <trkpt lat="44.44172" lon="2.0959">
        <ele>477</ele>
        <time>2017-09-18T09:53:26Z</time>
      </trkpt>
      <trkpt lat="44.44173" lon="2.09582">
        <ele>474</ele>
        <time>2017-09-18T09:53:31Z</time>
      </trkpt>
      <trkpt lat="44.44173" lon="2.09579">
        <ele>474</ele>
        <time>2017-09-18T09:53:34Z</time>
      </trkpt>
      <trkpt lat="44.44173" lon="2.09575">
        <ele>474</ele>
        <time>2017-09-18T09:53:37Z</time>
      </trkpt>
      <trkpt lat="44.4418" lon="2.09552">
        <ele>472</ele>
        <time>2017-09-18T09:54:00Z</time>
      </trkpt>
      <trkpt lat="44.4418" lon="2.09546">
        <ele>471</ele>
        <time>2017-09-18T09:54:03Z</time>
      </trkpt>
      <trkpt lat="44.44181" lon="2.09542">
        <ele>471</ele>
        <time>2017-09-18T09:54:06Z</time>
      </trkpt>
      <trkpt lat="44.44181" lon="2.09538">
        <ele>470</ele>
        <time>2017-09-18T09:54:08Z</time>
      </trkpt>
      <trkpt lat="44.44184" lon="2.09534">
        <ele>470</ele>
        <time>2017-09-18T09:54:11Z</time>
      </trkpt>
      <trkpt lat="44.44185" lon="2.0953">
        <ele>470</ele>
        <time>2017-09-18T09:54:13Z</time>
      </trkpt>
      <trkpt lat="44.44193" lon="2.09502">
        <ele>468</ele>
        <time>2017-09-18T09:54:30Z</time>
      </trkpt>
      <trkpt lat="44.44195" lon="2.09487">
        <ele>461</ele>
        <time>2017-09-18T09:54:39Z</time>
      </trkpt>
      <trkpt lat="44.44197" lon="2.0948">
        <ele>461</ele>
        <time>2017-09-18T09:54:44Z</time>
      </trkpt>
      <trkpt lat="44.44198" lon="2.09471">
        <ele>460</ele>
        <time>2017-09-18T09:54:51Z</time>
      </trkpt>
      <trkpt lat="44.44198" lon="2.09467">
        <ele>460</ele>
        <time>2017-09-18T09:54:58Z</time>
      </trkpt>
      <trkpt lat="44.442" lon="2.09439">
        <ele>457</ele>
        <time>2017-09-18T09:55:30Z</time>
      </trkpt>
      <trkpt lat="44.44198" lon="2.09429">
        <ele>457</ele>
        <time>2017-09-18T09:55:38Z</time>
      </trkpt>
      <trkpt lat="44.44197" lon="2.09423">
        <ele>456</ele>
        <time>2017-09-18T09:55:44Z</time>
      </trkpt>
      <trkpt lat="44.44193" lon="2.09411">
        <ele>449</ele>
        <time>2017-09-18T09:55:56Z</time>
      </trkpt>
      <trkpt lat="44.4419" lon="2.09409">
        <ele>449</ele>
        <time>2017-09-18T09:56:01Z</time>
      </trkpt>
      <trkpt lat="44.4419" lon="2.09404">
        <ele>449</ele>
        <time>2017-09-18T09:56:06Z</time>
      </trkpt>
      <trkpt lat="44.4419" lon="2.09401">
        <ele>449</ele>
        <time>2017-09-18T09:56:09Z</time>
      </trkpt>
      <trkpt lat="44.4419" lon="2.09398">
        <ele>449</ele>
        <time>2017-09-18T09:56:12Z</time>
      </trkpt>
      <trkpt lat="44.44192" lon="2.09396">
        <ele>449</ele>
        <time>2017-09-18T09:56:14Z</time>
      </trkpt>
      <trkpt lat="44.44195" lon="2.09391">
        <ele>448</ele>
        <time>2017-09-18T09:56:18Z</time>
      </trkpt>
      <trkpt lat="44.44205" lon="2.09377">
        <ele>448</ele>
        <time>2017-09-18T09:56:28Z</time>
      </trkpt>
      <trkpt lat="44.4421" lon="2.09367">
        <ele>447</ele>
        <time>2017-09-18T09:56:35Z</time>
      </trkpt>
      <trkpt lat="44.44214" lon="2.09363">
        <ele>447</ele>
        <time>2017-09-18T09:56:39Z</time>
      </trkpt>
      <trkpt lat="44.44216" lon="2.09362">
        <ele>447</ele>
        <time>2017-09-18T09:56:41Z</time>
      </trkpt>
      <trkpt lat="44.44228" lon="2.09345">
        <ele>447</ele>
        <time>2017-09-18T09:56:54Z</time>
      </trkpt>
      <trkpt lat="44.44238" lon="2.09328">
        <ele>445</ele>
        <time>2017-09-18T09:57:07Z</time>
      </trkpt>
      <trkpt lat="44.4424" lon="2.09327">
        <ele>445</ele>
        <time>2017-09-18T09:57:09Z</time>
      </trkpt>
      <trkpt lat="44.44243" lon="2.09326">
        <ele>446</ele>
        <time>2017-09-18T09:57:11Z</time>
      </trkpt>
      <trkpt lat="44.44254" lon="2.09328">
        <ele>448</ele>
        <time>2017-09-18T09:57:21Z</time>
      </trkpt>
      <trkpt lat="44.44278" lon="2.09349">
        <ele>449</ele>
        <time>2017-09-18T09:57:51Z</time>
      </trkpt>
      <trkpt lat="44.44281" lon="2.09353">
        <ele>449</ele>
        <time>2017-09-18T09:57:55Z</time>
      </trkpt>
      <trkpt lat="44.44289" lon="2.09367">
        <ele>449</ele>
        <time>2017-09-18T09:58:06Z</time>
      </trkpt>
      <trkpt lat="44.44291" lon="2.09371">
        <ele>449</ele>
        <time>2017-09-18T09:58:09Z</time>
      </trkpt>
      <trkpt lat="44.44294" lon="2.09378">
        <ele>449</ele>
        <time>2017-09-18T09:58:15Z</time>
      </trkpt>
      <trkpt lat="44.44297" lon="2.09388">
        <ele>449</ele>
        <time>2017-09-18T09:58:24Z</time>
      </trkpt>
      <trkpt lat="44.44307" lon="2.09404">
        <ele>449</ele>
        <time>2017-09-18T09:58:37Z</time>
      </trkpt>
      <trkpt lat="44.4431" lon="2.09413">
        <ele>449</ele>
        <time>2017-09-18T09:58:44Z</time>
      </trkpt>
      <trkpt lat="44.44315" lon="2.0942">
        <ele>451</ele>
        <time>2017-09-18T09:58:50Z</time>
      </trkpt>
      <trkpt lat="44.44314" lon="2.09428">
        <ele>452</ele>
        <time>2017-09-18T09:58:58Z</time>
      </trkpt>
      <trkpt lat="44.44319" lon="2.09434">
        <ele>452</ele>
        <time>2017-09-18T09:59:03Z</time>
      </trkpt>
      <trkpt lat="44.44325" lon="2.09441">
        <ele>452</ele>
        <time>2017-09-18T09:59:09Z</time>
      </trkpt>
      <trkpt lat="44.44334" lon="2.09445">
        <ele>445</ele>
        <time>2017-09-18T09:59:13Z</time>
      </trkpt>
      <trkpt lat="44.44336" lon="2.09449">
        <ele>445</ele>
        <time>2017-09-18T09:59:15Z</time>
      </trkpt>
      <trkpt lat="44.44341" lon="2.09454">
        <ele>445</ele>
        <time>2017-09-18T09:59:19Z</time>
      </trkpt>
      <trkpt lat="44.44359" lon="2.09487">
        <ele>446</ele>
        <time>2017-09-18T09:59:39Z</time>
      </trkpt>
      <trkpt lat="44.44361" lon="2.0949">
        <ele>446</ele>
        <time>2017-09-18T09:59:41Z</time>
      </trkpt>
      <trkpt lat="44.44374" lon="2.09498">
        <ele>443</ele>
        <time>2017-09-18T09:59:52Z</time>
      </trkpt>
      <trkpt lat="44.44389" lon="2.09514">
        <ele>448</ele>
        <time>2017-09-18T10:00:04Z</time>
      </trkpt>
      <trkpt lat="44.44391" lon="2.09517">
        <ele>448</ele>
        <time>2017-09-18T10:00:06Z</time>
      </trkpt>
      <trkpt lat="44.44398" lon="2.09547">
        <ele>450</ele>
        <time>2017-09-18T10:00:22Z</time>
      </trkpt>
      <trkpt lat="44.44403" lon="2.09556">
        <ele>451</ele>
        <time>2017-09-18T10:00:32Z</time>
      </trkpt>
      <trkpt lat="44.44407" lon="2.09555">
        <ele>451</ele>
        <time>2017-09-18T10:00:35Z</time>
      </trkpt>
      <trkpt lat="44.44409" lon="2.09554">
        <ele>450</ele>
        <time>2017-09-18T10:00:38Z</time>
      </trkpt>
      <trkpt lat="44.44413" lon="2.09551">
        <ele>450</ele>
        <time>2017-09-18T10:00:42Z</time>
      </trkpt>
      <trkpt lat="44.44416" lon="2.09548">
        <ele>450</ele>
        <time>2017-09-18T10:00:45Z</time>
      </trkpt>
      <trkpt lat="44.44419" lon="2.09546">
        <ele>441</ele>
        <time>2017-09-18T10:00:47Z</time>
      </trkpt>
      <trkpt lat="44.44422" lon="2.09545">
        <ele>441</ele>
        <time>2017-09-18T10:00:51Z</time>
      </trkpt>
      <trkpt lat="44.44426" lon="2.09544">
        <ele>440</ele>
        <time>2017-09-18T10:00:54Z</time>
      </trkpt>
      <trkpt lat="44.4443" lon="2.09541">
        <ele>440</ele>
        <time>2017-09-18T10:00:59Z</time>
      </trkpt>
      <trkpt lat="44.44434" lon="2.09539">
        <ele>440</ele>
        <time>2017-09-18T10:01:05Z</time>
      </trkpt>
      <trkpt lat="44.44438" lon="2.09539">
        <ele>439</ele>
        <time>2017-09-18T10:01:08Z</time>
      </trkpt>
      <trkpt lat="44.44442" lon="2.09541">
        <ele>439</ele>
        <time>2017-09-18T10:01:11Z</time>
      </trkpt>
      <trkpt lat="44.44448" lon="2.09543">
        <ele>439</ele>
        <time>2017-09-18T10:01:15Z</time>
      </trkpt>
      <trkpt lat="44.44452" lon="2.09545">
        <ele>439</ele>
        <time>2017-09-18T10:01:18Z</time>
      </trkpt>
      <trkpt lat="44.44469" lon="2.09559">
        <ele>440</ele>
        <time>2017-09-18T10:01:32Z</time>
      </trkpt>
      <trkpt lat="44.44481" lon="2.09573">
        <ele>440</ele>
        <time>2017-09-18T10:01:45Z</time>
      </trkpt>
      <trkpt lat="44.44492" lon="2.09601">
        <ele>448</ele>
        <time>2017-09-18T10:02:02Z</time>
      </trkpt>
      <trkpt lat="44.44493" lon="2.09606">
        <ele>449</ele>
        <time>2017-09-18T10:02:05Z</time>
      </trkpt>
      <trkpt lat="44.44497" lon="2.09611">
        <ele>449</ele>
        <time>2017-09-18T10:02:08Z</time>
      </trkpt>
      <trkpt lat="44.44505" lon="2.0962">
        <ele>445</ele>
        <time>2017-09-18T10:02:16Z</time>
      </trkpt>
      <trkpt lat="44.44508" lon="2.09622">
        <ele>445</ele>
        <time>2017-09-18T10:02:19Z</time>
      </trkpt>
      <trkpt lat="44.44512" lon="2.09624">
        <ele>445</ele>
        <time>2017-09-18T10:02:25Z</time>
      </trkpt>
      <trkpt lat="44.44521" lon="2.09625">
        <ele>445</ele>
        <time>2017-09-18T10:02:31Z</time>
      </trkpt>
      <trkpt lat="44.44536" lon="2.09619">
        <ele>444</ele>
        <time>2017-09-18T10:02:43Z</time>
      </trkpt>
      <trkpt lat="44.4454" lon="2.09619">
        <ele>444</ele>
        <time>2017-09-18T10:02:46Z</time>
      </trkpt>
      <trkpt lat="44.44578" lon="2.09601">
        <ele>439</ele>
        <time>2017-09-18T10:03:16Z</time>
      </trkpt>
      <trkpt lat="44.44583" lon="2.09598">
        <ele>438</ele>
        <time>2017-09-18T10:03:20Z</time>
      </trkpt>
      <trkpt lat="44.44595" lon="2.09599">
        <ele>436</ele>
        <time>2017-09-18T10:03:30Z</time>
      </trkpt>
      <trkpt lat="44.44605" lon="2.09598">
        <ele>436</ele>
        <time>2017-09-18T10:03:39Z</time>
      </trkpt>
      <trkpt lat="44.44606" lon="2.09597">
        <ele>436</ele>
        <time>2017-09-18T10:03:43Z</time>
      </trkpt>
      <trkpt lat="44.44612" lon="2.09595">
        <ele>436</ele>
        <time>2017-09-18T10:03:49Z</time>
      </trkpt>
      <trkpt lat="44.44614" lon="2.09595">
        <ele>436</ele>
        <time>2017-09-18T10:03:51Z</time>
      </trkpt>
      <trkpt lat="44.44652" lon="2.09595">
        <ele>436</ele>
        <time>2017-09-18T10:04:23Z</time>
      </trkpt>
      <trkpt lat="44.44656" lon="2.09594">
        <ele>436</ele>
        <time>2017-09-18T10:04:26Z</time>
      </trkpt>
      <trkpt lat="44.44679" lon="2.09598">
        <ele>432</ele>
        <time>2017-09-18T10:04:45Z</time>
      </trkpt>
      <trkpt lat="44.44717" lon="2.09589">
        <ele>430</ele>
        <time>2017-09-18T10:05:16Z</time>
      </trkpt>
      <trkpt lat="44.44751" lon="2.09583">
        <ele>430</ele>
        <time>2017-09-18T10:05:45Z</time>
      </trkpt>
      <trkpt lat="44.44754" lon="2.09582">
        <ele>429</ele>
        <time>2017-09-18T10:05:48Z</time>
      </trkpt>
      <trkpt lat="44.4476" lon="2.09581">
        <ele>429</ele>
        <time>2017-09-18T10:05:53Z</time>
      </trkpt>
      <trkpt lat="44.44765" lon="2.0958">
        <ele>428</ele>
        <time>2017-09-18T10:05:57Z</time>
      </trkpt>
      <trkpt lat="44.4477" lon="2.09579">
        <ele>428</ele>
        <time>2017-09-18T10:06:01Z</time>
      </trkpt>
      <trkpt lat="44.44801" lon="2.09572">
        <ele>425</ele>
        <time>2017-09-18T10:06:20Z</time>
      </trkpt>
      <trkpt lat="44.44804" lon="2.09571">
        <ele>424</ele>
        <time>2017-09-18T10:06:23Z</time>
      </trkpt>
      <trkpt lat="44.44829" lon="2.09557">
        <ele>423</ele>
        <time>2017-09-18T10:06:51Z</time>
      </trkpt>
      <trkpt lat="44.44833" lon="2.09555">
        <ele>424</ele>
        <time>2017-09-18T10:06:54Z</time>
      </trkpt>
      <trkpt lat="44.4485" lon="2.09544">
        <ele>419</ele>
        <time>2017-09-18T10:07:08Z</time>
      </trkpt>
      <trkpt lat="44.44853" lon="2.09542">
        <ele>419</ele>
        <time>2017-09-18T10:07:10Z</time>
      </trkpt>
      <trkpt lat="44.4486" lon="2.09534">
        <ele>419</ele>
        <time>2017-09-18T10:07:19Z</time>
      </trkpt>
      <trkpt lat="44.44869" lon="2.09531">
        <ele>419</ele>
        <time>2017-09-18T10:07:27Z</time>
      </trkpt>
      <trkpt lat="44.44873" lon="2.09531">
        <ele>419</ele>
        <time>2017-09-18T10:07:31Z</time>
      </trkpt>
      <trkpt lat="44.44885" lon="2.0953">
        <ele>419</ele>
        <time>2017-09-18T10:07:38Z</time>
      </trkpt>
      <trkpt lat="44.44901" lon="2.09532">
        <ele>418</ele>
        <time>2017-09-18T10:07:52Z</time>
      </trkpt>
      <trkpt lat="44.44906" lon="2.09534">
        <ele>418</ele>
        <time>2017-09-18T10:07:57Z</time>
      </trkpt>
      <trkpt lat="44.44928" lon="2.09542">
        <ele>411</ele>
        <time>2017-09-18T10:08:11Z</time>
      </trkpt>
      <trkpt lat="44.44943" lon="2.09542">
        <ele>410</ele>
        <time>2017-09-18T10:08:23Z</time>
      </trkpt>
      <trkpt lat="44.44947" lon="2.09538">
        <ele>410</ele>
        <time>2017-09-18T10:08:27Z</time>
      </trkpt>
      <trkpt lat="44.4495" lon="2.09536">
        <ele>410</ele>
        <time>2017-09-18T10:08:30Z</time>
      </trkpt>
      <trkpt lat="44.44953" lon="2.09534">
        <ele>410</ele>
        <time>2017-09-18T10:08:33Z</time>
      </trkpt>
      <trkpt lat="44.44957" lon="2.09531">
        <ele>410</ele>
        <time>2017-09-18T10:08:36Z</time>
      </trkpt>
      <trkpt lat="44.44961" lon="2.09529">
        <ele>410</ele>
        <time>2017-09-18T10:08:39Z</time>
      </trkpt>
      <trkpt lat="44.44965" lon="2.09527">
        <ele>410</ele>
        <time>2017-09-18T10:08:42Z</time>
      </trkpt>
      <trkpt lat="44.44968" lon="2.09523">
        <ele>410</ele>
        <time>2017-09-18T10:08:46Z</time>
      </trkpt>
      <trkpt lat="44.44975" lon="2.09518">
        <ele>409</ele>
        <time>2017-09-18T10:08:53Z</time>
      </trkpt>
      <trkpt lat="44.44978" lon="2.09513">
        <ele>409</ele>
        <time>2017-09-18T10:08:57Z</time>
      </trkpt>
      <trkpt lat="44.44985" lon="2.09505">
        <ele>409</ele>
        <time>2017-09-18T10:09:03Z</time>
      </trkpt>
      <trkpt lat="44.4499" lon="2.09502">
        <ele>408</ele>
        <time>2017-09-18T10:09:09Z</time>
      </trkpt>
      <trkpt lat="44.44994" lon="2.09503">
        <ele>408</ele>
        <time>2017-09-18T10:09:13Z</time>
      </trkpt>
      <trkpt lat="44.44997" lon="2.09501">
        <ele>407</ele>
        <time>2017-09-18T10:09:20Z</time>
      </trkpt>
      <trkpt lat="44.45002" lon="2.09492">
        <ele>406</ele>
        <time>2017-09-18T10:09:26Z</time>
      </trkpt>
      <trkpt lat="44.45005" lon="2.09484">
        <ele>405</ele>
        <time>2017-09-18T10:09:31Z</time>
      </trkpt>
      <trkpt lat="44.4501" lon="2.09478">
        <ele>404</ele>
        <time>2017-09-18T10:09:35Z</time>
      </trkpt>
      <trkpt lat="44.45017" lon="2.09457">
        <ele>404</ele>
        <time>2017-09-18T10:09:51Z</time>
      </trkpt>
      <trkpt lat="44.45029" lon="2.09434">
        <ele>404</ele>
        <time>2017-09-18T10:10:07Z</time>
      </trkpt>
      <trkpt lat="44.45035" lon="2.09429">
        <ele>403</ele>
        <time>2017-09-18T10:10:12Z</time>
      </trkpt>
      <trkpt lat="44.45037" lon="2.09425">
        <ele>403</ele>
        <time>2017-09-18T10:10:15Z</time>
      </trkpt>
      <trkpt lat="44.45058" lon="2.09402">
        <ele>401</ele>
        <time>2017-09-18T10:10:34Z</time>
      </trkpt>
      <trkpt lat="44.45069" lon="2.09396">
        <ele>401</ele>
        <time>2017-09-18T10:10:42Z</time>
      </trkpt>
      <trkpt lat="44.45081" lon="2.09396">
        <ele>400</ele>
        <time>2017-09-18T10:10:50Z</time>
      </trkpt>
      <trkpt lat="44.45086" lon="2.09393">
        <ele>395</ele>
        <time>2017-09-18T10:10:56Z</time>
      </trkpt>
      <trkpt lat="44.4509" lon="2.09393">
        <ele>395</ele>
        <time>2017-09-18T10:10:59Z</time>
      </trkpt>
      <trkpt lat="44.45093" lon="2.09395">
        <ele>395</ele>
        <time>2017-09-18T10:11:02Z</time>
      </trkpt>
      <trkpt lat="44.45097" lon="2.09394">
        <ele>395</ele>
        <time>2017-09-18T10:11:06Z</time>
      </trkpt>
      <trkpt lat="44.45101" lon="2.09393">
        <ele>395</ele>
        <time>2017-09-18T10:11:09Z</time>
      </trkpt>
      <trkpt lat="44.45106" lon="2.09393">
        <ele>394</ele>
        <time>2017-09-18T10:11:15Z</time>
      </trkpt>
      <trkpt lat="44.45118" lon="2.09396">
        <ele>394</ele>
        <time>2017-09-18T10:11:26Z</time>
      </trkpt>
      <trkpt lat="44.45121" lon="2.09398">
        <ele>393</ele>
        <time>2017-09-18T10:11:31Z</time>
      </trkpt>
      <trkpt lat="44.45125" lon="2.094">
        <ele>393</ele>
        <time>2017-09-18T10:11:35Z</time>
      </trkpt>
      <trkpt lat="44.45128" lon="2.09399">
        <ele>393</ele>
        <time>2017-09-18T10:11:38Z</time>
      </trkpt>
      <trkpt lat="44.45132" lon="2.09402">
        <ele>393</ele>
        <time>2017-09-18T10:11:41Z</time>
      </trkpt>
      <trkpt lat="44.45149" lon="2.09406">
        <ele>391</ele>
        <time>2017-09-18T10:11:55Z</time>
      </trkpt>
      <trkpt lat="44.45152" lon="2.09407">
        <ele>391</ele>
        <time>2017-09-18T10:11:58Z</time>
      </trkpt>
      <trkpt lat="44.45156" lon="2.09407">
        <ele>391</ele>
        <time>2017-09-18T10:12:01Z</time>
      </trkpt>
      <trkpt lat="44.45159" lon="2.09408">
        <ele>390</ele>
        <time>2017-09-18T10:12:04Z</time>
      </trkpt>
      <trkpt lat="44.45177" lon="2.09411">
        <ele>388</ele>
        <time>2017-09-18T10:12:18Z</time>
      </trkpt>
      <trkpt lat="44.4518" lon="2.09412">
        <ele>387</ele>
        <time>2017-09-18T10:12:20Z</time>
      </trkpt>
      <trkpt lat="44.45183" lon="2.09414">
        <ele>387</ele>
        <time>2017-09-18T10:12:24Z</time>
      </trkpt>
      <trkpt lat="44.45225" lon="2.09424">
        <ele>385</ele>
        <time>2017-09-18T10:12:55Z</time>
      </trkpt>
      <trkpt lat="44.45228" lon="2.09426">
        <ele>385</ele>
        <time>2017-09-18T10:12:58Z</time>
      </trkpt>
      <trkpt lat="44.45268" lon="2.09431">
        <ele>383</ele>
        <time>2017-09-18T10:13:27Z</time>
      </trkpt>
      <trkpt lat="44.45271" lon="2.09432">
        <ele>383</ele>
        <time>2017-09-18T10:13:29Z</time>
      </trkpt>
      <trkpt lat="44.45287" lon="2.09436">
        <ele>382</ele>
        <time>2017-09-18T10:13:43Z</time>
      </trkpt>
      <trkpt lat="44.45302" lon="2.0944">
        <ele>382</ele>
        <time>2017-09-18T10:13:56Z</time>
      </trkpt>
      <trkpt lat="44.45305" lon="2.09441">
        <ele>381</ele>
        <time>2017-09-18T10:13:58Z</time>
      </trkpt>
      <trkpt lat="44.45309" lon="2.09443">
        <ele>381</ele>
        <time>2017-09-18T10:14:01Z</time>
      </trkpt>
      <trkpt lat="44.45322" lon="2.09447">
        <ele>381</ele>
        <time>2017-09-18T10:14:11Z</time>
      </trkpt>
      <trkpt lat="44.45326" lon="2.09449">
        <ele>381</ele>
        <time>2017-09-18T10:14:14Z</time>
      </trkpt>
      <trkpt lat="44.45346" lon="2.09453">
        <ele>376</ele>
        <time>2017-09-18T10:14:30Z</time>
      </trkpt>
      <trkpt lat="44.45353" lon="2.09454">
        <ele>376</ele>
        <time>2017-09-18T10:14:36Z</time>
      </trkpt>
      <trkpt lat="44.45356" lon="2.09454">
        <ele>376</ele>
        <time>2017-09-18T10:14:39Z</time>
      </trkpt>
      <trkpt lat="44.4538" lon="2.09452">
        <ele>375</ele>
        <time>2017-09-18T10:14:57Z</time>
      </trkpt>
      <trkpt lat="44.45421" lon="2.09444">
        <ele>370</ele>
        <time>2017-09-18T10:15:27Z</time>
      </trkpt>
      <trkpt lat="44.45464" lon="2.09432">
        <ele>369</ele>
        <time>2017-09-18T10:15:59Z</time>
      </trkpt>
      <trkpt lat="44.45492" lon="2.09422">
        <ele>367</ele>
        <time>2017-09-18T10:16:24Z</time>
      </trkpt>
      <trkpt lat="44.45504" lon="2.09416">
        <ele>366</ele>
        <time>2017-09-18T10:16:34Z</time>
      </trkpt>
      <trkpt lat="44.45527" lon="2.09406">
        <ele>364</ele>
        <time>2017-09-18T10:16:53Z</time>
      </trkpt>
      <trkpt lat="44.45551" lon="2.09393">
        <ele>364</ele>
        <time>2017-09-18T10:17:14Z</time>
      </trkpt>
      <trkpt lat="44.45554" lon="2.0939">
        <ele>364</ele>
        <time>2017-09-18T10:17:18Z</time>
      </trkpt>
      <trkpt lat="44.45575" lon="2.09373">
        <ele>363</ele>
        <time>2017-09-18T10:17:39Z</time>
      </trkpt>
      <trkpt lat="44.45578" lon="2.09372">
        <ele>363</ele>
        <time>2017-09-18T10:17:42Z</time>
      </trkpt>
      <trkpt lat="44.45593" lon="2.09359">
        <ele>362</ele>
        <time>2017-09-18T10:17:58Z</time>
      </trkpt>
      <trkpt lat="44.45599" lon="2.09355">
        <ele>362</ele>
        <time>2017-09-18T10:18:04Z</time>
      </trkpt>
      <trkpt lat="44.45617" lon="2.09342">
        <ele>362</ele>
        <time>2017-09-18T10:18:21Z</time>
      </trkpt>
      <trkpt lat="44.4562" lon="2.0934">
        <ele>362</ele>
        <time>2017-09-18T10:18:23Z</time>
      </trkpt>
      <trkpt lat="44.45646" lon="2.09323">
        <ele>360</ele>
        <time>2017-09-18T10:18:46Z</time>
      </trkpt>
      <trkpt lat="44.45654" lon="2.09317">
        <ele>360</ele>
        <time>2017-09-18T10:18:53Z</time>
      </trkpt>
      <trkpt lat="44.45668" lon="2.09311">
        <ele>362</ele>
        <time>2017-09-18T10:19:03Z</time>
      </trkpt>
      <trkpt lat="44.45673" lon="2.0931">
        <ele>361</ele>
        <time>2017-09-18T10:19:08Z</time>
      </trkpt>
      <trkpt lat="44.45675" lon="2.09309">
        <ele>361</ele>
        <time>2017-09-18T10:19:10Z</time>
      </trkpt>
      <trkpt lat="44.45713" lon="2.09296">
        <ele>360</ele>
        <time>2017-09-18T10:19:40Z</time>
      </trkpt>
      <trkpt lat="44.4575" lon="2.09283">
        <ele>360</ele>
        <time>2017-09-18T10:20:12Z</time>
      </trkpt>
      <trkpt lat="44.45788" lon="2.0927">
        <ele>358</ele>
        <time>2017-09-18T10:20:43Z</time>
      </trkpt>
      <trkpt lat="44.45799" lon="2.09266">
        <ele>358</ele>
        <time>2017-09-18T10:20:52Z</time>
      </trkpt>
      <trkpt lat="44.45802" lon="2.09266">
        <ele>357</ele>
        <time>2017-09-18T10:20:55Z</time>
      </trkpt>
      <trkpt lat="44.45838" lon="2.09258">
        <ele>355</ele>
        <time>2017-09-18T10:21:27Z</time>
      </trkpt>
      <trkpt lat="44.45861" lon="2.09253">
        <ele>353</ele>
        <time>2017-09-18T10:21:46Z</time>
      </trkpt>
      <trkpt lat="44.45864" lon="2.09253">
        <ele>353</ele>
        <time>2017-09-18T10:21:49Z</time>
      </trkpt>
      <trkpt lat="44.45903" lon="2.09237">
        <ele>350</ele>
        <time>2017-09-18T10:22:21Z</time>
      </trkpt>
      <trkpt lat="44.45942" lon="2.0922">
        <ele>347</ele>
        <time>2017-09-18T10:22:53Z</time>
      </trkpt>
      <trkpt lat="44.45952" lon="2.09214">
        <ele>346</ele>
        <time>2017-09-18T10:23:01Z</time>
      </trkpt>
      <trkpt lat="44.45955" lon="2.09212">
        <ele>346</ele>
        <time>2017-09-18T10:23:04Z</time>
      </trkpt>
      <trkpt lat="44.45962" lon="2.09209">
        <ele>346</ele>
        <time>2017-09-18T10:23:10Z</time>
      </trkpt>
      <trkpt lat="44.45986" lon="2.09184">
        <ele>345</ele>
        <time>2017-09-18T10:23:35Z</time>
      </trkpt>
      <trkpt lat="44.46007" lon="2.09168">
        <ele>343</ele>
        <time>2017-09-18T10:23:56Z</time>
      </trkpt>
      <trkpt lat="44.4601" lon="2.09165">
        <ele>342</ele>
        <time>2017-09-18T10:23:59Z</time>
      </trkpt>
      <trkpt lat="44.46015" lon="2.09158">
        <ele>341</ele>
        <time>2017-09-18T10:24:06Z</time>
      </trkpt>
      <trkpt lat="44.46018" lon="2.09156">
        <ele>341</ele>
        <time>2017-09-18T10:24:09Z</time>
      </trkpt>
      <trkpt lat="44.4603" lon="2.09149">
        <ele>340</ele>
        <time>2017-09-18T10:24:21Z</time>
      </trkpt>
      <trkpt lat="44.46052" lon="2.09137">
        <ele>339</ele>
        <time>2017-09-18T10:24:42Z</time>
      </trkpt>
      <trkpt lat="44.46057" lon="2.09135">
        <ele>339</ele>
        <time>2017-09-18T10:24:46Z</time>
      </trkpt>
      <trkpt lat="44.46072" lon="2.09128">
        <ele>338</ele>
        <time>2017-09-18T10:25:04Z</time>
      </trkpt>
      <trkpt lat="44.46096" lon="2.09121">
        <ele>334</ele>
        <time>2017-09-18T10:25:25Z</time>
      </trkpt>
      <trkpt lat="44.46099" lon="2.09119">
        <ele>334</ele>
        <time>2017-09-18T10:25:28Z</time>
      </trkpt>
      <trkpt lat="44.46111" lon="2.09117">
        <ele>333</ele>
        <time>2017-09-18T10:25:38Z</time>
      </trkpt>
      <trkpt lat="44.46114" lon="2.09115">
        <ele>333</ele>
        <time>2017-09-18T10:25:42Z</time>
      </trkpt>
      <trkpt lat="44.46117" lon="2.09113">
        <ele>333</ele>
        <time>2017-09-18T10:25:45Z</time>
      </trkpt>
      <trkpt lat="44.4612" lon="2.09112">
        <ele>333</ele>
        <time>2017-09-18T10:25:49Z</time>
      </trkpt>
      <trkpt lat="44.46124" lon="2.0911">
        <ele>332</ele>
        <time>2017-09-18T10:25:54Z</time>
      </trkpt>
      <trkpt lat="44.46139" lon="2.09107">
        <ele>332</ele>
        <time>2017-09-18T10:26:07Z</time>
      </trkpt>
      <trkpt lat="44.46146" lon="2.09108">
        <ele>331</ele>
        <time>2017-09-18T10:26:11Z</time>
      </trkpt>
      <trkpt lat="44.4615" lon="2.09108">
        <ele>331</ele>
        <time>2017-09-18T10:26:14Z</time>
      </trkpt>
      <trkpt lat="44.46168" lon="2.09116">
        <ele>326</ele>
        <time>2017-09-18T10:26:27Z</time>
      </trkpt>
      <trkpt lat="44.4617" lon="2.09121">
        <ele>326</ele>
        <time>2017-09-18T10:26:31Z</time>
      </trkpt>
      <trkpt lat="44.46173" lon="2.09124">
        <ele>326</ele>
        <time>2017-09-18T10:26:34Z</time>
      </trkpt>
      <trkpt lat="44.46176" lon="2.09128">
        <ele>326</ele>
        <time>2017-09-18T10:26:37Z</time>
      </trkpt>
      <trkpt lat="44.46179" lon="2.09133">
        <ele>327</ele>
        <time>2017-09-18T10:26:41Z</time>
      </trkpt>
      <trkpt lat="44.46182" lon="2.09138">
        <ele>327</ele>
        <time>2017-09-18T10:26:45Z</time>
      </trkpt>
      <trkpt lat="44.46186" lon="2.09141">
        <ele>327</ele>
        <time>2017-09-18T10:26:49Z</time>
      </trkpt>
      <trkpt lat="44.46203" lon="2.09152">
        <ele>326</ele>
        <time>2017-09-18T10:27:02Z</time>
      </trkpt>
      <trkpt lat="44.46206" lon="2.09156">
        <ele>326</ele>
        <time>2017-09-18T10:27:07Z</time>
      </trkpt>
      <trkpt lat="44.46225" lon="2.09163">
        <ele>325</ele>
        <time>2017-09-18T10:27:24Z</time>
      </trkpt>
      <trkpt lat="44.46234" lon="2.09165">
        <ele>325</ele>
        <time>2017-09-18T10:27:31Z</time>
      </trkpt>
      <trkpt lat="44.4627" lon="2.09167">
        <ele>323</ele>
        <time>2017-09-18T10:28:02Z</time>
      </trkpt>
      <trkpt lat="44.4631" lon="2.09159">
        <ele>321</ele>
        <time>2017-09-18T10:28:33Z</time>
      </trkpt>
      <trkpt lat="44.46323" lon="2.09158">
        <ele>321</ele>
        <time>2017-09-18T10:28:44Z</time>
      </trkpt>
      <trkpt lat="44.46327" lon="2.09158">
        <ele>321</ele>
        <time>2017-09-18T10:28:47Z</time>
      </trkpt>
      <trkpt lat="44.46331" lon="2.09159">
        <ele>321</ele>
        <time>2017-09-18T10:28:50Z</time>
      </trkpt>
      <trkpt lat="44.46335" lon="2.09159">
        <ele>320</ele>
        <time>2017-09-18T10:28:53Z</time>
      </trkpt>
      <trkpt lat="44.46366" lon="2.09163">
        <ele>318</ele>
        <time>2017-09-18T10:29:19Z</time>
      </trkpt>
      <trkpt lat="44.46378" lon="2.09161">
        <ele>318</ele>
        <time>2017-09-18T10:29:31Z</time>
      </trkpt>
      <trkpt lat="44.46399" lon="2.0916">
        <ele>318</ele>
        <time>2017-09-18T10:29:47Z</time>
      </trkpt>
      <trkpt lat="44.46417" lon="2.0916">
        <ele>317</ele>
        <time>2017-09-18T10:30:01Z</time>
      </trkpt>
      <trkpt lat="44.46434" lon="2.09162">
        <ele>316</ele>
        <time>2017-09-18T10:30:15Z</time>
      </trkpt>
      <trkpt lat="44.46439" lon="2.09162">
        <ele>316</ele>
        <time>2017-09-18T10:30:19Z</time>
      </trkpt>
      <trkpt lat="44.46449" lon="2.09164">
        <ele>315</ele>
        <time>2017-09-18T10:30:30Z</time>
      </trkpt>
      <trkpt lat="44.4647" lon="2.09161">
        <ele>315</ele>
        <time>2017-09-18T10:30:44Z</time>
      </trkpt>
      <trkpt lat="44.4648" lon="2.09164">
        <ele>315</ele>
        <time>2017-09-18T10:30:51Z</time>
      </trkpt>
      <trkpt lat="44.46488" lon="2.09163">
        <ele>315</ele>
        <time>2017-09-18T10:30:58Z</time>
      </trkpt>
      <trkpt lat="44.46491" lon="2.09161">
        <ele>315</ele>
        <time>2017-09-18T10:31:01Z</time>
      </trkpt>
      <trkpt lat="44.46494" lon="2.09159">
        <ele>315</ele>
        <time>2017-09-18T10:31:14Z</time>
      </trkpt>
      <trkpt lat="44.46503" lon="2.09154">
        <ele>315</ele>
        <time>2017-09-18T10:31:23Z</time>
      </trkpt>
      <trkpt lat="44.46509" lon="2.09148">
        <ele>314</ele>
        <time>2017-09-18T10:31:30Z</time>
      </trkpt>
      <trkpt lat="44.46523" lon="2.09144">
        <ele>313</ele>
        <time>2017-09-18T10:32:39Z</time>
      </trkpt>
      <trkpt lat="44.46527" lon="2.09139">
        <ele>313</ele>
        <time>2017-09-18T10:32:44Z</time>
      </trkpt>
      <trkpt lat="44.46535" lon="2.09132">
        <ele>313</ele>
        <time>2017-09-18T10:32:51Z</time>
      </trkpt>
      <trkpt lat="44.46539" lon="2.09129">
        <ele>313</ele>
        <time>2017-09-18T10:32:54Z</time>
      </trkpt>
      <trkpt lat="44.46549" lon="2.0912">
        <ele>313</ele>
        <time>2017-09-18T10:33:04Z</time>
      </trkpt>
      <trkpt lat="44.4656" lon="2.0911">
        <ele>312</ele>
        <time>2017-09-18T10:33:15Z</time>
      </trkpt>
      <trkpt lat="44.46568" lon="2.09104">
        <ele>312</ele>
        <time>2017-09-18T10:33:23Z</time>
      </trkpt>
      <trkpt lat="44.46571" lon="2.09102">
        <ele>312</ele>
        <time>2017-09-18T10:33:27Z</time>
      </trkpt>
      <trkpt lat="44.46574" lon="2.091">
        <ele>312</ele>
        <time>2017-09-18T10:33:32Z</time>
      </trkpt>
      <trkpt lat="44.46577" lon="2.09096">
        <ele>312</ele>
        <time>2017-09-18T10:33:36Z</time>
      </trkpt>
      <trkpt lat="44.4661" lon="2.09072">
        <ele>311</ele>
        <time>2017-09-18T10:34:06Z</time>
      </trkpt>
      <trkpt lat="44.46626" lon="2.09061">
        <ele>311</ele>
        <time>2017-09-18T10:34:19Z</time>
      </trkpt>
      <trkpt lat="44.46658" lon="2.09046">
        <ele>311</ele>
        <time>2017-09-18T10:34:50Z</time>
      </trkpt>
      <trkpt lat="44.46673" lon="2.0904">
        <ele>310</ele>
        <time>2017-09-18T10:35:03Z</time>
      </trkpt>
      <trkpt lat="44.46675" lon="2.09039">
        <ele>310</ele>
        <time>2017-09-18T10:35:06Z</time>
      </trkpt>
      <trkpt lat="44.4668" lon="2.09038">
        <ele>310</ele>
        <time>2017-09-18T10:35:11Z</time>
      </trkpt>
      <trkpt lat="44.46684" lon="2.09033">
        <ele>310</ele>
        <time>2017-09-18T10:35:15Z</time>
      </trkpt>
      <trkpt lat="44.46691" lon="2.09029">
        <ele>310</ele>
        <time>2017-09-18T10:35:23Z</time>
      </trkpt>
      <trkpt lat="44.46693" lon="2.09027">
        <ele>310</ele>
        <time>2017-09-18T10:35:25Z</time>
      </trkpt>
      <trkpt lat="44.46712" lon="2.09008">
        <ele>310</ele>
        <time>2017-09-18T10:35:44Z</time>
      </trkpt>
      <trkpt lat="44.46725" lon="2.08987">
        <ele>309</ele>
        <time>2017-09-18T10:36:01Z</time>
      </trkpt>
      <trkpt lat="44.46733" lon="2.08964">
        <ele>309</ele>
        <time>2017-09-18T10:36:16Z</time>
      </trkpt>
      <trkpt lat="44.46734" lon="2.08961">
        <ele>309</ele>
        <time>2017-09-18T10:36:18Z</time>
      </trkpt>
      <trkpt lat="44.46736" lon="2.08952">
        <ele>309</ele>
        <time>2017-09-18T10:36:24Z</time>
      </trkpt>
      <trkpt lat="44.46743" lon="2.08937">
        <ele>309</ele>
        <time>2017-09-18T10:36:35Z</time>
      </trkpt>
      <trkpt lat="44.46745" lon="2.08935">
        <ele>309</ele>
        <time>2017-09-18T10:36:37Z</time>
      </trkpt>
      <trkpt lat="44.46747" lon="2.08929">
        <ele>308</ele>
        <time>2017-09-18T10:36:41Z</time>
      </trkpt>
      <trkpt lat="44.46758" lon="2.08914">
        <ele>307</ele>
        <time>2017-09-18T10:36:55Z</time>
      </trkpt>
      <trkpt lat="44.46787" lon="2.08886">
        <ele>305</ele>
        <time>2017-09-18T10:37:26Z</time>
      </trkpt>
      <trkpt lat="44.46801" lon="2.08868">
        <ele>305</ele>
        <time>2017-09-18T10:37:41Z</time>
      </trkpt>
      <trkpt lat="44.46802" lon="2.08865">
        <ele>305</ele>
        <time>2017-09-18T10:37:43Z</time>
      </trkpt>
      <trkpt lat="44.46805" lon="2.0886">
        <ele>305</ele>
        <time>2017-09-18T10:37:47Z</time>
      </trkpt>
      <trkpt lat="44.46815" lon="2.0884">
        <ele>305</ele>
        <time>2017-09-18T10:38:02Z</time>
      </trkpt>
      <trkpt lat="44.46818" lon="2.08835">
        <ele>305</ele>
        <time>2017-09-18T10:38:05Z</time>
      </trkpt>
      <trkpt lat="44.46821" lon="2.08828">
        <ele>303</ele>
        <time>2017-09-18T10:38:10Z</time>
      </trkpt>
      <trkpt lat="44.46832" lon="2.08801">
        <ele>301</ele>
        <time>2017-09-18T10:38:27Z</time>
      </trkpt>
      <trkpt lat="44.46836" lon="2.08789">
        <ele>304</ele>
        <time>2017-09-18T10:38:35Z</time>
      </trkpt>
      <trkpt lat="44.46837" lon="2.08784">
        <ele>304</ele>
        <time>2017-09-18T10:38:38Z</time>
      </trkpt>
      <trkpt lat="44.46838" lon="2.08779">
        <ele>304</ele>
        <time>2017-09-18T10:38:41Z</time>
      </trkpt>
      <trkpt lat="44.4684" lon="2.08775">
        <ele>304</ele>
        <time>2017-09-18T10:38:44Z</time>
      </trkpt>
      <trkpt lat="44.46842" lon="2.08766">
        <ele>303</ele>
        <time>2017-09-18T10:38:50Z</time>
      </trkpt>
      <trkpt lat="44.46847" lon="2.08714">
        <ele>300</ele>
        <time>2017-09-18T10:39:20Z</time>
      </trkpt>
      <trkpt lat="44.46847" lon="2.0871">
        <ele>300</ele>
        <time>2017-09-18T10:39:22Z</time>
      </trkpt>
      <trkpt lat="44.4685" lon="2.08702">
        <ele>300</ele>
        <time>2017-09-18T10:39:28Z</time>
      </trkpt>
      <trkpt lat="44.46851" lon="2.08689">
        <ele>298</ele>
        <time>2017-09-18T10:39:35Z</time>
      </trkpt>
      <trkpt lat="44.46851" lon="2.0868">
        <ele>298</ele>
        <time>2017-09-18T10:39:40Z</time>
      </trkpt>
      <trkpt lat="44.46854" lon="2.08642">
        <ele>293</ele>
        <time>2017-09-18T10:40:02Z</time>
      </trkpt>
      <trkpt lat="44.46854" lon="2.08639">
        <ele>293</ele>
        <time>2017-09-18T10:40:04Z</time>
      </trkpt>
      <trkpt lat="44.46855" lon="2.08632">
        <ele>293</ele>
        <time>2017-09-18T10:40:08Z</time>
      </trkpt>
      <trkpt lat="44.46856" lon="2.08627">
        <ele>293</ele>
        <time>2017-09-18T10:40:11Z</time>
      </trkpt>
      <trkpt lat="44.46859" lon="2.08609">
        <ele>292</ele>
        <time>2017-09-18T10:40:22Z</time>
      </trkpt>
      <trkpt lat="44.46861" lon="2.0859">
        <ele>291</ele>
        <time>2017-09-18T10:40:34Z</time>
      </trkpt>
      <trkpt lat="44.46863" lon="2.08588">
        <ele>291</ele>
        <time>2017-09-18T10:40:37Z</time>
      </trkpt>
      <trkpt lat="44.46863" lon="2.08584">
        <ele>291</ele>
        <time>2017-09-18T10:40:39Z</time>
      </trkpt>
      <trkpt lat="44.46864" lon="2.08581">
        <ele>287</ele>
        <time>2017-09-18T10:40:42Z</time>
      </trkpt>
      <trkpt lat="44.46872" lon="2.08527">
        <ele>286</ele>
        <time>2017-09-18T10:41:13Z</time>
      </trkpt>
      <trkpt lat="44.46875" lon="2.08501">
        <ele>286</ele>
        <time>2017-09-18T10:41:28Z</time>
      </trkpt>
      <trkpt lat="44.46875" lon="2.08466">
        <ele>282</ele>
        <time>2017-09-18T10:41:49Z</time>
      </trkpt>
      <trkpt lat="44.4687" lon="2.08434">
        <ele>282</ele>
        <time>2017-09-18T10:42:05Z</time>
      </trkpt>
      <trkpt lat="44.46873" lon="2.08417">
        <ele>281</ele>
        <time>2017-09-18T10:42:15Z</time>
      </trkpt>
      <trkpt lat="44.46874" lon="2.08412">
        <ele>278</ele>
        <time>2017-09-18T10:42:18Z</time>
      </trkpt>
      <trkpt lat="44.46876" lon="2.08409">
        <ele>278</ele>
        <time>2017-09-18T10:42:21Z</time>
      </trkpt>
      <trkpt lat="44.46879" lon="2.08401">
        <ele>278</ele>
        <time>2017-09-18T10:42:27Z</time>
      </trkpt>
      <trkpt lat="44.46881" lon="2.08393">
        <ele>278</ele>
        <time>2017-09-18T10:42:32Z</time>
      </trkpt>
      <trkpt lat="44.46883" lon="2.08384">
        <ele>278</ele>
        <time>2017-09-18T10:42:39Z</time>
      </trkpt>
      <trkpt lat="44.46885" lon="2.08379">
        <ele>278</ele>
        <time>2017-09-18T10:42:42Z</time>
      </trkpt>
      <trkpt lat="44.46893" lon="2.08351">
        <ele>276</ele>
        <time>2017-09-18T10:43:01Z</time>
      </trkpt>
      <trkpt lat="44.46894" lon="2.08344">
        <ele>276</ele>
        <time>2017-09-18T10:43:04Z</time>
      </trkpt>
      <trkpt lat="44.46896" lon="2.0834">
        <ele>276</ele>
        <time>2017-09-18T10:43:07Z</time>
      </trkpt>
      <trkpt lat="44.46898" lon="2.08336">
        <ele>276</ele>
        <time>2017-09-18T10:43:10Z</time>
      </trkpt>
      <trkpt lat="44.46899" lon="2.08331">
        <ele>273</ele>
        <time>2017-09-18T10:43:14Z</time>
      </trkpt>
      <trkpt lat="44.46901" lon="2.08326">
        <ele>273</ele>
        <time>2017-09-18T10:43:18Z</time>
      </trkpt>
      <trkpt lat="44.46901" lon="2.08321">
        <ele>273</ele>
        <time>2017-09-18T10:43:21Z</time>
      </trkpt>
      <trkpt lat="44.46905" lon="2.08313">
        <ele>273</ele>
        <time>2017-09-18T10:43:26Z</time>
      </trkpt>
      <trkpt lat="44.46907" lon="2.08308">
        <ele>273</ele>
        <time>2017-09-18T10:43:34Z</time>
      </trkpt>
      <trkpt lat="44.46911" lon="2.08301">
        <ele>272</ele>
        <time>2017-09-18T10:43:41Z</time>
      </trkpt>
      <trkpt lat="44.46908" lon="2.08303">
        <ele>272</ele>
        <time>2017-09-18T10:43:45Z</time>
      </trkpt>
      <trkpt lat="44.46904" lon="2.08303">
        <ele>272</ele>
        <time>2017-09-18T10:46:54Z</time>
      </trkpt>
      <trkpt lat="44.46902" lon="2.08305">
        <ele>272</ele>
        <time>2017-09-18T10:45:44Z</time>
      </trkpt>
      <trkpt lat="44.46901" lon="2.08307">
        <ele>272</ele>
        <time>2017-09-18T10:45:47Z</time>
      </trkpt>
      <trkpt lat="44.469" lon="2.08305">
        <ele>272</ele>
        <time>2017-09-18T10:46:21Z</time>
      </trkpt>
      <trkpt lat="44.46902" lon="2.08302">
        <ele>272</ele>
        <time>2017-09-18T10:46:28Z</time>
      </trkpt>
      <trkpt lat="44.46904" lon="2.08303">
        <ele>272</ele>
        <time>2017-09-18T10:46:54Z</time>
      </trkpt>
      <trkpt lat="44.46907" lon="2.083">
        <ele>272</ele>
        <time>2017-09-18T10:47:15Z</time>
      </trkpt>
      <trkpt lat="44.46908" lon="2.08298">
        <ele>272</ele>
        <time>2017-09-18T10:47:19Z</time>
      </trkpt>
      <trkpt lat="44.46913" lon="2.08294">
        <ele>272</ele>
        <time>2017-09-18T10:47:30Z</time>
      </trkpt>
      <trkpt lat="44.46917" lon="2.08288">
        <ele>272</ele>
        <time>2017-09-18T10:47:37Z</time>
      </trkpt>
      <trkpt lat="44.4692" lon="2.08281">
        <ele>272</ele>
        <time>2017-09-18T10:47:42Z</time>
      </trkpt>
      <trkpt lat="44.46922" lon="2.08274">
        <ele>271</ele>
        <time>2017-09-18T10:47:46Z</time>
      </trkpt>
      <trkpt lat="44.46924" lon="2.0827">
        <ele>271</ele>
        <time>2017-09-18T10:47:49Z</time>
      </trkpt>
      <trkpt lat="44.46931" lon="2.08264">
        <ele>271</ele>
        <time>2017-09-18T10:47:55Z</time>
      </trkpt>
      <trkpt lat="44.46935" lon="2.08253">
        <ele>271</ele>
        <time>2017-09-18T10:48:01Z</time>
      </trkpt>
      <trkpt lat="44.46946" lon="2.08235">
        <ele>269</ele>
        <time>2017-09-18T10:48:14Z</time>
      </trkpt>
      <trkpt lat="44.46949" lon="2.08226">
        <ele>269</ele>
        <time>2017-09-18T10:48:20Z</time>
      </trkpt>
      <trkpt lat="44.46951" lon="2.08221">
        <ele>269</ele>
        <time>2017-09-18T10:48:23Z</time>
      </trkpt>
      <trkpt lat="44.46954" lon="2.08218">
        <ele>269</ele>
        <time>2017-09-18T10:48:39Z</time>
      </trkpt>
      <trkpt lat="44.46958" lon="2.0821">
        <ele>269</ele>
        <time>2017-09-18T10:48:45Z</time>
      </trkpt>
      <trkpt lat="44.46961" lon="2.0821">
        <ele>269</ele>
        <time>2017-09-18T10:48:52Z</time>
      </trkpt>
      <trkpt lat="44.46967" lon="2.08192">
        <ele>269</ele>
        <time>2017-09-18T10:49:02Z</time>
      </trkpt>
      <trkpt lat="44.46973" lon="2.08174">
        <ele>269</ele>
        <time>2017-09-18T10:49:13Z</time>
      </trkpt>
      <trkpt lat="44.46978" lon="2.08152">
        <ele>268</ele>
        <time>2017-09-18T10:49:43Z</time>
      </trkpt>
      <trkpt lat="44.46979" lon="2.08146">
        <ele>269</ele>
        <time>2017-09-18T10:49:46Z</time>
      </trkpt>
      <trkpt lat="44.46981" lon="2.08141">
        <ele>269</ele>
        <time>2017-09-18T10:49:50Z</time>
      </trkpt>
      <trkpt lat="44.46983" lon="2.08131">
        <ele>269</ele>
        <time>2017-09-18T10:49:57Z</time>
      </trkpt>
      <trkpt lat="44.46986" lon="2.08115">
        <ele>269</ele>
        <time>2017-09-18T10:50:07Z</time>
      </trkpt>
      <trkpt lat="44.46986" lon="2.08111">
        <ele>269</ele>
        <time>2017-09-18T10:50:11Z</time>
      </trkpt>
      <trkpt lat="44.46987" lon="2.08106">
        <ele>269</ele>
        <time>2017-09-18T10:50:14Z</time>
      </trkpt>
      <trkpt lat="44.46988" lon="2.08101">
        <ele>269</ele>
        <time>2017-09-18T10:50:17Z</time>
      </trkpt>
      <trkpt lat="44.4699" lon="2.08098">
        <ele>269</ele>
        <time>2017-09-18T10:50:20Z</time>
      </trkpt>
      <trkpt lat="44.46992" lon="2.08094">
        <ele>269</ele>
        <time>2017-09-18T10:50:25Z</time>
      </trkpt>
      <trkpt lat="44.47001" lon="2.08092">
        <ele>270</ele>
        <time>2017-09-18T10:50:33Z</time>
      </trkpt>
      <trkpt lat="44.47017" lon="2.08091">
        <ele>269</ele>
        <time>2017-09-18T10:50:48Z</time>
      </trkpt>
      <trkpt lat="44.4702" lon="2.08092">
        <ele>269</ele>
        <time>2017-09-18T10:50:51Z</time>
      </trkpt>
      <trkpt lat="44.47021" lon="2.08094">
        <ele>269</ele>
        <time>2017-09-18T10:50:54Z</time>
      </trkpt>
      <trkpt lat="44.47044" lon="2.08089">
        <ele>269</ele>
        <time>2017-09-18T10:51:25Z</time>
      </trkpt>
      <trkpt lat="44.4705" lon="2.08087">
        <ele>269</ele>
        <time>2017-09-18T10:51:30Z</time>
      </trkpt>
      <trkpt lat="44.47055" lon="2.08084">
        <ele>269</ele>
        <time>2017-09-18T10:51:35Z</time>
      </trkpt>
      <trkpt lat="44.47058" lon="2.08084">
        <ele>269</ele>
        <time>2017-09-18T10:51:38Z</time>
      </trkpt>
      <trkpt lat="44.47061" lon="2.08083">
        <ele>270</ele>
        <time>2017-09-18T10:51:41Z</time>
      </trkpt>
      <trkpt lat="44.47065" lon="2.08081">
        <ele>270</ele>
        <time>2017-09-18T10:51:44Z</time>
      </trkpt>
      <trkpt lat="44.47067" lon="2.08079">
        <ele>270</ele>
        <time>2017-09-18T10:51:49Z</time>
      </trkpt>
      <trkpt lat="44.47068" lon="2.08076">
        <ele>270</ele>
        <time>2017-09-18T10:51:56Z</time>
      </trkpt>
      <trkpt lat="44.47081" lon="2.08064">
        <ele>270</ele>
        <time>2017-09-18T10:52:23Z</time>
      </trkpt>
      <trkpt lat="44.47085" lon="2.08058">
        <ele>271</ele>
        <time>2017-09-18T10:52:29Z</time>
      </trkpt>
      <trkpt lat="44.47105" lon="2.08037">
        <ele>272</ele>
        <time>2017-09-18T10:52:49Z</time>
      </trkpt>
      <trkpt lat="44.4711" lon="2.08033">
        <ele>273</ele>
        <time>2017-09-18T10:52:56Z</time>
      </trkpt>
      <trkpt lat="44.47121" lon="2.08017">
        <ele>273</ele>
        <time>2017-09-18T10:53:10Z</time>
      </trkpt>
      <trkpt lat="44.47129" lon="2.08006">
        <ele>273</ele>
        <time>2017-09-18T10:53:20Z</time>
      </trkpt>
      <trkpt lat="44.47135" lon="2.07999">
        <ele>277</ele>
        <time>2017-09-18T10:53:26Z</time>
      </trkpt>
      <trkpt lat="44.47137" lon="2.07992">
        <ele>277</ele>
        <time>2017-09-18T10:53:31Z</time>
      </trkpt>
      <trkpt lat="44.47138" lon="2.07984">
        <ele>278</ele>
        <time>2017-09-18T10:53:36Z</time>
      </trkpt>
      <trkpt lat="44.4714" lon="2.07977">
        <ele>278</ele>
        <time>2017-09-18T10:53:41Z</time>
      </trkpt>
      <trkpt lat="44.47143" lon="2.07971">
        <ele>278</ele>
        <time>2017-09-18T10:53:46Z</time>
      </trkpt>
      <trkpt lat="44.47146" lon="2.07962">
        <ele>279</ele>
        <time>2017-09-18T10:53:53Z</time>
      </trkpt>
      <trkpt lat="44.47153" lon="2.07957">
        <ele>279</ele>
        <time>2017-09-18T10:53:59Z</time>
      </trkpt>
      <trkpt lat="44.47156" lon="2.07955">
        <ele>279</ele>
        <time>2017-09-18T10:54:02Z</time>
      </trkpt>
      <trkpt lat="44.47155" lon="2.07949">
        <ele>279</ele>
        <time>2017-09-18T10:54:09Z</time>
      </trkpt>
      <trkpt lat="44.47153" lon="2.07943">
        <ele>280</ele>
        <time>2017-09-18T10:54:15Z</time>
      </trkpt>
      <trkpt lat="44.47154" lon="2.07938">
        <ele>280</ele>
        <time>2017-09-18T10:54:21Z</time>
      </trkpt>
      <trkpt lat="44.47146" lon="2.07917">
        <ele>284</ele>
        <time>2017-09-18T10:54:35Z</time>
      </trkpt>
      <trkpt lat="44.47144" lon="2.07911">
        <ele>284</ele>
        <time>2017-09-18T10:54:38Z</time>
      </trkpt>
      <trkpt lat="44.47141" lon="2.07907">
        <ele>284</ele>
        <time>2017-09-18T10:54:42Z</time>
      </trkpt>
      <trkpt lat="44.47139" lon="2.079">
        <ele>284</ele>
        <time>2017-09-18T10:54:47Z</time>
      </trkpt>
      <trkpt lat="44.47138" lon="2.07895">
        <ele>284</ele>
        <time>2017-09-18T10:54:50Z</time>
      </trkpt>
      <trkpt lat="44.47134" lon="2.0789">
        <ele>285</ele>
        <time>2017-09-18T10:54:54Z</time>
      </trkpt>
      <trkpt lat="44.47131" lon="2.07883">
        <ele>285</ele>
        <time>2017-09-18T10:55:00Z</time>
      </trkpt>
      <trkpt lat="44.47128" lon="2.07877">
        <ele>285</ele>
        <time>2017-09-18T10:55:04Z</time>
      </trkpt>
      <trkpt lat="44.47124" lon="2.07871">
        <ele>285</ele>
        <time>2017-09-18T10:55:08Z</time>
      </trkpt>
      <trkpt lat="44.47123" lon="2.07864">
        <ele>285</ele>
        <time>2017-09-18T10:55:13Z</time>
      </trkpt>
      <trkpt lat="44.47123" lon="2.07859">
        <ele>286</ele>
        <time>2017-09-18T10:55:21Z</time>
      </trkpt>
      <trkpt lat="44.47121" lon="2.0785">
        <ele>286</ele>
        <time>2017-09-18T10:55:36Z</time>
      </trkpt>
      <trkpt lat="44.47121" lon="2.07843">
        <ele>286</ele>
        <time>2017-09-18T10:55:46Z</time>
      </trkpt>
      <trkpt lat="44.47119" lon="2.07836">
        <ele>286</ele>
        <time>2017-09-18T10:55:50Z</time>
      </trkpt>
      <trkpt lat="44.47118" lon="2.0783">
        <ele>289</ele>
        <time>2017-09-18T10:55:54Z</time>
      </trkpt>
      <trkpt lat="44.47121" lon="2.07825">
        <ele>289</ele>
        <time>2017-09-18T10:55:58Z</time>
      </trkpt>
      <trkpt lat="44.47123" lon="2.07818">
        <ele>290</ele>
        <time>2017-09-18T10:56:03Z</time>
      </trkpt>
      <trkpt lat="44.47123" lon="2.07809">
        <ele>290</ele>
        <time>2017-09-18T10:56:08Z</time>
      </trkpt>
      <trkpt lat="44.47125" lon="2.078">
        <ele>290</ele>
        <time>2017-09-18T10:56:15Z</time>
      </trkpt>
      <trkpt lat="44.47128" lon="2.07793">
        <ele>290</ele>
        <time>2017-09-18T10:56:21Z</time>
      </trkpt>
      <trkpt lat="44.47132" lon="2.0779">
        <ele>290</ele>
        <time>2017-09-18T10:56:25Z</time>
      </trkpt>
      <trkpt lat="44.47128" lon="2.07787">
        <ele>290</ele>
        <time>2017-09-18T10:56:33Z</time>
      </trkpt>
      <trkpt lat="44.47125" lon="2.07784">
        <ele>290</ele>
        <time>2017-09-18T10:56:36Z</time>
      </trkpt>
      <trkpt lat="44.47122" lon="2.07782">
        <ele>291</ele>
        <time>2017-09-18T10:56:39Z</time>
      </trkpt>
      <trkpt lat="44.47109" lon="2.0777">
        <ele>291</ele>
        <time>2017-09-18T10:56:52Z</time>
      </trkpt>
      <trkpt lat="44.47103" lon="2.0777">
        <ele>291</ele>
        <time>2017-09-18T10:57:00Z</time>
      </trkpt>
      <trkpt lat="44.47096" lon="2.07769">
        <ele>291</ele>
        <time>2017-09-18T10:57:06Z</time>
      </trkpt>
      <trkpt lat="44.4709" lon="2.07769">
        <ele>291</ele>
        <time>2017-09-18T10:57:10Z</time>
      </trkpt>
      <trkpt lat="44.47084" lon="2.07773">
        <ele>291</ele>
        <time>2017-09-18T10:57:14Z</time>
      </trkpt>
      <trkpt lat="44.47078" lon="2.07772">
        <ele>291</ele>
        <time>2017-09-18T10:57:19Z</time>
      </trkpt>
      <trkpt lat="44.47074" lon="2.07773">
        <ele>291</ele>
        <time>2017-09-18T10:57:22Z</time>
      </trkpt>
      <trkpt lat="44.47067" lon="2.07775">
        <ele>290</ele>
        <time>2017-09-18T10:57:27Z</time>
      </trkpt>
      <trkpt lat="44.47064" lon="2.07778">
        <ele>290</ele>
        <time>2017-09-18T10:57:30Z</time>
      </trkpt>
      <trkpt lat="44.47067" lon="2.07781">
        <ele>290</ele>
        <time>2017-09-18T10:58:21Z</time>
      </trkpt>
      <trkpt lat="44.47069" lon="2.07779">
        <ele>290</ele>
        <time>2017-09-18T10:58:47Z</time>
      </trkpt>
      <trkpt lat="44.47069" lon="2.07776">
        <ele>290</ele>
        <time>2017-09-18T11:00:33Z</time>
      </trkpt>
      <trkpt lat="44.47073" lon="2.07777">
        <ele>290</ele>
        <time>2017-09-18T11:00:55Z</time>
      </trkpt>
      <trkpt lat="44.47075" lon="2.07777">
        <ele>290</ele>
        <time>2017-09-18T11:01:25Z</time>
      </trkpt>
      <trkpt lat="44.47078" lon="2.07781">
        <ele>290</ele>
        <time>2017-09-18T11:01:46Z</time>
      </trkpt>
      <trkpt lat="44.47088" lon="2.07779">
        <ele>291</ele>
        <time>2017-09-18T11:01:56Z</time>
      </trkpt>
      <trkpt lat="44.47097" lon="2.07778">
        <ele>291</ele>
        <time>2017-09-18T11:02:03Z</time>
      </trkpt>
      <trkpt lat="44.47109" lon="2.07775">
        <ele>291</ele>
        <time>2017-09-18T11:02:14Z</time>
      </trkpt>
      <trkpt lat="44.47114" lon="2.07775">
        <ele>291</ele>
        <time>2017-09-18T11:02:22Z</time>
      </trkpt>
      <trkpt lat="44.47128" lon="2.07784">
        <ele>290</ele>
        <time>2017-09-18T11:02:37Z</time>
      </trkpt>
      <trkpt lat="44.47131" lon="2.07786">
        <ele>290</ele>
        <time>2017-09-18T11:02:42Z</time>
      </trkpt>
      <trkpt lat="44.47135" lon="2.07788">
        <ele>290</ele>
        <time>2017-09-18T11:02:44Z</time>
      </trkpt>
      <trkpt lat="44.47139" lon="2.07788">
        <ele>290</ele>
        <time>2017-09-18T11:02:53Z</time>
      </trkpt>
      <trkpt lat="44.47145" lon="2.0779">
        <ele>290</ele>
        <time>2017-09-18T11:02:58Z</time>
      </trkpt>
      <trkpt lat="44.47156" lon="2.07789">
        <ele>290</ele>
        <time>2017-09-18T11:03:05Z</time>
      </trkpt>
      <trkpt lat="44.47166" lon="2.07778">
        <ele>291</ele>
        <time>2017-09-18T11:03:19Z</time>
      </trkpt>
      <trkpt lat="44.47167" lon="2.0777">
        <ele>292</ele>
        <time>2017-09-18T11:03:28Z</time>
      </trkpt>
      <trkpt lat="44.4717" lon="2.07764">
        <ele>292</ele>
        <time>2017-09-18T11:03:35Z</time>
      </trkpt>
      <trkpt lat="44.47173" lon="2.07763">
        <ele>292</ele>
        <time>2017-09-18T11:03:41Z</time>
      </trkpt>
      <trkpt lat="44.47173" lon="2.07754">
        <ele>292</ele>
        <time>2017-09-18T11:03:47Z</time>
      </trkpt>
      <trkpt lat="44.47173" lon="2.07751">
        <ele>292</ele>
        <time>2017-09-18T12:22:45Z</time>
      </trkpt>
      <trkpt lat="44.47174" lon="2.07748">
        <ele>293</ele>
        <time>2017-09-18T11:03:51Z</time>
      </trkpt>
      <trkpt lat="44.47174" lon="2.07742">
        <ele>293</ele>
        <time>2017-09-18T11:03:54Z</time>
      </trkpt>
      <trkpt lat="44.47169" lon="2.07723">
        <ele>294</ele>
        <time>2017-09-18T11:04:06Z</time>
      </trkpt>
      <trkpt lat="44.47169" lon="2.07707">
        <ele>294</ele>
        <time>2017-09-18T11:04:15Z</time>
      </trkpt>
      <trkpt lat="44.47169" lon="2.07699">
        <ele>294</ele>
        <time>2017-09-18T11:04:19Z</time>
      </trkpt>
      <trkpt lat="44.4717" lon="2.07695">
        <ele>294</ele>
        <time>2017-09-18T11:04:22Z</time>
      </trkpt>
      <trkpt lat="44.47169" lon="2.07691">
        <ele>294</ele>
        <time>2017-09-18T11:04:34Z</time>
      </trkpt>
      <trkpt lat="44.47169" lon="2.07687">
        <ele>294</ele>
        <time>2017-09-18T11:04:37Z</time>
      </trkpt>
      <trkpt lat="44.47171" lon="2.07682">
        <ele>294</ele>
        <time>2017-09-18T11:04:42Z</time>
      </trkpt>
      <trkpt lat="44.47174" lon="2.0767">
        <ele>294</ele>
        <time>2017-09-18T11:04:51Z</time>
      </trkpt>
      <trkpt lat="44.47174" lon="2.07665">
        <ele>294</ele>
        <time>2017-09-18T11:04:57Z</time>
      </trkpt>
      <trkpt lat="44.47175" lon="2.07661">
        <ele>295</ele>
        <time>2017-09-18T11:05:04Z</time>
      </trkpt>
      <trkpt lat="44.47176" lon="2.07657">
        <ele>295</ele>
        <time>2017-09-18T11:05:10Z</time>
      </trkpt>
      <trkpt lat="44.47175" lon="2.07654">
        <ele>295</ele>
        <time>2017-09-18T11:05:25Z</time>
      </trkpt>
      <trkpt lat="44.47173" lon="2.07652">
        <ele>295</ele>
        <time>2017-09-18T11:05:29Z</time>
      </trkpt>
      <trkpt lat="44.47173" lon="2.07648">
        <ele>296</ele>
        <time>2017-09-18T11:05:32Z</time>
      </trkpt>
      <trkpt lat="44.47172" lon="2.07645">
        <ele>296</ele>
        <time>2017-09-18T11:05:38Z</time>
      </trkpt>
      <trkpt lat="44.47169" lon="2.07642">
        <ele>296</ele>
        <time>2017-09-18T11:05:41Z</time>
      </trkpt>
      <trkpt lat="44.47167" lon="2.07639">
        <ele>296</ele>
        <time>2017-09-18T11:05:43Z</time>
      </trkpt>
      <trkpt lat="44.47167" lon="2.07636">
        <ele>296</ele>
        <time>2017-09-18T11:05:46Z</time>
      </trkpt>
      <trkpt lat="44.47166" lon="2.07632">
        <ele>295</ele>
        <time>2017-09-18T11:05:49Z</time>
      </trkpt>
      <trkpt lat="44.47167" lon="2.07629">
        <ele>295</ele>
        <time>2017-09-18T11:05:52Z</time>
      </trkpt>
      <trkpt lat="44.47171" lon="2.07619">
        <ele>297</ele>
        <time>2017-09-18T11:05:59Z</time>
      </trkpt>
      <trkpt lat="44.47172" lon="2.07615">
        <ele>297</ele>
        <time>2017-09-18T11:06:03Z</time>
      </trkpt>
      <trkpt lat="44.47175" lon="2.07613">
        <ele>298</ele>
        <time>2017-09-18T11:41:52Z</time>
      </trkpt>
      <trkpt lat="44.47179" lon="2.07607">
        <ele>298</ele>
        <time>2017-09-18T11:06:38Z</time>
      </trkpt>
      <trkpt lat="44.47182" lon="2.07607">
        <ele>298</ele>
        <time>2017-09-18T11:11:08Z</time>
      </trkpt>
      <trkpt lat="44.47182" lon="2.07607">
        <ele>298</ele>
        <time>2017-09-18T11:11:08Z</time>
      </trkpt>
      <trkpt lat="44.47181" lon="2.07608">
        <ele>298</ele>
        <time>2017-09-18T11:12:33Z</time>
      </trkpt>
      <trkpt lat="44.47179" lon="2.07611">
        <ele>298</ele>
        <time>2017-09-18T11:12:37Z</time>
      </trkpt>
      <trkpt lat="44.47177" lon="2.07615">
        <ele>298</ele>
        <time>2017-09-18T11:12:40Z</time>
      </trkpt>
      <trkpt lat="44.47176" lon="2.07612">
        <ele>298</ele>
        <time>2017-09-18T11:13:04Z</time>
      </trkpt>
      <trkpt lat="44.47177" lon="2.0761">
        <ele>298</ele>
        <time>2017-09-18T11:13:08Z</time>
      </trkpt>
      <trkpt lat="44.4718" lon="2.07608">
        <ele>298</ele>
        <time>2017-09-18T11:42:49Z</time>
      </trkpt>
      <trkpt lat="44.47183" lon="2.07609">
        <ele>298</ele>
        <time>2017-09-18T11:13:35Z</time>
      </trkpt>
      <trkpt lat="44.47179" lon="2.07609">
        <ele>298</ele>
        <time>2017-09-18T11:18:05Z</time>
      </trkpt>
      <trkpt lat="44.47176" lon="2.07613">
        <ele>298</ele>
        <time>2017-09-18T11:18:11Z</time>
      </trkpt>
      <trkpt lat="44.47176" lon="2.07617">
        <ele>297</ele>
        <time>2017-09-18T11:18:15Z</time>
      </trkpt>
      <trkpt lat="44.47176" lon="2.07618">
        <ele>297</ele>
        <time>2017-09-18T11:18:37Z</time>
      </trkpt>
      <trkpt lat="44.47177" lon="2.07614">
        <ele>298</ele>
        <time>2017-09-18T11:18:40Z</time>
      </trkpt>
      <trkpt lat="44.47175" lon="2.07616">
        <ele>297</ele>
        <time>2017-09-18T11:18:59Z</time>
      </trkpt>
      <trkpt lat="44.47178" lon="2.07622">
        <ele>297</ele>
        <time>2017-09-18T11:20:05Z</time>
      </trkpt>
      <trkpt lat="44.47178" lon="2.07624">
        <ele>297</ele>
        <time>2017-09-18T11:27:45Z</time>
      </trkpt>
      <trkpt lat="44.47177" lon="2.07623">
        <ele>297</ele>
        <time>2017-09-18T11:28:42Z</time>
      </trkpt>
      <trkpt lat="44.47175" lon="2.0762">
        <ele>297</ele>
        <time>2017-09-18T11:28:50Z</time>
      </trkpt>
      <trkpt lat="44.47175" lon="2.07618">
        <ele>297</ele>
        <time>2017-09-18T11:34:35Z</time>
      </trkpt>
      <trkpt lat="44.47178" lon="2.07618">
        <ele>297</ele>
        <time>2017-09-18T11:41:39Z</time>
      </trkpt>
      <trkpt lat="44.47175" lon="2.07613">
        <ele>298</ele>
        <time>2017-09-18T11:41:52Z</time>
      </trkpt>
      <trkpt lat="44.4718" lon="2.07608">
        <ele>298</ele>
        <time>2017-09-18T11:42:49Z</time>
      </trkpt>
      <trkpt lat="44.47182" lon="2.07602">
        <ele>298</ele>
        <time>2017-09-18T11:43:25Z</time>
      </trkpt>
      <trkpt lat="44.47186" lon="2.07603">
        <ele>298</ele>
        <time>2017-09-18T11:43:33Z</time>
      </trkpt>
      <trkpt lat="44.47187" lon="2.07605">
        <ele>298</ele>
        <time>2017-09-18T11:43:51Z</time>
      </trkpt>
      <trkpt lat="44.47186" lon="2.0761">
        <ele>298</ele>
        <time>2017-09-18T11:43:58Z</time>
      </trkpt>
      <trkpt lat="44.47182" lon="2.0761">
        <ele>298</ele>
        <time>2017-09-18T11:44:06Z</time>
      </trkpt>
      <trkpt lat="44.47179" lon="2.07614">
        <ele>298</ele>
        <time>2017-09-18T11:44:13Z</time>
      </trkpt>
      <trkpt lat="44.47182" lon="2.07617">
        <ele>298</ele>
        <time>2017-09-18T11:44:46Z</time>
      </trkpt>
      <trkpt lat="44.47185" lon="2.07619">
        <ele>298</ele>
        <time>2017-09-18T11:44:54Z</time>
      </trkpt>
      <trkpt lat="44.47194" lon="2.07595">
        <ele>298</ele>
        <time>2017-09-18T11:45:11Z</time>
      </trkpt>
      <trkpt lat="44.47199" lon="2.07587">
        <ele>298</ele>
        <time>2017-09-18T11:45:18Z</time>
      </trkpt>
      <trkpt lat="44.472" lon="2.07581">
        <ele>300</ele>
        <time>2017-09-18T11:45:22Z</time>
      </trkpt>
      <trkpt lat="44.47201" lon="2.07577">
        <ele>300</ele>
        <time>2017-09-18T11:45:26Z</time>
      </trkpt>
      <trkpt lat="44.47204" lon="2.07573">
        <ele>300</ele>
        <time>2017-09-18T12:01:29Z</time>
      </trkpt>
      <trkpt lat="44.47206" lon="2.07563">
        <ele>301</ele>
        <time>2017-09-18T11:45:40Z</time>
      </trkpt>
      <trkpt lat="44.47207" lon="2.07555">
        <ele>301</ele>
        <time>2017-09-18T11:45:45Z</time>
      </trkpt>
      <trkpt lat="44.47212" lon="2.07556">
        <ele>301</ele>
        <time>2017-09-18T11:45:56Z</time>
      </trkpt>
      <trkpt lat="44.47214" lon="2.07558">
        <ele>301</ele>
        <time>2017-09-18T11:46:00Z</time>
      </trkpt>
      <trkpt lat="44.47212" lon="2.07558">
        <ele>301</ele>
        <time>2017-09-18T11:46:12Z</time>
      </trkpt>
      <trkpt lat="44.47209" lon="2.07559">
        <ele>301</ele>
        <time>2017-09-18T11:46:19Z</time>
      </trkpt>
      <trkpt lat="44.47206" lon="2.07566">
        <ele>301</ele>
        <time>2017-09-18T11:46:34Z</time>
      </trkpt>
      <trkpt lat="44.47205" lon="2.07574">
        <ele>300</ele>
        <time>2017-09-18T11:46:39Z</time>
      </trkpt>
      <trkpt lat="44.47203" lon="2.07578">
        <ele>300</ele>
        <time>2017-09-18T11:46:43Z</time>
      </trkpt>
      <trkpt lat="44.47203" lon="2.07579">
        <ele>300</ele>
        <time>2017-09-18T11:46:56Z</time>
      </trkpt>
      <trkpt lat="44.47206" lon="2.07576">
        <ele>300</ele>
        <time>2017-09-18T11:46:59Z</time>
      </trkpt>
      <trkpt lat="44.47212" lon="2.07574">
        <ele>301</ele>
        <time>2017-09-18T11:47:08Z</time>
      </trkpt>
      <trkpt lat="44.47205" lon="2.07571">
        <ele>300</ele>
        <time>2017-09-18T11:56:08Z</time>
      </trkpt>
      <trkpt lat="44.47204" lon="2.07577">
        <ele>300</ele>
        <time>2017-09-18T11:56:13Z</time>
      </trkpt>
      <trkpt lat="44.47202" lon="2.0758">
        <ele>300</ele>
        <time>2017-09-18T11:56:16Z</time>
      </trkpt>
      <trkpt lat="44.47201" lon="2.07584">
        <ele>298</ele>
        <time>2017-09-18T11:56:20Z</time>
      </trkpt>
      <trkpt lat="44.47197" lon="2.0759">
        <ele>298</ele>
        <time>2017-09-18T11:56:28Z</time>
      </trkpt>
      <trkpt lat="44.47191" lon="2.07595">
        <ele>298</ele>
        <time>2017-09-18T11:56:36Z</time>
      </trkpt>
      <trkpt lat="44.47192" lon="2.07596">
        <ele>298</ele>
        <time>2017-09-18T11:56:58Z</time>
      </trkpt>
      <trkpt lat="44.47197" lon="2.07588">
        <ele>298</ele>
        <time>2017-09-18T11:57:06Z</time>
      </trkpt>
      <trkpt lat="44.47198" lon="2.07585">
        <ele>298</ele>
        <time>2017-09-18T11:57:10Z</time>
      </trkpt>
      <trkpt lat="44.47198" lon="2.0758">
        <ele>300</ele>
        <time>2017-09-18T11:57:13Z</time>
      </trkpt>
      <trkpt lat="44.472" lon="2.07576">
        <ele>300</ele>
        <time>2017-09-18T11:57:16Z</time>
      </trkpt>
      <trkpt lat="44.47205" lon="2.07573">
        <ele>300</ele>
        <time>2017-09-18T11:57:22Z</time>
      </trkpt>
      <trkpt lat="44.47204" lon="2.07573">
        <ele>300</ele>
        <time>2017-09-18T12:01:29Z</time>
      </trkpt>
      <trkpt lat="44.47197" lon="2.07591">
        <ele>298</ele>
        <time>2017-09-18T12:01:47Z</time>
      </trkpt>
      <trkpt lat="44.47196" lon="2.07594">
        <ele>298</ele>
        <time>2017-09-18T12:01:52Z</time>
      </trkpt>
      <trkpt lat="44.47193" lon="2.07598">
        <ele>298</ele>
        <time>2017-09-18T12:02:04Z</time>
      </trkpt>
      <trkpt lat="44.47191" lon="2.07599">
        <ele>298</ele>
        <time>2017-09-18T12:02:09Z</time>
      </trkpt>
      <trkpt lat="44.4719" lon="2.07601">
        <ele>298</ele>
        <time>2017-09-18T12:02:11Z</time>
      </trkpt>
      <trkpt lat="44.47187" lon="2.07602">
        <ele>298</ele>
        <time>2017-09-18T12:02:16Z</time>
      </trkpt>
      <trkpt lat="44.47185" lon="2.07602">
        <ele>298</ele>
        <time>2017-09-18T12:02:19Z</time>
      </trkpt>
      <trkpt lat="44.47183" lon="2.07604">
        <ele>298</ele>
        <time>2017-09-18T12:06:55Z</time>
      </trkpt>
      <trkpt lat="44.47183" lon="2.07606">
        <ele>298</ele>
        <time>2017-09-18T12:05:41Z</time>
      </trkpt>
      <trkpt lat="44.47183" lon="2.07604">
        <ele>298</ele>
        <time>2017-09-18T12:06:55Z</time>
      </trkpt>
      <trkpt lat="44.47179" lon="2.07608">
        <ele>298</ele>
        <time>2017-09-18T12:07:18Z</time>
      </trkpt>
      <trkpt lat="44.47177" lon="2.07612">
        <ele>298</ele>
        <time>2017-09-18T12:07:25Z</time>
      </trkpt>
      <trkpt lat="44.47175" lon="2.07616">
        <ele>297</ele>
        <time>2017-09-18T12:07:29Z</time>
      </trkpt>
      <trkpt lat="44.47176" lon="2.07622">
        <ele>297</ele>
        <time>2017-09-18T12:07:34Z</time>
      </trkpt>
      <trkpt lat="44.47175" lon="2.07627">
        <ele>297</ele>
        <time>2017-09-18T12:08:56Z</time>
      </trkpt>
      <trkpt lat="44.47176" lon="2.07631">
        <ele>297</ele>
        <time>2017-09-18T12:09:00Z</time>
      </trkpt>
      <trkpt lat="44.47172" lon="2.07641">
        <ele>296</ele>
        <time>2017-09-18T12:09:09Z</time>
      </trkpt>
      <trkpt lat="44.47165" lon="2.07654">
        <ele>294</ele>
        <time>2017-09-18T12:09:20Z</time>
      </trkpt>
      <trkpt lat="44.47161" lon="2.0766">
        <ele>294</ele>
        <time>2017-09-18T12:09:39Z</time>
      </trkpt>
      <trkpt lat="44.4716" lon="2.07662">
        <ele>294</ele>
        <time>2017-09-18T12:09:42Z</time>
      </trkpt>
      <trkpt lat="44.47159" lon="2.07659">
        <ele>294</ele>
        <time>2017-09-18T12:10:24Z</time>
      </trkpt>
      <trkpt lat="44.47161" lon="2.07658">
        <ele>294</ele>
        <time>2017-09-18T12:11:03Z</time>
      </trkpt>
      <trkpt lat="44.47164" lon="2.07662">
        <ele>293</ele>
        <time>2017-09-18T12:11:10Z</time>
      </trkpt>
      <trkpt lat="44.47167" lon="2.07667">
        <ele>293</ele>
        <time>2017-09-18T12:11:15Z</time>
      </trkpt>
      <trkpt lat="44.47169" lon="2.07673">
        <ele>293</ele>
        <time>2017-09-18T12:11:22Z</time>
      </trkpt>
      <trkpt lat="44.47172" lon="2.07672">
        <ele>294</ele>
        <time>2017-09-18T12:11:37Z</time>
      </trkpt>
      <trkpt lat="44.47176" lon="2.07649">
        <ele>296</ele>
        <time>2017-09-18T12:11:51Z</time>
      </trkpt>
      <trkpt lat="44.47177" lon="2.07644">
        <ele>296</ele>
        <time>2017-09-18T12:11:54Z</time>
      </trkpt>
      <trkpt lat="44.47177" lon="2.0764">
        <ele>296</ele>
        <time>2017-09-18T12:11:57Z</time>
      </trkpt>
      <trkpt lat="44.47177" lon="2.07636">
        <ele>297</ele>
        <time>2017-09-18T12:12:00Z</time>
      </trkpt>
      <trkpt lat="44.47177" lon="2.07631">
        <ele>297</ele>
        <time>2017-09-18T12:12:04Z</time>
      </trkpt>
      <trkpt lat="44.47178" lon="2.07626">
        <ele>297</ele>
        <time>2017-09-18T12:12:10Z</time>
      </trkpt>
      <trkpt lat="44.47175" lon="2.07624">
        <ele>297</ele>
        <time>2017-09-18T12:12:12Z</time>
      </trkpt>
      <trkpt lat="44.47174" lon="2.07619">
        <ele>297</ele>
        <time>2017-09-18T12:13:29Z</time>
      </trkpt>
      <trkpt lat="44.47175" lon="2.07614">
        <ele>298</ele>
        <time>2017-09-18T12:13:32Z</time>
      </trkpt>
      <trkpt lat="44.47178" lon="2.07611">
        <ele>298</ele>
        <time>2017-09-18T12:13:36Z</time>
      </trkpt>
      <trkpt lat="44.47181" lon="2.07608">
        <ele>298</ele>
        <time>2017-09-18T12:14:30Z</time>
      </trkpt>
      <trkpt lat="44.47181" lon="2.07608">
        <ele>298</ele>
        <time>2017-09-18T12:14:30Z</time>
      </trkpt>
      <trkpt lat="44.47178" lon="2.07609">
        <ele>298</ele>
        <time>2017-09-18T12:18:25Z</time>
      </trkpt>
      <trkpt lat="44.47175" lon="2.07611">
        <ele>298</ele>
        <time>2017-09-18T12:14:39Z</time>
      </trkpt>
      <trkpt lat="44.47178" lon="2.07609">
        <ele>298</ele>
        <time>2017-09-18T12:18:25Z</time>
      </trkpt>
      <trkpt lat="44.47178" lon="2.07609">
        <ele>298</ele>
        <time>2017-09-18T12:18:25Z</time>
      </trkpt>
      <trkpt lat="44.47176" lon="2.07612">
        <ele>298</ele>
        <time>2017-09-18T12:18:31Z</time>
      </trkpt>
      <trkpt lat="44.47174" lon="2.07614">
        <ele>297</ele>
        <time>2017-09-18T12:20:04Z</time>
      </trkpt>
      <trkpt lat="44.47173" lon="2.0762">
        <ele>297</ele>
        <time>2017-09-18T12:21:01Z</time>
      </trkpt>
      <trkpt lat="44.47172" lon="2.07623">
        <ele>297</ele>
        <time>2017-09-18T12:21:06Z</time>
      </trkpt>
      <trkpt lat="44.47161" lon="2.07645">
        <ele>294</ele>
        <time>2017-09-18T12:21:24Z</time>
      </trkpt>
      <trkpt lat="44.47159" lon="2.07648">
        <ele>294</ele>
        <time>2017-09-18T12:21:27Z</time>
      </trkpt>
      <trkpt lat="44.4716" lon="2.07655">
        <ele>294</ele>
        <time>2017-09-18T12:21:32Z</time>
      </trkpt>
      <trkpt lat="44.47165" lon="2.07678">
        <ele>293</ele>
        <time>2017-09-18T12:21:51Z</time>
      </trkpt>
      <trkpt lat="44.4717" lon="2.07721">
        <ele>294</ele>
        <time>2017-09-18T12:22:23Z</time>
      </trkpt>
      <trkpt lat="44.47173" lon="2.07751">
        <ele>292</ele>
        <time>2017-09-18T12:22:45Z</time>
      </trkpt>
      <trkpt lat="44.47173" lon="2.07756">
        <ele>292</ele>
        <time>2017-09-18T12:22:48Z</time>
      </trkpt>
      <trkpt lat="44.47169" lon="2.07763">
        <ele>292</ele>
        <time>2017-09-18T12:22:56Z</time>
      </trkpt>
      <trkpt lat="44.47162" lon="2.07769">
        <ele>291</ele>
        <time>2017-09-18T12:23:04Z</time>
      </trkpt>
      <trkpt lat="44.47158" lon="2.07771">
        <ele>291</ele>
        <time>2017-09-18T12:23:09Z</time>
      </trkpt>
      <trkpt lat="44.47154" lon="2.07778">
        <ele>291</ele>
        <time>2017-09-18T12:23:15Z</time>
      </trkpt>
      <trkpt lat="44.47148" lon="2.07779">
        <ele>291</ele>
        <time>2017-09-18T12:23:25Z</time>
      </trkpt>
      <trkpt lat="44.47141" lon="2.07779">
        <ele>291</ele>
        <time>2017-09-18T12:23:30Z</time>
      </trkpt>
      <trkpt lat="44.47137" lon="2.07782">
        <ele>291</ele>
        <time>2017-09-18T12:23:36Z</time>
      </trkpt>
      <trkpt lat="44.47133" lon="2.07781">
        <ele>291</ele>
        <time>2017-09-18T12:23:40Z</time>
      </trkpt>
      <trkpt lat="44.47119" lon="2.07773">
        <ele>291</ele>
        <time>2017-09-18T12:23:56Z</time>
      </trkpt>
      <trkpt lat="44.47102" lon="2.07771">
        <ele>291</ele>
        <time>2017-09-18T12:24:19Z</time>
      </trkpt>
      <trkpt lat="44.47094" lon="2.0777">
        <ele>291</ele>
        <time>2017-09-18T12:24:25Z</time>
      </trkpt>
      <trkpt lat="44.47074" lon="2.07772">
        <ele>291</ele>
        <time>2017-09-18T12:24:43Z</time>
      </trkpt>
      <trkpt lat="44.4706" lon="2.07769">
        <ele>291</ele>
        <time>2017-09-18T12:24:54Z</time>
      </trkpt>
      <trkpt lat="44.47055" lon="2.07771">
        <ele>290</ele>
        <time>2017-09-18T12:24:59Z</time>
      </trkpt>
      <trkpt lat="44.47046" lon="2.07763">
        <ele>290</ele>
        <time>2017-09-18T12:25:09Z</time>
      </trkpt>
      <trkpt lat="44.47039" lon="2.07758">
        <ele>291</ele>
        <time>2017-09-18T12:25:16Z</time>
      </trkpt>
      <trkpt lat="44.47034" lon="2.07752">
        <ele>291</ele>
        <time>2017-09-18T12:25:22Z</time>
      </trkpt>
      <trkpt lat="44.4701" lon="2.07728">
        <ele>293</ele>
        <time>2017-09-18T12:25:48Z</time>
      </trkpt>
      <trkpt lat="44.47007" lon="2.07725">
        <ele>293</ele>
        <time>2017-09-18T12:25:52Z</time>
      </trkpt>
      <trkpt lat="44.46995" lon="2.0772">
        <ele>292</ele>
        <time>2017-09-18T12:26:03Z</time>
      </trkpt>
      <trkpt lat="44.46991" lon="2.07715">
        <ele>292</ele>
        <time>2017-09-18T12:26:07Z</time>
      </trkpt>
      <trkpt lat="44.4699" lon="2.0771">
        <ele>292</ele>
        <time>2017-09-18T12:26:10Z</time>
      </trkpt>
      <trkpt lat="44.4699" lon="2.07697">
        <ele>292</ele>
        <time>2017-09-18T12:26:21Z</time>
      </trkpt>
      <trkpt lat="44.46992" lon="2.07692">
        <ele>293</ele>
        <time>2017-09-18T12:26:28Z</time>
      </trkpt>
      <trkpt lat="44.46994" lon="2.07686">
        <ele>293</ele>
        <time>2017-09-18T12:26:34Z</time>
      </trkpt>
      <trkpt lat="44.46996" lon="2.07681">
        <ele>293</ele>
        <time>2017-09-18T12:26:40Z</time>
      </trkpt>
      <trkpt lat="44.46999" lon="2.07681">
        <ele>293</ele>
        <time>2017-09-18T12:27:14Z</time>
      </trkpt>
      <trkpt lat="44.47002" lon="2.07686">
        <ele>294</ele>
        <time>2017-09-18T12:27:31Z</time>
      </trkpt>
      <trkpt lat="44.47003" lon="2.07691">
        <ele>293</ele>
        <time>2017-09-18T12:31:27Z</time>
      </trkpt>
      <trkpt lat="44.47007" lon="2.07692">
        <ele>293</ele>
        <time>2017-09-18T12:31:32Z</time>
      </trkpt>
      <trkpt lat="44.47007" lon="2.07687">
        <ele>294</ele>
        <time>2017-09-18T12:31:57Z</time>
      </trkpt>
      <trkpt lat="44.47002" lon="2.07681">
        <ele>294</ele>
        <time>2017-09-18T12:32:08Z</time>
      </trkpt>
      <trkpt lat="44.46998" lon="2.0768">
        <ele>293</ele>
        <time>2017-09-18T12:32:14Z</time>
      </trkpt>
      <trkpt lat="44.46995" lon="2.07674">
        <ele>293</ele>
        <time>2017-09-18T12:32:18Z</time>
      </trkpt>
      <trkpt lat="44.46992" lon="2.07671">
        <ele>293</ele>
        <time>2017-09-18T12:32:35Z</time>
      </trkpt>
      <trkpt lat="44.46993" lon="2.07673">
        <ele>293</ele>
        <time>2017-09-18T12:33:44Z</time>
      </trkpt>
      <trkpt lat="44.46994" lon="2.07672">
        <ele>293</ele>
        <time>2017-09-18T12:34:43Z</time>
      </trkpt>
      <trkpt lat="44.46995" lon="2.07673">
        <ele>293</ele>
        <time>2017-09-18T12:36:27Z</time>
      </trkpt>
    </trkseg>
  </trk>
</gpx>